Darstellungsparameter: Aktuell verwendete Einstellungen:
Skalierung der Graphiken ... ?
xyx+y,   Skalierungsfaktor:      Skalierung: Modus: x, Faktor: 1
Darstellungszeitraum ... ?
Vom - - bis: - -   Zeitraum: 16.09.2009 - 15.03.2010
Min/Max/Avg-Anzeige ... ?
Zeige MMA aktuell
Zeige MMA Monat
Zeige MMA alles
Zeige --A aktuell
Zeige --A Monat
Zeige --A alles
Keine MMA-Anzeige
MMA:
Average (ber die Originaldaten)
MMA-Basis: 16.09.2009 - 15.03.2010
Quicknavigation für Darstellung... ?
Tage:      1T, 2T, 3T, 5T -1T -2T -3T -5T +1T +2T +3T +5T
Wochen: 1W, 2W, 3W -1W -2W -3W +1W +2W +3W
Monate: 1M, 3M, 6M -1M -3M -6M +1M +3M +6M
Jahre:    1J, 3J, 5J, 10J -1J -3J -5J -10J +1J +3J +5J +10J
Nutze für die Darstellung ... ?
Originaldaten oder Mittelwerte auf ...
Stundenbasis Tagesbasis Wochenbasis
Monatsbasis Jahresbasis      Datenbasis: Original-Daten
Darstellen als:
Statistik (Auto) Statistik J:M      Darstellung:
Zur Graphik,    zurück zur Übersicht aller Sensoren.
 
Tabellarische Datenbersicht: ?
 
Sensor: Nr:Datum:Temp:Abs-Feuchte:Windchill:Wind:
Aussen-T/F 1 16-09-2009 00:00:02 14.6 C 11.64 g/m*3 14.6 C 0 km/h
2 16-09-2009 00:12:02 14.6 C 11.64 g/m*3 14.6 C 0 km/h
3 16-09-2009 00:24:02 14.6 C 11.64 g/m*3 14.6 C 0 km/h
4 16-09-2009 00:36:02 14.6 C 11.64 g/m*3 14.6 C 0 km/h
5 16-09-2009 00:48:02 14.6 C 11.64 g/m*3 14.6 C 0 km/h
6 16-09-2009 01:00:02 14.6 C 11.64 g/m*3 14.6 C 0 km/h
7 16-09-2009 01:12:02 14.6 C 11.64 g/m*3 14.6 C 0 km/h
8 16-09-2009 01:24:02 14.6 C 11.64 g/m*3 14.6 C 0 km/h
9 16-09-2009 01:36:02 14.6 C 11.64 g/m*3 14.6 C 0 km/h
10 16-09-2009 01:48:02 14.6 C 11.51 g/m*3 14.6 C 0 km/h
11 16-09-2009 02:00:02 14.4 C 11.37 g/m*3 14.4 C 0 km/h
12 16-09-2009 02:12:02 14.4 C 11.37 g/m*3 14.4 C 0 km/h
13 16-09-2009 02:24:02 14.2 C 11.23 g/m*3 14.2 C 0 km/h
14 16-09-2009 02:36:02 14.6 C 11.51 g/m*3 14.6 C 0 km/h
15 16-09-2009 02:48:02 14.4 C 11.37 g/m*3 14.4 C 0 km/h
16 16-09-2009 03:00:02 14.4 C 11.37 g/m*3 14.4 C 0 km/h
17 16-09-2009 03:12:02 14.4 C 11.37 g/m*3 14.4 C 0 km/h
18 16-09-2009 03:24:02 14.4 C 11.37 g/m*3 14.4 C 0 km/h
19 16-09-2009 03:36:03 14.4 C 11.37 g/m*3 14.4 C 0 km/h
20 16-09-2009 03:48:03 14.4 C 11.37 g/m*3 14.4 C 0 km/h
21 16-09-2009 04:00:03 14.3 C 11.3 g/m*3 14.3 C 0 km/h
22 16-09-2009 04:12:03 14.3 C 11.3 g/m*3 14.3 C 0 km/h
23 16-09-2009 04:24:03 14.1 C 11.04 g/m*3 14.1 C 0 km/h
24 16-09-2009 04:36:03 14.4 C 11.25 g/m*3 14.4 C 0 km/h
25 16-09-2009 04:48:03 14.4 C 11.13 g/m*3 14.4 C 0 km/h
Sensor: Nr:Datum:Temp:Abs-Feuchte:Windchill:Wind:
Aussen-T/F 26 16-09-2009 05:00:03 14.3 C 11.06 g/m*3 14.3 C 0 km/h
27 16-09-2009 05:12:03 14.3 C 11.06 g/m*3 14.3 C 0 km/h
28 16-09-2009 05:24:03 14.3 C 11.06 g/m*3 14.3 C 0 km/h
29 16-09-2009 05:36:03 14.3 C 11.06 g/m*3 14.3 C 0 km/h
30 16-09-2009 05:48:03 14.2 C 10.99 g/m*3 14.2 C 0 km/h
31 16-09-2009 06:00:03 14.3 C 11.06 g/m*3 14.3 C 0 km/h
32 16-09-2009 06:12:03 14.3 C 11.06 g/m*3 14.3 C 0 km/h
33 16-09-2009 06:24:03 14.3 C 10.93 g/m*3 14.3 C 0 km/h
34 16-09-2009 06:36:03 14.3 C 10.93 g/m*3 14.3 C 0 km/h
35 16-09-2009 06:48:03 14.3 C 10.93 g/m*3 14.3 C 0 km/h
36 16-09-2009 07:00:03 14.3 C 10.93 g/m*3 14.3 C 0 km/h
37 16-09-2009 07:12:03 14.4 C 11 g/m*3 14.4 C 0 km/h
38 16-09-2009 07:24:03 14.4 C 11 g/m*3 14.4 C 0 km/h
39 16-09-2009 07:36:03 14.5 C 11.07 g/m*3 14.5 C 0 km/h
40 16-09-2009 07:48:04 14.5 C 11.07 g/m*3 14.5 C 0 km/h
41 16-09-2009 08:00:04 14.5 C 10.94 g/m*3 14.5 C 0 km/h
42 16-09-2009 08:12:04 14.5 C 10.94 g/m*3 14.5 C 0 km/h
43 16-09-2009 08:24:04 14.6 C 11.01 g/m*3 14.6 C 0 km/h
44 16-09-2009 08:36:04 14.8 C 11.15 g/m*3 14.8 C 0 km/h
45 16-09-2009 08:48:04 14.8 C 11.15 g/m*3 14.8 C 0 km/h
46 16-09-2009 09:00:04 14.8 C 11.15 g/m*3 14.8 C 0 km/h
47 16-09-2009 09:12:02 15 C 11.16 g/m*3 15 C 0 km/h
48 16-09-2009 09:24:02 15.1 C 11.22 g/m*3 15.1 C 0 km/h
49 16-09-2009 09:36:02 15.2 C 11.29 g/m*3 15.2 C 0 km/h
50 16-09-2009 09:48:01 15.4 C 11.3 g/m*3 15.4 C 0 km/h
Sensor: Nr:Datum:Temp:Abs-Feuchte:Windchill:Wind:
Aussen-T/F 51 16-09-2009 10:00:01 15.6 C 11.44 g/m*3 15.6 C 0 km/h
52 16-09-2009 10:12:02 15.7 C 11.37 g/m*3 15.7 C 0 km/h
53 16-09-2009 10:24:01 15.9 C 11.51 g/m*3 15.9 C 0 km/h
54 16-09-2009 10:36:02 16 C 11.44 g/m*3 16 C 0 km/h
55 16-09-2009 10:48:01 16.2 C 11.58 g/m*3 16.2 C 0 km/h
56 16-09-2009 11:00:01 16.4 C 11.72 g/m*3 16.4 C 0 km/h
57 16-09-2009 11:12:02 16.5 C 11.65 g/m*3 16.5 C 0 km/h
58 16-09-2009 11:24:02 16.8 C 11.87 g/m*3 16.8 C 0 km/h
59 16-09-2009 11:36:02 17 C 11.87 g/m*3 17 C 0 km/h
60 16-09-2009 11:48:02 17.1 C 11.94 g/m*3 17.1 C 0 km/h
61 16-09-2009 12:00:02 17.3 C 11.93 g/m*3 17.3 C 0 km/h
62 16-09-2009 12:12:01 17.5 C 11.78 g/m*3 17.5 C 0 km/h
63 16-09-2009 12:24:02 17.7 C 11.92 g/m*3 17.7 C 0 km/h
64 16-09-2009 12:36:01 18.1 C 11.9 g/m*3 18.1 C 0 km/h
65 16-09-2009 12:48:02 18.3 C 11.88 g/m*3 18.3 C 0 km/h
66 16-09-2009 13:00:02 18.7 C 12.01 g/m*3 18.7 C 0 km/h
67 16-09-2009 13:12:01 19.1 C 11.8 g/m*3 19.1 C 0 km/h
68 16-09-2009 13:24:01 19.5 C 11.24 g/m*3 19.5 C 0 km/h
69 16-09-2009 13:36:02 20 C 10.89 g/m*3 20 C 0 km/h
70 16-09-2009 13:48:02 19.9 C 10.82 g/m*3 19.9 C 0 km/h
71 16-09-2009 14:00:02 19.6 C 10.8 g/m*3 19.6 C 0 km/h
72 16-09-2009 14:12:01 19.6 C 10.8 g/m*3 19.6 C 0 km/h
73 16-09-2009 14:24:02 20 C 10.71 g/m*3 20 C 0 km/h
74 16-09-2009 14:36:02 20.4 C 10.44 g/m*3 20.4 C 0 km/h
75 16-09-2009 14:48:02 20.4 C 10.44 g/m*3 20.4 C 0 km/h
Sensor: Nr:Datum:Temp:Abs-Feuchte:Windchill:Wind:
Aussen-T/F 76 16-09-2009 15:00:02 20 C 10.54 g/m*3 20 C 0 km/h
77 16-09-2009 15:12:03 20.2 C 10.84 g/m*3 20.2 C 0 km/h
78 16-09-2009 15:24:02 20.3 C 10.73 g/m*3 20.3 C 0 km/h
79 16-09-2009 15:36:02 20.1 C 10.78 g/m*3 20.1 C 0 km/h
80 16-09-2009 15:48:01 20 C 10.89 g/m*3 20 C 0 km/h
81 16-09-2009 16:00:01 19.8 C 11.44 g/m*3 19.8 C 0 km/h
82 16-09-2009 16:12:02 19.6 C 11.48 g/m*3 19.6 C 0 km/h
83 16-09-2009 16:24:01 19.7 C 11.38 g/m*3 19.7 C 0 km/h
84 16-09-2009 16:36:01 19.7 C 11.38 g/m*3 19.7 C 0 km/h
85 16-09-2009 16:48:01 19.7 C 11.38 g/m*3 19.7 C 0 km/h
86 16-09-2009 17:00:01 19.6 C 11.48 g/m*3 19.6 C 0 km/h
87 16-09-2009 17:12:01 19.7 C 11.38 g/m*3 19.7 C 0 km/h
88 16-09-2009 17:24:02 19.7 C 11.21 g/m*3 19.7 C 0 km/h
89 16-09-2009 17:36:01 19.6 C 11.31 g/m*3 19.6 C 0 km/h
90 16-09-2009 17:48:02 19.5 C 11.08 g/m*3 19.5 C 0 km/h
91 16-09-2009 18:00:02 19.4 C 11.35 g/m*3 19.4 C 0 km/h
92 16-09-2009 18:12:02 19.5 C 11.41 g/m*3 19.5 C 0 km/h
93 16-09-2009 18:24:02 19.4 C 11.35 g/m*3 19.4 C 0 km/h
94 16-09-2009 18:36:03 19.3 C 11.28 g/m*3 19.3 C 0 km/h
95 16-09-2009 18:48:03 19.1 C 11.47 g/m*3 19.1 C 0 km/h
96 16-09-2009 19:00:03 18.8 C 11.6 g/m*3 18.8 C 0 km/h
97 16-09-2009 19:12:02 18.7 C 11.69 g/m*3 18.7 C 0 km/h
98 16-09-2009 19:24:02 18.3 C 11.57 g/m*3 18.3 C 0 km/h
99 16-09-2009 19:36:02 18.1 C 11.59 g/m*3 18.1 C 0 km/h
100 16-09-2009 19:48:02 18.1 C 11.59 g/m*3 18.1 C 0 km/h
Sensor: Nr:Datum:Temp:Abs-Feuchte:Windchill:Wind:
Aussen-T/F 101 16-09-2009 20:00:02 17.9 C 11.91 g/m*3 17.9 C 0 km/h
102 16-09-2009 20:12:02 18 C 11.83 g/m*3 18 C 0 km/h
103 16-09-2009 20:24:02 17.8 C 11.84 g/m*3 17.8 C 0 km/h
104 16-09-2009 20:36:01 17.3 C 11.79 g/m*3 17.3 C 0 km/h
105 16-09-2009 20:48:02 17 C 11.72 g/m*3 17 C 0 km/h
106 16-09-2009 21:00:02 16.9 C 11.94 g/m*3 16.9 C 0 km/h
107 16-09-2009 21:12:02 17.2 C 12.15 g/m*3 17.2 C 0 km/h
108 16-09-2009 21:24:01 17.3 C 12.08 g/m*3 17.3 C 0 km/h
109 16-09-2009 21:36:01 17.4 C 12.15 g/m*3 17.4 C 0 km/h
110 16-09-2009 21:48:01 17.4 C 12.15 g/m*3 17.4 C 0 km/h
111 16-09-2009 22:00:01 17.4 C 12 g/m*3 17.4 C 0 km/h
112 16-09-2009 22:12:01 17.3 C 11.79 g/m*3 17.3 C 0 km/h
113 16-09-2009 22:24:01 17.3 C 11.79 g/m*3 17.3 C 0 km/h
114 16-09-2009 22:36:02 17.3 C 11.79 g/m*3 17.3 C 0 km/h
115 16-09-2009 22:48:02 17.3 C 11.64 g/m*3 17.3 C 0 km/h
116 16-09-2009 23:00:02 17.3 C 11.49 g/m*3 17.3 C 0 km/h
117 16-09-2009 23:12:03 17.2 C 11.42 g/m*3 17.2 C 0 km/h
118 16-09-2009 23:24:02 17.1 C 11.5 g/m*3 17.1 C 0 km/h
119 16-09-2009 23:36:02 17.2 C 11.57 g/m*3 17.2 C 0 km/h
120 16-09-2009 23:48:01 17 C 11.43 g/m*3 17 C 0 km/h
121 17-09-2009 00:00:01 16.7 C 11.37 g/m*3 16.7 C 0 km/h
122 17-09-2009 00:12:02 16.7 C 11.51 g/m*3 16.7 C 0 km/h
123 17-09-2009 00:24:01 16.6 C 11.44 g/m*3 16.6 C 0 km/h
124 17-09-2009 00:36:02 16.6 C 11.44 g/m*3 16.6 C 0 km/h
125 17-09-2009 00:48:01 16.6 C 11.44 g/m*3 16.6 C 0 km/h
Sensor: Nr:Datum:Temp:Abs-Feuchte:Windchill:Wind:
Aussen-T/F 126 17-09-2009 01:00:01 16.6 C 11.44 g/m*3 16.6 C 0 km/h
127 17-09-2009 01:12:02 16.6 C 11.44 g/m*3 16.6 C 0 km/h
128 17-09-2009 01:24:01 16.7 C 11.37 g/m*3 16.7 C 0 km/h
129 17-09-2009 01:36:02 16.7 C 11.23 g/m*3 16.7 C 0 km/h
130 17-09-2009 01:48:01 16.5 C 11.23 g/m*3 16.5 C 0 km/h
131 17-09-2009 02:00:01 16.5 C 11.23 g/m*3 16.5 C 0 km/h
132 17-09-2009 02:12:02 16.6 C 11.16 g/m*3 16.6 C 0 km/h
133 17-09-2009 02:24:02 16.6 C 11.16 g/m*3 16.6 C 0 km/h
134 17-09-2009 02:36:02 16.6 C 11.02 g/m*3 16.6 C 0 km/h
135 17-09-2009 02:48:02 16.6 C 11.02 g/m*3 16.6 C 0 km/h
136 17-09-2009 03:00:02 16.6 C 11.02 g/m*3 16.6 C 0 km/h
137 17-09-2009 03:12:01 16.5 C 11.09 g/m*3 16.5 C 0 km/h
138 17-09-2009 03:24:01 16.5 C 11.09 g/m*3 16.5 C 0 km/h
139 17-09-2009 03:36:01 16.5 C 10.95 g/m*3 16.5 C 0 km/h
140 17-09-2009 03:48:01 16.5 C 10.95 g/m*3 16.5 C 0 km/h
141 17-09-2009 04:00:01 16.4 C 10.89 g/m*3 16.4 C 0 km/h
142 17-09-2009 04:12:01 16.4 C 10.89 g/m*3 16.4 C 0 km/h
143 17-09-2009 04:24:01 16.4 C 10.89 g/m*3 16.4 C 0 km/h
144 17-09-2009 04:36:01 16.3 C 10.68 g/m*3 16.3 C 0 km/h
145 17-09-2009 04:48:01 16.3 C 10.41 g/m*3 16.3 C 0 km/h
146 17-09-2009 05:00:01 16.2 C 10.34 g/m*3 16.2 C 0 km/h
147 17-09-2009 05:12:01 16 C 10.08 g/m*3 16 C 0 km/h
148 17-09-2009 05:24:02 16 C 10.08 g/m*3 16 C 0 km/h
149 17-09-2009 05:36:01 15.9 C 10.16 g/m*3 15.9 C 0 km/h
150 17-09-2009 05:48:02 15.8 C 10.1 g/m*3 15.8 C 0 km/h
Sensor: Nr:Datum:Temp:Abs-Feuchte:Windchill:Wind:
Aussen-T/F 151 17-09-2009 06:00:02 15.8 C 10.1 g/m*3 15.8 C 0 km/h
152 17-09-2009 06:12:01 15.6 C 9.97 g/m*3 15.6 C 0 km/h
153 17-09-2009 06:24:02 15.4 C 9.85 g/m*3 15.4 C 0 km/h
154 17-09-2009 06:36:01 15.4 C 9.85 g/m*3 15.4 C 0 km/h
155 17-09-2009 06:48:02 15.4 C 9.72 g/m*3 15.4 C 0 km/h
156 17-09-2009 07:00:02 15.3 C 9.79 g/m*3 15.3 C 0 km/h
157 17-09-2009 07:12:01 15.3 C 9.79 g/m*3 15.3 C 0 km/h
158 17-09-2009 07:24:01 15.3 C 9.66 g/m*3 15.3 C 0 km/h
159 17-09-2009 07:36:02 15.2 C 9.61 g/m*3 15.2 C 0 km/h
160 17-09-2009 07:48:01 15.2 C 9.48 g/m*3 15.2 C 0 km/h
161 17-09-2009 08:00:01 15.2 C 9.35 g/m*3 15.2 C 0 km/h
162 17-09-2009 08:12:01 15.1 C 9.42 g/m*3 15.1 C 0 km/h
163 17-09-2009 08:24:01 15.2 C 9.48 g/m*3 15.2 C 0 km/h
164 17-09-2009 08:36:02 15.3 C 9.27 g/m*3 15.3 C 0 km/h
165 17-09-2009 08:48:01 15.2 C 9.09 g/m*3 15.2 C 0 km/h
166 17-09-2009 09:00:01 15.4 C 9.07 g/m*3 15.4 C 0 km/h
167 17-09-2009 09:12:02 15.5 C 8.99 g/m*3 15.5 C 0 km/h
168 17-09-2009 09:24:01 15.7 C 9.1 g/m*3 15.7 C 0 km/h
169 17-09-2009 09:36:01 15.9 C 9.07 g/m*3 15.9 C 0 km/h
170 17-09-2009 09:48:01 16.1 C 8.77 g/m*3 16.1 C 0 km/h
171 17-09-2009 10:00:01 16.2 C 8.69 g/m*3 16.2 C 0 km/h
172 17-09-2009 10:12:02 16.4 C 8.79 g/m*3 16.4 C 0 km/h
173 17-09-2009 10:24:01 16.6 C 8.76 g/m*3 16.6 C 0 km/h
174 17-09-2009 10:36:01 17 C 8.54 g/m*3 17 C 0 km/h
175 17-09-2009 10:48:01 17.3 C 8.84 g/m*3 17.3 C 0 km/h
Sensor: Nr:Datum:Temp:Abs-Feuchte:Windchill:Wind:
Aussen-T/F 176 17-09-2009 11:00:01 17 C 8.68 g/m*3 17 C 0 km/h
177 17-09-2009 11:12:01 17.3 C 8.69 g/m*3 17.3 C 0 km/h
178 17-09-2009 11:24:01 17.4 C 8.6 g/m*3 17.4 C 0 km/h
179 17-09-2009 11:36:01 17.7 C 8.75 g/m*3 17.7 C 0 km/h
180 17-09-2009 11:48:01 18.1 C 8.65 g/m*3 18.1 C 0 km/h
181 17-09-2009 12:00:01 18.2 C 8.7 g/m*3 18.2 C 0 km/h
182 17-09-2009 12:12:01 18.7 C 8.81 g/m*3 18.7 C 0 km/h
183 17-09-2009 12:24:02 18.8 C 9.02 g/m*3 18.8 C 0 km/h
184 17-09-2009 12:36:01 19.3 C 8.96 g/m*3 19.3 C 0 km/h
185 17-09-2009 12:48:02 20.4 C 8.67 g/m*3 20.4 C 0 km/h
186 17-09-2009 13:00:02 20.9 C 9.11 g/m*3 20.9 C 0 km/h
187 17-09-2009 13:12:01 20.8 C 8.87 g/m*3 20.8 C 0 km/h
188 17-09-2009 13:24:02 21 C 8.43 g/m*3 21 C 0 km/h
189 17-09-2009 13:36:01 21.6 C 8.53 g/m*3 21.6 C 0 km/h
190 17-09-2009 13:48:02 22 C 8.73 g/m*3 22 C 0 km/h
191 17-09-2009 14:00:02 22.9 C 8.38 g/m*3 22.9 C 0 km/h
192 17-09-2009 14:12:01 23.8 C 7.96 g/m*3 23.8 C 0 km/h
193 17-09-2009 14:24:01 23.3 C 8.36 g/m*3 23.3 C 0 km/h
194 17-09-2009 14:36:02 23.1 C 8.68 g/m*3 23.1 C 0 km/h
195 17-09-2009 14:48:01 23.2 C 8.52 g/m*3 23.2 C 0 km/h
196 17-09-2009 15:00:01 23 C 9.25 g/m*3 23 C 0 km/h
197 17-09-2009 15:12:01 22.7 C 9.09 g/m*3 22.7 C 0 km/h
198 17-09-2009 15:24:01 23.2 C 8.94 g/m*3 23.2 C 0 km/h
199 17-09-2009 15:36:02 23.7 C 9.2 g/m*3 23.7 C 0 km/h
200 17-09-2009 15:48:01 23.2 C 8.94 g/m*3 23.2 C 0 km/h
Sensor: Nr:Datum:Temp:Abs-Feuchte:Windchill:Wind:
Aussen-T/F 201 17-09-2009 16:00:01 24.2 C 9.24 g/m*3 24.2 C 0 km/h
202 17-09-2009 16:12:02 25.1 C 8.33 g/m*3 25.1 C 0 km/h
203 17-09-2009 16:24:01 25.6 C 9.05 g/m*3 25.6 C 0 km/h
204 17-09-2009 16:36:01 26.3 C 8.66 g/m*3 26.3 C 0 km/h
205 17-09-2009 16:48:01 26.7 C 8.35 g/m*3 26.7 C 0 km/h
206 17-09-2009 17:00:01 26.4 C 7.97 g/m*3 26.4 C 0 km/h
207 17-09-2009 17:12:02 26.1 C 8.81 g/m*3 26.1 C 0 km/h
208 17-09-2009 17:24:01 24.5 C 9.4 g/m*3 24.5 C 0 km/h
209 17-09-2009 17:36:01 24.2 C 9.46 g/m*3 24.2 C 0 km/h
210 17-09-2009 17:48:01 24.5 C 9.4 g/m*3 24.5 C 0 km/h
211 17-09-2009 18:00:01 24.8 C 9.56 g/m*3 24.8 C 0 km/h
212 17-09-2009 18:12:01 24.4 C 9.35 g/m*3 24.4 C 0 km/h
213 17-09-2009 18:24:02 23.1 C 9.72 g/m*3 23.1 C 0 km/h
214 17-09-2009 18:36:01 22.1 C 9.76 g/m*3 22.1 C 0 km/h
215 17-09-2009 18:48:01 21.3 C 10.07 g/m*3 21.3 C 0 km/h
216 17-09-2009 19:00:01 20.5 C 10.14 g/m*3 20.5 C 0 km/h
217 17-09-2009 19:12:01 19.8 C 10.08 g/m*3 19.8 C 0 km/h
218 17-09-2009 19:24:02 19.4 C 10.01 g/m*3 19.4 C 0 km/h
219 17-09-2009 19:36:01 18.9 C 10.04 g/m*3 18.9 C 0 km/h
220 17-09-2009 19:48:02 18.6 C 10.03 g/m*3 18.6 C 0 km/h
221 17-09-2009 20:00:02 18.2 C 9.95 g/m*3 18.2 C 0 km/h
222 17-09-2009 20:12:01 17.9 C 10.08 g/m*3 17.9 C 0 km/h
223 17-09-2009 20:24:02 17.6 C 10.05 g/m*3 17.6 C 0 km/h
224 17-09-2009 20:36:01 17.3 C 10.02 g/m*3 17.3 C 0 km/h
225 17-09-2009 20:48:02 17.1 C 9.9 g/m*3 17.1 C 0 km/h
Sensor: Nr:Datum:Temp:Abs-Feuchte:Windchill:Wind:
Aussen-T/F 226 17-09-2009 21:00:02 16.8 C 9.87 g/m*3 16.8 C 0 km/h
227 17-09-2009 21:12:01 16.9 C 10.21 g/m*3 16.9 C 0 km/h
228 17-09-2009 21:24:02 17 C 9.98 g/m*3 17 C 0 km/h
229 17-09-2009 21:36:01 16.9 C 10.21 g/m*3 16.9 C 0 km/h
230 17-09-2009 21:48:02 17 C 10.27 g/m*3 17 C 0 km/h
231 17-09-2009 22:00:02 17.3 C 10.31 g/m*3 17.3 C 0 km/h
232 17-09-2009 22:12:01 17.2 C 10.25 g/m*3 17.2 C 0 km/h
233 17-09-2009 22:24:01 17.2 C 9.96 g/m*3 17.2 C 0 km/h
234 17-09-2009 22:37:02 17.1 C 9.75 g/m*3 17.1 C 0 km/h
235 17-09-2009 22:49:03 17.2 C 9.81 g/m*3 17.2 C 0 km/h
236 17-09-2009 23:01:03 17 C 9.12 g/m*3 17 C 0 km/h
237 17-09-2009 23:13:03 17 C 8.83 g/m*3 17 C 0 km/h
238 17-09-2009 23:25:03 17.1 C 9.32 g/m*3 17.1 C 0 km/h
239 17-09-2009 23:37:03 17 C 8.97 g/m*3 17 C 0 km/h
240 17-09-2009 23:49:03 17 C 9.12 g/m*3 17 C 0 km/h
241 18-09-2009 00:01:03 16.8 C 9.15 g/m*3 16.8 C 0 km/h
242 18-09-2009 00:13:03 16.5 C 9.13 g/m*3 16.5 C 0 km/h
243 18-09-2009 00:25:03 16.3 C 9.02 g/m*3 16.3 C 0 km/h
244 18-09-2009 00:37:03 16.2 C 8.96 g/m*3 16.2 C 0 km/h
245 18-09-2009 00:49:03 16.1 C 8.91 g/m*3 16.1 C 0 km/h
246 18-09-2009 01:01:03 16 C 8.99 g/m*3 16 C 0 km/h
247 18-09-2009 01:13:03 16 C 8.86 g/m*3 16 C 0 km/h
248 18-09-2009 01:25:03 16.2 C 8.96 g/m*3 16.2 C 0 km/h
249 18-09-2009 01:37:03 16.2 C 8.83 g/m*3 16.2 C 0 km/h
250 18-09-2009 01:49:03 16.2 C 8.96 g/m*3 16.2 C 0 km/h
Sensor: Nr:Datum:Temp:Abs-Feuchte:Windchill:Wind:
Aussen-T/F 251 18-09-2009 02:01:03 15.9 C 8.94 g/m*3 15.9 C 0 km/h
252 18-09-2009 02:13:03 15.4 C 8.8 g/m*3 15.4 C 0 km/h
253 18-09-2009 02:25:03 15 C 8.72 g/m*3 15 C 0 km/h
254 18-09-2009 02:37:03 14.5 C 8.71 g/m*3 14.5 C 0 km/h
255 18-09-2009 02:49:04 14.3 C 8.85 g/m*3 14.3 C 0 km/h
256 18-09-2009 03:01:04 14 C 8.68 g/m*3 14 C 0 km/h
257 18-09-2009 03:13:04 13.7 C 8.76 g/m*3 13.7 C 0 km/h
258 18-09-2009 03:25:04 13.6 C 8.83 g/m*3 13.6 C 0 km/h
259 18-09-2009 03:37:04 13.6 C 8.94 g/m*3 13.6 C 0 km/h
260 18-09-2009 03:49:04 13.4 C 8.83 g/m*3 13.4 C 0 km/h
261 18-09-2009 04:01:04 13.2 C 8.73 g/m*3 13.2 C 0 km/h
262 18-09-2009 04:13:04 13 C 8.73 g/m*3 13 C 0 km/h
263 18-09-2009 04:25:04 13 C 8.85 g/m*3 13 C 0 km/h
264 18-09-2009 04:37:04 13.1 C 8.9 g/m*3 13.1 C 0 km/h
265 18-09-2009 04:49:04 13.3 C 9.13 g/m*3 13.3 C 0 km/h
266 18-09-2009 05:01:04 13.5 C 9.24 g/m*3 13.5 C 0 km/h
267 18-09-2009 05:13:04 13.5 C 9.24 g/m*3 13.5 C 0 km/h
268 18-09-2009 05:25:04 13.3 C 9.13 g/m*3 13.3 C 0 km/h
269 18-09-2009 05:37:04 13 C 9.07 g/m*3 13 C 0 km/h
270 18-09-2009 05:49:04 12.7 C 9.02 g/m*3 12.7 C 0 km/h
271 18-09-2009 06:01:04 12.5 C 9.02 g/m*3 12.5 C 0 km/h
272 18-09-2009 06:13:04 12.5 C 9.02 g/m*3 12.5 C 0 km/h
273 18-09-2009 06:25:05 12.6 C 9.18 g/m*3 12.6 C 0 km/h
274 18-09-2009 06:37:05 12.7 C 9.24 g/m*3 12.7 C 0 km/h
275 18-09-2009 06:49:05 12.8 C 9.18 g/m*3 12.8 C 0 km/h
Sensor: Nr:Datum:Temp:Abs-Feuchte:Windchill:Wind:
Aussen-T/F 276 18-09-2009 07:01:02 12.7 C 9.13 g/m*3 12.7 C 0 km/h
277 18-09-2009 07:13:02 12.8 C 9.3 g/m*3 12.8 C 0 km/h
278 18-09-2009 07:25:02 12.9 C 9.35 g/m*3 12.9 C 0 km/h
279 18-09-2009 07:37:02 13 C 9.41 g/m*3 13 C 0 km/h
280 18-09-2009 07:49:02 13.3 C 9.47 g/m*3 13.3 C 0 km/h
281 18-09-2009 08:01:02 13.4 C 9.53 g/m*3 13.4 C 0 km/h
282 18-09-2009 08:13:02 13.3 C 9.36 g/m*3 13.3 C 0 km/h
283 18-09-2009 08:25:02 13.4 C 9.42 g/m*3 13.4 C 0 km/h
284 18-09-2009 08:37:02 13.5 C 9.47 g/m*3 13.5 C 0 km/h
285 18-09-2009 08:49:02 13.7 C 9.47 g/m*3 13.7 C 0 km/h
286 18-09-2009 09:01:02 13.6 C 9.3 g/m*3 13.6 C 0 km/h
287 18-09-2009 09:13:02 13.8 C 9.53 g/m*3 13.8 C 0 km/h
288 18-09-2009 09:25:03 14 C 9.53 g/m*3 14 C 0 km/h
289 18-09-2009 09:37:02 14 C 9.29 g/m*3 14 C 0 km/h
290 18-09-2009 09:49:03 14 C 9.29 g/m*3 14 C 0 km/h
291 18-09-2009 10:01:02 14.4 C 9.39 g/m*3 14.4 C 0 km/h
292 18-09-2009 10:13:02 14.7 C 9.32 g/m*3 14.7 C 0 km/h
293 18-09-2009 10:25:02 15 C 9.23 g/m*3 15 C 0 km/h
294 18-09-2009 10:37:02 15.8 C 9.29 g/m*3 15.8 C 0 km/h
295 18-09-2009 10:49:02 16.4 C 9.49 g/m*3 16.4 C 0 km/h
296 18-09-2009 11:01:02 17 C 9.55 g/m*3 17 C 0 km/h
297 18-09-2009 11:13:02 17.5 C 9.69 g/m*3 17.5 C 0 km/h
298 18-09-2009 11:25:02 17.7 C 9.66 g/m*3 17.7 C 0 km/h
299 18-09-2009 11:37:01 18.6 C 9.39 g/m*3 18.6 C 0 km/h
300 18-09-2009 11:49:02 19.1 C 8.85 g/m*3 19.1 C 0 km/h
Sensor: Nr:Datum:Temp:Abs-Feuchte:Windchill:Wind:
Aussen-T/F 301 18-09-2009 12:01:01 19.5 C 8.73 g/m*3 19.5 C 0 km/h
302 18-09-2009 12:13:01 19.7 C 8.83 g/m*3 19.7 C 0 km/h
303 18-09-2009 12:25:01 20 C 8.81 g/m*3 20 C 0 km/h
304 18-09-2009 12:37:02 20.3 C 8.97 g/m*3 20.3 C 0 km/h
305 18-09-2009 12:49:02 20.6 C 9.13 g/m*3 20.6 C 0 km/h
306 18-09-2009 13:01:02 21 C 9.16 g/m*3 21 C 0 km/h
307 18-09-2009 13:13:02 21.5 C 9.24 g/m*3 21.5 C 0 km/h
308 18-09-2009 13:25:02 21.9 C 9.26 g/m*3 21.9 C 0 km/h
309 18-09-2009 13:37:02 22.7 C 9.29 g/m*3 22.7 C 0 km/h
310 18-09-2009 13:49:01 23 C 8.84 g/m*3 23 C 0 km/h
311 18-09-2009 14:01:02 23.6 C 8.93 g/m*3 23.6 C 0 km/h
312 18-09-2009 14:13:02 24.1 C 8.75 g/m*3 24.1 C 0 km/h
313 18-09-2009 14:25:01 24.7 C 9.05 g/m*3 24.7 C 0 km/h
314 18-09-2009 14:37:01 24.4 C 8.46 g/m*3 24.4 C 0 km/h
315 18-09-2009 14:49:01 23.7 C 8.98 g/m*3 23.7 C 0 km/h
316 18-09-2009 15:01:02 23.6 C 9.15 g/m*3 23.6 C 0 km/h
317 18-09-2009 15:13:02 23.9 C 9.3 g/m*3 23.9 C 0 km/h
318 18-09-2009 15:25:02 24.9 C 8.7 g/m*3 24.9 C 0 km/h
319 18-09-2009 15:37:01 25.8 C 8.91 g/m*3 25.8 C 0 km/h
320 18-09-2009 15:49:01 25.5 C 9.47 g/m*3 25.5 C 0 km/h
321 18-09-2009 16:01:01 25 C 9.44 g/m*3 25 C 0 km/h
322 18-09-2009 16:13:01 24 C 10.01 g/m*3 24 C 0 km/h
323 18-09-2009 16:25:02 23.4 C 10.72 g/m*3 23.4 C 0 km/h
324 18-09-2009 16:37:01 23.3 C 10.66 g/m*3 23.3 C 0 km/h
325 18-09-2009 16:49:02 23.1 C 10.54 g/m*3 23.1 C 0 km/h
Sensor: Nr:Datum:Temp:Abs-Feuchte:Windchill:Wind:
Aussen-T/F 326 18-09-2009 17:01:01 23.2 C 11.02 g/m*3 23.2 C 0 km/h
327 18-09-2009 17:13:01 22.9 C 11.24 g/m*3 22.9 C 0 km/h
328 18-09-2009 17:25:02 24.5 C 10.97 g/m*3 24.5 C 0 km/h
329 18-09-2009 17:37:01 25.7 C 10.53 g/m*3 25.7 C 0 km/h
330 18-09-2009 17:49:02 26.7 C 9.87 g/m*3 26.7 C 0 km/h
331 18-09-2009 18:01:02 26.6 C 9.57 g/m*3 26.6 C 0 km/h
332 18-09-2009 18:13:02 26.3 C 9.16 g/m*3 26.3 C 0 km/h
333 18-09-2009 18:25:02 25.7 C 9.58 g/m*3 25.7 C 0 km/h
334 18-09-2009 18:37:02 24.4 C 10.01 g/m*3 24.4 C 0 km/h
335 18-09-2009 18:49:02 23.2 C 10.19 g/m*3 23.2 C 0 km/h
336 18-09-2009 19:01:02 22.4 C 10.72 g/m*3 22.4 C 0 km/h
337 18-09-2009 19:13:02 21.7 C 10.68 g/m*3 21.7 C 0 km/h
338 18-09-2009 19:25:01 21.1 C 10.69 g/m*3 21.1 C 0 km/h
339 18-09-2009 19:37:02 20.8 C 10.68 g/m*3 20.8 C 0 km/h
340 18-09-2009 19:49:02 20.4 C 10.79 g/m*3 20.4 C 0 km/h
341 18-09-2009 20:01:02 20.1 C 10.78 g/m*3 20.1 C 0 km/h
342 18-09-2009 20:13:02 20 C 10.71 g/m*3 20 C 0 km/h
343 18-09-2009 20:25:02 19.9 C 10.82 g/m*3 19.9 C 0 km/h
344 18-09-2009 20:37:02 20 C 10.89 g/m*3 20 C 0 km/h
345 18-09-2009 20:49:02 20.1 C 10.95 g/m*3 20.1 C 0 km/h
346 18-09-2009 21:01:02 20 C 11.06 g/m*3 20 C 0 km/h
347 18-09-2009 21:13:02 19.9 C 11.17 g/m*3 19.9 C 0 km/h
348 18-09-2009 21:25:02 19.8 C 11.27 g/m*3 19.8 C 0 km/h
349 18-09-2009 21:37:02 19.6 C 11.14 g/m*3 19.6 C 0 km/h
350 18-09-2009 21:49:01 19.5 C 10.91 g/m*3 19.5 C 0 km/h
Sensor: Nr:Datum:Temp:Abs-Feuchte:Windchill:Wind:
Aussen-T/F 351 18-09-2009 22:01:01 19.5 C 10.74 g/m*3 19.5 C 0 km/h
352 18-09-2009 22:13:01 19.5 C 10.74 g/m*3 19.5 C 0 km/h
353 18-09-2009 22:25:01 19.5 C 10.57 g/m*3 19.5 C 0 km/h
354 18-09-2009 22:37:02 19.6 C 10.47 g/m*3 19.6 C 0 km/h
355 18-09-2009 22:50:01 19.6 C 10.64 g/m*3 19.6 C 0 km/h
356 18-09-2009 23:02:01 19.6 C 10.47 g/m*3 19.6 C 0 km/h
357 18-09-2009 23:14:01 19.6 C 10.47 g/m*3 19.6 C 0 km/h
358 18-09-2009 23:26:01 19.5 C 10.41 g/m*3 19.5 C 0 km/h
359 18-09-2009 23:38:02 19.5 C 10.24 g/m*3 19.5 C 0 km/h
360 18-09-2009 23:50:02 19.5 C 10.24 g/m*3 19.5 C 0 km/h
361 19-09-2009 00:02:02 19.5 C 10.24 g/m*3 19.5 C 0 km/h
362 19-09-2009 00:14:02 19.4 C 10.18 g/m*3 19.4 C 0 km/h
363 19-09-2009 00:26:02 19.3 C 10.28 g/m*3 19.3 C 0 km/h
364 19-09-2009 00:38:02 19.2 C 10.39 g/m*3 19.2 C 0 km/h
365 19-09-2009 00:50:02 18.9 C 10.69 g/m*3 18.9 C 0 km/h
366 19-09-2009 01:02:02 18.7 C 10.73 g/m*3 18.7 C 0 km/h
367 19-09-2009 01:14:02 18.7 C 10.73 g/m*3 18.7 C 0 km/h
368 19-09-2009 01:26:02 18.6 C 10.82 g/m*3 18.6 C 0 km/h
369 19-09-2009 01:38:02 18.5 C 10.92 g/m*3 18.5 C 0 km/h
370 19-09-2009 01:50:02 18.4 C 10.85 g/m*3 18.4 C 0 km/h
371 19-09-2009 02:02:02 18.3 C 10.79 g/m*3 18.3 C 0 km/h
372 19-09-2009 02:14:02 18.1 C 10.66 g/m*3 18.1 C 0 km/h
373 19-09-2009 02:26:02 18.1 C 10.82 g/m*3 18.1 C 0 km/h
374 19-09-2009 02:38:02 18.1 C 10.97 g/m*3 18.1 C 0 km/h
375 19-09-2009 02:50:02 18.1 C 10.97 g/m*3 18.1 C 0 km/h
Sensor: Nr:Datum:Temp:Abs-Feuchte:Windchill:Wind:
Aussen-T/F 376 19-09-2009 03:02:02 17.9 C 10.99 g/m*3 17.9 C 0 km/h
377 19-09-2009 03:14:02 17.9 C 10.99 g/m*3 17.9 C 0 km/h
378 19-09-2009 03:26:03 17.9 C 10.69 g/m*3 17.9 C 0 km/h
379 19-09-2009 03:38:03 17.9 C 10.69 g/m*3 17.9 C 0 km/h
380 19-09-2009 03:50:03 17.9 C 10.54 g/m*3 17.9 C 0 km/h
381 19-09-2009 04:02:03 17.9 C 10.54 g/m*3 17.9 C 0 km/h
382 19-09-2009 04:14:03 17.9 C 10.54 g/m*3 17.9 C 0 km/h
383 19-09-2009 04:26:03 18 C 10.44 g/m*3 18 C 0 km/h
384 19-09-2009 04:38:03 17.9 C 10.54 g/m*3 17.9 C 0 km/h
385 19-09-2009 04:50:03 18 C 10.44 g/m*3 18 C 0 km/h
386 19-09-2009 05:02:03 18 C 10.29 g/m*3 18 C 0 km/h
387 19-09-2009 05:14:03 18 C 10.6 g/m*3 18 C 0 km/h
388 19-09-2009 05:26:03 17.9 C 10.69 g/m*3 17.9 C 0 km/h
389 19-09-2009 05:38:03 17.9 C 10.69 g/m*3 17.9 C 0 km/h
390 19-09-2009 05:50:03 17.8 C 10.78 g/m*3 17.8 C 0 km/h
391 19-09-2009 06:02:03 17.7 C 10.71 g/m*3 17.7 C 0 km/h
392 19-09-2009 06:14:03 17.5 C 10.73 g/m*3 17.5 C 0 km/h
393 19-09-2009 06:26:03 17.4 C 10.52 g/m*3 17.4 C 0 km/h
394 19-09-2009 06:38:03 17.3 C 10.61 g/m*3 17.3 C 0 km/h
395 19-09-2009 06:50:03 17.1 C 10.48 g/m*3 17.1 C 0 km/h
396 19-09-2009 07:02:03 16.9 C 10.5 g/m*3 16.9 C 0 km/h
397 19-09-2009 07:14:03 16.6 C 10.45 g/m*3 16.6 C 0 km/h
398 19-09-2009 07:26:04 16.6 C 10.45 g/m*3 16.6 C 0 km/h
399 19-09-2009 07:38:04 16.6 C 10.45 g/m*3 16.6 C 0 km/h
400 19-09-2009 07:50:04 16.6 C 10.45 g/m*3 16.6 C 0 km/h
Sensor: Nr:Datum:Temp:Abs-Feuchte:Windchill:Wind:
Aussen-T/F 401 19-09-2009 08:02:01 16.8 C 10.58 g/m*3 16.8 C 0 km/h
402 19-09-2009 08:14:01 17 C 10.56 g/m*3 17 C 0 km/h
403 19-09-2009 08:26:02 17.2 C 10.69 g/m*3 17.2 C 0 km/h
404 19-09-2009 08:38:01 17.5 C 10.73 g/m*3 17.5 C 0 km/h
405 19-09-2009 08:50:02 17.8 C 10.93 g/m*3 17.8 C 0 km/h
406 19-09-2009 09:02:02 17.9 C 10.69 g/m*3 17.9 C 0 km/h
407 19-09-2009 09:14:02 18 C 10.29 g/m*3 18 C 0 km/h
408 19-09-2009 09:26:02 18.2 C 10.26 g/m*3 18.2 C 0 km/h
409 19-09-2009 09:38:03 18.4 C 10.07 g/m*3 18.4 C 0 km/h
410 19-09-2009 09:50:02 18.6 C 10.03 g/m*3 18.6 C 0 km/h
411 19-09-2009 10:02:01 18.8 C 9.99 g/m*3 18.8 C 0 km/h
412 19-09-2009 10:14:01 19.1 C 9.67 g/m*3 19.1 C 0 km/h
413 19-09-2009 10:26:02 19.4 C 9.51 g/m*3 19.4 C 0 km/h
414 19-09-2009 10:38:02 20 C 9.33 g/m*3 20 C 0 km/h
415 19-09-2009 10:50:02 20.3 C 9.5 g/m*3 20.3 C 0 km/h
416 19-09-2009 11:02:03 20.2 C 9.62 g/m*3 20.2 C 0 km/h
417 19-09-2009 11:14:03 21.1 C 9.58 g/m*3 21.1 C 0 km/h
418 19-09-2009 11:26:02 22.2 C 9.42 g/m*3 22.2 C 0 km/h
419 19-09-2009 11:38:02 22 C 9.12 g/m*3 22 C 0 km/h
420 19-09-2009 11:50:01 22.3 C 9.68 g/m*3 22.3 C 0 km/h
421 19-09-2009 12:02:02 22.8 C 9.55 g/m*3 22.8 C 0 km/h
422 19-09-2009 12:14:02 22.7 C 9.5 g/m*3 22.7 C 0 km/h
423 19-09-2009 12:26:01 22.7 C 9.9 g/m*3 22.7 C 0 km/h
424 19-09-2009 12:38:02 22.9 C 9.81 g/m*3 22.9 C 0 km/h
425 19-09-2009 12:50:01 23.4 C 9.46 g/m*3 23.4 C 0 km/h
Sensor: Nr:Datum:Temp:Abs-Feuchte:Windchill:Wind:
Aussen-T/F 426 19-09-2009 13:02:02 23.8 C 9.9 g/m*3 23.8 C 0 km/h
427 19-09-2009 13:14:02 24 C 10.01 g/m*3 24 C 0 km/h
428 19-09-2009 13:26:01 24.3 C 9.96 g/m*3 24.3 C 0 km/h
429 19-09-2009 13:38:02 24.7 C 10.19 g/m*3 24.7 C 0 km/h
430 19-09-2009 13:50:01 25 C 9.44 g/m*3 25 C 0 km/h
431 19-09-2009 14:02:02 25.5 C 9.47 g/m*3 25.5 C 0 km/h
432 19-09-2009 14:14:02 26.1 C 9.55 g/m*3 26.1 C 0 km/h
433 19-09-2009 14:26:02 26.2 C 9.35 g/m*3 26.2 C 0 km/h
434 19-09-2009 14:38:02 26.7 C 9.37 g/m*3 26.7 C 0 km/h
435 19-09-2009 14:50:01 26.2 C 10.34 g/m*3 26.2 C 0 km/h
436 19-09-2009 15:02:02 27 C 9.26 g/m*3 27 C 0 km/h
437 19-09-2009 15:14:02 27.6 C 9.31 g/m*3 27.6 C 0 km/h
438 19-09-2009 15:26:02 27.5 C 9.79 g/m*3 27.5 C 0 km/h
439 19-09-2009 15:38:01 28.5 C 9.22 g/m*3 28.5 C 0 km/h
440 19-09-2009 15:50:02 28.5 C 9.22 g/m*3 28.5 C 0 km/h
441 19-09-2009 16:02:01 27.9 C 10.01 g/m*3 27.9 C 0 km/h
442 19-09-2009 16:14:01 27.3 C 10.47 g/m*3 27.3 C 0 km/h
443 19-09-2009 16:26:02 26.6 C 10.82 g/m*3 26.6 C 0 km/h
444 19-09-2009 16:38:01 25.8 C 11.32 g/m*3 25.8 C 0 km/h
445 19-09-2009 16:50:02 25.5 C 10.89 g/m*3 25.5 C 0 km/h
446 19-09-2009 17:02:02 26.4 C 10.7 g/m*3 26.4 C 0 km/h
447 19-09-2009 17:14:02 28 C 9.52 g/m*3 28 C 0 km/h
448 19-09-2009 17:26:02 27.7 C 9.9 g/m*3 27.7 C 0 km/h
449 19-09-2009 17:38:03 26.5 C 10.26 g/m*3 26.5 C 0 km/h
450 19-09-2009 17:50:02 25.6 C 10.71 g/m*3 25.6 C 0 km/h
Sensor: Nr:Datum:Temp:Abs-Feuchte:Windchill:Wind:
Aussen-T/F 451 19-09-2009 18:02:01 24.8 C 11.15 g/m*3 24.8 C 0 km/h
452 19-09-2009 18:14:01 24.2 C 11.44 g/m*3 24.2 C 0 km/h
453 19-09-2009 18:26:02 23.8 C 11.62 g/m*3 23.8 C 0 km/h
454 19-09-2009 18:38:02 23.4 C 11.57 g/m*3 23.4 C 0 km/h
455 19-09-2009 18:50:02 22.9 C 11.65 g/m*3 22.9 C 0 km/h
456 19-09-2009 19:02:03 22.5 C 11.58 g/m*3 22.5 C 0 km/h
457 19-09-2009 19:14:03 22.4 C 11.52 g/m*3 22.4 C 0 km/h
458 19-09-2009 19:26:02 22.2 C 11.39 g/m*3 22.2 C 0 km/h
459 19-09-2009 19:38:02 21.8 C 11.51 g/m*3 21.8 C 0 km/h
460 19-09-2009 19:50:01 21.7 C 11.64 g/m*3 21.7 C 0 km/h
461 19-09-2009 20:02:02 21.6 C 11.76 g/m*3 21.6 C 0 km/h
462 19-09-2009 20:14:02 21.6 C 11.76 g/m*3 21.6 C 0 km/h
463 19-09-2009 20:26:01 21.6 C 11.76 g/m*3 21.6 C 0 km/h
464 19-09-2009 20:38:02 21.2 C 12.42 g/m*3 21.2 C 0 km/h
465 19-09-2009 20:50:01 19.7 C 13.41 g/m*3 19.7 C 0 km/h
466 19-09-2009 21:02:01 19.2 C 13.85 g/m*3 19.2 C 0 km/h
467 19-09-2009 21:14:01 19.3 C 13.93 g/m*3 19.3 C 0 km/h
468 19-09-2009 21:26:02 19.2 C 13.85 g/m*3 19.2 C 0 km/h
469 19-09-2009 21:38:02 19 C 13.53 g/m*3 19 C 0 km/h
470 19-09-2009 21:50:02 19.2 C 13.36 g/m*3 19.2 C 0 km/h
471 19-09-2009 22:02:02 19.4 C 13.01 g/m*3 19.4 C 0 km/h
472 19-09-2009 22:14:02 19.5 C 12.92 g/m*3 19.5 C 0 km/h
473 19-09-2009 22:26:02 19.3 C 12.94 g/m*3 19.3 C 0 km/h
474 19-09-2009 22:38:02 19.3 C 12.94 g/m*3 19.3 C 0 km/h
475 19-09-2009 22:51:02 19 C 12.71 g/m*3 19 C 0 km/h
Sensor: Nr:Datum:Temp:Abs-Feuchte:Windchill:Wind:
Aussen-T/F 476 19-09-2009 23:03:03 18.7 C 12.81 g/m*3 18.7 C 0 km/h
477 19-09-2009 23:15:03 18.4 C 12.58 g/m*3 18.4 C 0 km/h
478 19-09-2009 23:27:03 18.2 C 12.59 g/m*3 18.2 C 0 km/h
479 19-09-2009 23:39:03 18.1 C 12.52 g/m*3 18.1 C 0 km/h
480 19-09-2009 23:51:03 17.9 C 12.52 g/m*3 17.9 C 0 km/h
481 20-09-2009 00:03:03 17.7 C 12.52 g/m*3 17.7 C 0 km/h
482 20-09-2009 00:15:03 17.6 C 12.45 g/m*3 17.6 C 0 km/h
483 20-09-2009 00:27:03 17.5 C 12.37 g/m*3 17.5 C 0 km/h
484 20-09-2009 00:39:03 17.4 C 12.45 g/m*3 17.4 C 0 km/h
485 20-09-2009 00:51:03 17.3 C 12.37 g/m*3 17.3 C 0 km/h
486 20-09-2009 01:03:03 17.2 C 12.3 g/m*3 17.2 C 0 km/h
487 20-09-2009 01:15:03 17.1 C 12.23 g/m*3 17.1 C 0 km/h
488 20-09-2009 01:27:03 17.2 C 12.45 g/m*3 17.2 C 0 km/h
489 20-09-2009 01:39:03 17.1 C 12.37 g/m*3 17.1 C 0 km/h
490 20-09-2009 01:51:03 17.2 C 12.45 g/m*3 17.2 C 0 km/h
491 20-09-2009 02:03:03 17.4 C 12.6 g/m*3 17.4 C 0 km/h
492 20-09-2009 02:15:03 17.3 C 12.37 g/m*3 17.3 C 0 km/h
493 20-09-2009 02:27:03 17.1 C 12.23 g/m*3 17.1 C 0 km/h
494 20-09-2009 02:39:03 17.2 C 12.3 g/m*3 17.2 C 0 km/h
495 20-09-2009 02:51:04 17.2 C 12.3 g/m*3 17.2 C 0 km/h
496 20-09-2009 03:03:04 16.9 C 12.23 g/m*3 16.9 C 0 km/h
497 20-09-2009 03:15:04 16.6 C 12.15 g/m*3 16.6 C 0 km/h
498 20-09-2009 03:27:04 16.6 C 12.29 g/m*3 16.6 C 0 km/h
499 20-09-2009 03:39:04 16.6 C 12.29 g/m*3 16.6 C 0 km/h
500 20-09-2009 03:51:04 16.7 C 12.36 g/m*3 16.7 C 0 km/h
Sensor: Nr:Datum:Temp:Abs-Feuchte:Windchill:Wind:
Aussen-T/F 501 20-09-2009 04:03:04 16.7 C 12.36 g/m*3 16.7 C 0 km/h
502 20-09-2009 04:15:04 16.4 C 12 g/m*3 16.4 C 0 km/h
503 20-09-2009 04:27:04 16.4 C 12 g/m*3 16.4 C 0 km/h
504 20-09-2009 04:39:04 16.3 C 12.07 g/m*3 16.3 C 0 km/h
505 20-09-2009 04:51:04 16.2 C 11.86 g/m*3 16.2 C 0 km/h
506 20-09-2009 05:03:04 16 C 11.72 g/m*3 16 C 0 km/h
507 20-09-2009 05:15:04 15.8 C 11.85 g/m*3 15.8 C 0 km/h
508 20-09-2009 05:27:04 15.6 C 11.7 g/m*3 15.6 C 0 km/h
509 20-09-2009 05:39:04 15.4 C 11.69 g/m*3 15.4 C 0 km/h
510 20-09-2009 05:51:04 15.3 C 11.62 g/m*3 15.3 C 0 km/h
511 20-09-2009 06:03:04 15.3 C 11.75 g/m*3 15.3 C 0 km/h
512 20-09-2009 06:15:04 15.4 C 11.96 g/m*3 15.4 C 0 km/h
513 20-09-2009 06:27:04 15.2 C 11.68 g/m*3 15.2 C 0 km/h
514 20-09-2009 06:39:05 15.2 C 11.81 g/m*3 15.2 C 0 km/h
515 20-09-2009 06:51:05 15.4 C 11.96 g/m*3 15.4 C 0 km/h
516 20-09-2009 07:03:05 15.3 C 11.88 g/m*3 15.3 C 0 km/h
517 20-09-2009 07:15:05 15.2 C 11.81 g/m*3 15.2 C 0 km/h
518 20-09-2009 07:27:05 15.2 C 11.81 g/m*3 15.2 C 0 km/h
519 20-09-2009 07:39:05 15.4 C 11.96 g/m*3 15.4 C 0 km/h
520 20-09-2009 07:51:05 15.4 C 11.96 g/m*3 15.4 C 0 km/h
521 20-09-2009 08:03:05 15.6 C 12.1 g/m*3 15.6 C 0 km/h
522 20-09-2009 08:15:05 15.8 C 12.25 g/m*3 15.8 C 0 km/h
523 20-09-2009 08:27:05 15.9 C 12.19 g/m*3 15.9 C 0 km/h
524 20-09-2009 08:39:02 15.8 C 12.11 g/m*3 15.8 C 0 km/h
525 20-09-2009 08:51:02 15.9 C 12.05 g/m*3 15.9 C 0 km/h
Sensor: Nr:Datum:Temp:Abs-Feuchte:Windchill:Wind:
Aussen-T/F 526 20-09-2009 09:03:02 16.1 C 12.06 g/m*3 16.1 C 0 km/h
527 20-09-2009 09:15:02 16.3 C 12.21 g/m*3 16.3 C 0 km/h
528 20-09-2009 09:27:03 16.5 C 12.22 g/m*3 16.5 C 0 km/h
529 20-09-2009 09:39:02 16.6 C 12.15 g/m*3 16.6 C 0 km/h
530 20-09-2009 09:51:02 16.9 C 12.23 g/m*3 16.9 C 0 km/h
531 20-09-2009 10:03:01 17.4 C 12.3 g/m*3 17.4 C 0 km/h
532 20-09-2009 10:15:02 17.7 C 12.22 g/m*3 17.7 C 0 km/h
533 20-09-2009 10:27:02 18.3 C 12.35 g/m*3 18.3 C 0 km/h
534 20-09-2009 10:39:01 18.5 C 12.18 g/m*3 18.5 C 0 km/h
535 20-09-2009 10:51:02 18.8 C 12.24 g/m*3 18.8 C 0 km/h
536 20-09-2009 11:03:02 18.9 C 12.15 g/m*3 18.9 C 0 km/h
537 20-09-2009 11:15:02 19.4 C 12.01 g/m*3 19.4 C 0 km/h
538 20-09-2009 11:27:02 20.2 C 12.06 g/m*3 20.2 C 0 km/h
539 20-09-2009 11:39:02 20.8 C 11.95 g/m*3 20.8 C 0 km/h
540 20-09-2009 11:51:02 21.3 C 11.74 g/m*3 21.3 C 0 km/h
541 20-09-2009 12:03:02 22 C 11.84 g/m*3 22 C 0 km/h
542 20-09-2009 12:15:01 22 C 11.84 g/m*3 22 C 0 km/h
543 20-09-2009 12:27:01 22.5 C 12.18 g/m*3 22.5 C 0 km/h
544 20-09-2009 12:39:02 23.5 C 12.27 g/m*3 23.5 C 0 km/h
545 20-09-2009 12:51:02 23.8 C 11.83 g/m*3 23.8 C 0 km/h
546 20-09-2009 13:03:02 24.1 C 11.38 g/m*3 24.1 C 0 km/h
547 20-09-2009 13:15:02 24.3 C 11.29 g/m*3 24.3 C 0 km/h
548 20-09-2009 13:27:02 24.6 C 11.25 g/m*3 24.6 C 0 km/h
549 20-09-2009 13:39:02 25.4 C 11.06 g/m*3 25.4 C 0 km/h
550 20-09-2009 13:51:02 26.3 C 10.64 g/m*3 26.3 C 0 km/h
Sensor: Nr:Datum:Temp:Abs-Feuchte:Windchill:Wind:
Aussen-T/F 551 20-09-2009 14:03:02 26.4 C 10.21 g/m*3 26.4 C 0 km/h
552 20-09-2009 14:15:02 25.9 C 10.41 g/m*3 25.9 C 0 km/h
553 20-09-2009 14:27:02 26.2 C 9.85 g/m*3 26.2 C 0 km/h
554 20-09-2009 14:39:02 26 C 9.74 g/m*3 26 C 0 km/h
555 20-09-2009 14:51:02 25.7 C 10.29 g/m*3 25.7 C 0 km/h
556 20-09-2009 15:03:02 25.5 C 9.94 g/m*3 25.5 C 0 km/h
557 20-09-2009 15:15:03 25.2 C 10.48 g/m*3 25.2 C 0 km/h
558 20-09-2009 15:27:03 26.9 C 9.73 g/m*3 26.9 C 0 km/h
559 20-09-2009 15:39:02 27.6 C 9.84 g/m*3 27.6 C 0 km/h
560 20-09-2009 15:51:02 27.3 C 9.16 g/m*3 27.3 C 0 km/h
561 20-09-2009 16:03:02 27 C 8.75 g/m*3 27 C 0 km/h
562 20-09-2009 16:15:02 27.4 C 8.95 g/m*3 27.4 C 0 km/h
563 20-09-2009 16:27:02 27.3 C 8.9 g/m*3 27.3 C 0 km/h
564 20-09-2009 16:39:02 26.8 C 9.16 g/m*3 26.8 C 0 km/h
565 20-09-2009 16:51:02 26.7 C 8.61 g/m*3 26.7 C 0 km/h
566 20-09-2009 17:03:02 26.9 C 8.45 g/m*3 26.9 C 0 km/h
567 20-09-2009 17:15:02 26.5 C 8.76 g/m*3 26.5 C 0 km/h
568 20-09-2009 17:27:02 26.1 C 9.06 g/m*3 26.1 C 0 km/h
569 20-09-2009 17:39:02 26.4 C 9.21 g/m*3 26.4 C 0 km/h
570 20-09-2009 17:51:02 25.8 C 9.15 g/m*3 25.8 C 0 km/h
571 20-09-2009 18:03:01 24.7 C 9.51 g/m*3 24.7 C 0 km/h
572 20-09-2009 18:15:02 24 C 9.57 g/m*3 24 C 0 km/h
573 20-09-2009 18:27:02 23.7 C 9.84 g/m*3 23.7 C 0 km/h
574 20-09-2009 18:39:01 23.7 C 10.48 g/m*3 23.7 C 0 km/h
575 20-09-2009 18:51:02 23.3 C 10.45 g/m*3 23.3 C 0 km/h
Sensor: Nr:Datum:Temp:Abs-Feuchte:Windchill:Wind:
Aussen-T/F 576 20-09-2009 19:03:01 22.7 C 10.71 g/m*3 22.7 C 0 km/h
577 20-09-2009 19:15:01 22.1 C 10.74 g/m*3 22.1 C 0 km/h
578 20-09-2009 19:27:01 21.7 C 11.06 g/m*3 21.7 C 0 km/h
579 20-09-2009 19:39:02 21.2 C 11.12 g/m*3 21.2 C 0 km/h
580 20-09-2009 19:51:02 20.9 C 10.93 g/m*3 20.9 C 0 km/h
581 20-09-2009 20:03:02 20.7 C 10.98 g/m*3 20.7 C 0 km/h
582 20-09-2009 20:15:02 20.4 C 10.97 g/m*3 20.4 C 0 km/h
583 20-09-2009 20:27:02 20.1 C 10.95 g/m*3 20.1 C 0 km/h
584 20-09-2009 20:39:02 19.9 C 11.34 g/m*3 19.9 C 0 km/h
585 20-09-2009 20:51:01 19.9 C 11.34 g/m*3 19.9 C 0 km/h
586 20-09-2009 21:03:02 20 C 11.23 g/m*3 20 C 0 km/h
587 20-09-2009 21:15:01 20.1 C 11.3 g/m*3 20.1 C 0 km/h
588 20-09-2009 21:27:01 19.7 C 11.55 g/m*3 19.7 C 0 km/h
589 20-09-2009 21:39:02 19.3 C 11.44 g/m*3 19.3 C 0 km/h
590 20-09-2009 21:51:02 19.1 C 11.31 g/m*3 19.1 C 0 km/h
591 20-09-2009 22:03:01 18.8 C 11.6 g/m*3 18.8 C 0 km/h
592 20-09-2009 22:15:02 18.5 C 11.55 g/m*3 18.5 C 0 km/h
593 20-09-2009 22:27:02 18.5 C 11.55 g/m*3 18.5 C 0 km/h
594 20-09-2009 22:39:02 18.4 C 11.48 g/m*3 18.4 C 0 km/h
595 20-09-2009 22:51:01 18.5 C 11.71 g/m*3 18.5 C 0 km/h
596 20-09-2009 23:03:02 18.7 C 11.85 g/m*3 18.7 C 0 km/h
597 20-09-2009 23:15:01 18.9 C 11.83 g/m*3 18.9 C 0 km/h
598 20-09-2009 23:27:01 19 C 11.73 g/m*3 19 C 0 km/h
599 20-09-2009 23:39:02 19 C 11.73 g/m*3 19 C 0 km/h
600 20-09-2009 23:51:02 19.1 C 11.97 g/m*3 19.1 C 0 km/h
Sensor: Nr:Datum:Temp:Abs-Feuchte:Windchill:Wind:
Aussen-T/F 601 21-09-2009 00:03:02 18.7 C 11.85 g/m*3 18.7 C 0 km/h
602 21-09-2009 00:15:02 18.5 C 12.02 g/m*3 18.5 C 0 km/h
603 21-09-2009 00:27:02 18.3 C 12.04 g/m*3 18.3 C 0 km/h
604 21-09-2009 00:39:02 18.1 C 12.05 g/m*3 18.1 C 0 km/h
605 21-09-2009 00:51:01 18 C 12.13 g/m*3 18 C 0 km/h
606 21-09-2009 01:03:02 17.8 C 12.14 g/m*3 17.8 C 0 km/h
607 21-09-2009 01:15:02 17.8 C 12.29 g/m*3 17.8 C 0 km/h
608 21-09-2009 01:27:02 17.7 C 12.22 g/m*3 17.7 C 0 km/h
609 21-09-2009 01:39:01 17.6 C 12.3 g/m*3 17.6 C 0 km/h
610 21-09-2009 01:51:02 17.5 C 12.23 g/m*3 17.5 C 0 km/h
611 21-09-2009 02:03:01 17.5 C 12.23 g/m*3 17.5 C 0 km/h
612 21-09-2009 02:15:02 17.5 C 12.23 g/m*3 17.5 C 0 km/h
613 21-09-2009 02:27:02 17.5 C 12.23 g/m*3 17.5 C 0 km/h
614 21-09-2009 02:39:01 17.4 C 12.15 g/m*3 17.4 C 0 km/h
615 21-09-2009 02:52:04 17.5 C 12.37 g/m*3 17.5 C 0 km/h
616 21-09-2009 03:04:04 17.5 C 12.37 g/m*3 17.5 C 0 km/h
617 21-09-2009 03:16:03 17.6 C 12.3 g/m*3 17.6 C 0 km/h
618 21-09-2009 03:28:03 17.7 C 12.37 g/m*3 17.7 C 0 km/h
619 21-09-2009 03:40:01 17.8 C 12.29 g/m*3 17.8 C 0 km/h
620 21-09-2009 03:52:01 17.9 C 12.37 g/m*3 17.9 C 0 km/h
621 21-09-2009 04:04:01 17.9 C 12.21 g/m*3 17.9 C 0 km/h
622 21-09-2009 04:16:02 17.9 C 12.21 g/m*3 17.9 C 0 km/h
623 21-09-2009 04:28:02 17.9 C 12.21 g/m*3 17.9 C 0 km/h
624 21-09-2009 04:40:01 17.9 C 12.21 g/m*3 17.9 C 0 km/h
625 21-09-2009 04:52:03 17.7 C 12.22 g/m*3 17.7 C 0 km/h
Sensor: Nr:Datum:Temp:Abs-Feuchte:Windchill:Wind:
Aussen-T/F 626 21-09-2009 05:04:02 17.7 C 12.07 g/m*3 17.7 C 0 km/h
627 21-09-2009 05:16:02 17.7 C 12.07 g/m*3 17.7 C 0 km/h
628 21-09-2009 05:28:02 17.6 C 12 g/m*3 17.6 C 0 km/h
629 21-09-2009 05:40:02 17.5 C 11.93 g/m*3 17.5 C 0 km/h
630 21-09-2009 05:52:02 17.4 C 11.86 g/m*3 17.4 C 0 km/h
631 21-09-2009 06:04:02 17.4 C 11.86 g/m*3 17.4 C 0 km/h
632 21-09-2009 06:16:02 17.4 C 11.86 g/m*3 17.4 C 0 km/h
633 21-09-2009 06:28:03 17.5 C 11.78 g/m*3 17.5 C 0 km/h
634 21-09-2009 06:40:01 17.3 C 11.79 g/m*3 17.3 C 0 km/h
635 21-09-2009 06:52:02 17.5 C 11.93 g/m*3 17.5 C 0 km/h
636 21-09-2009 07:04:01 17.3 C 11.64 g/m*3 17.3 C 0 km/h
637 21-09-2009 07:16:01 17.4 C 11.71 g/m*3 17.4 C 0 km/h
638 21-09-2009 07:28:01 17.3 C 11.79 g/m*3 17.3 C 0 km/h
639 21-09-2009 07:40:02 17.4 C 11.86 g/m*3 17.4 C 0 km/h
640 21-09-2009 07:52:02 17.3 C 11.79 g/m*3 17.3 C 0 km/h
641 21-09-2009 08:04:02 17.4 C 11.71 g/m*3 17.4 C 0 km/h
642 21-09-2009 08:16:02 17.2 C 11.57 g/m*3 17.2 C 0 km/h
643 21-09-2009 08:28:02 16.9 C 11.65 g/m*3 16.9 C 0 km/h
644 21-09-2009 08:40:02 16.8 C 11.58 g/m*3 16.8 C 0 km/h
645 21-09-2009 08:52:02 17 C 11.58 g/m*3 17 C 0 km/h
646 21-09-2009 09:04:03 17.3 C 11.64 g/m*3 17.3 C 0 km/h
647 21-09-2009 09:16:02 17.1 C 11.35 g/m*3 17.1 C 0 km/h
648 21-09-2009 09:28:02 17.1 C 11.35 g/m*3 17.1 C 0 km/h
649 21-09-2009 09:40:02 17 C 11.29 g/m*3 17 C 0 km/h
650 21-09-2009 09:52:01 17.1 C 11.35 g/m*3 17.1 C 0 km/h
Sensor: Nr:Datum:Temp:Abs-Feuchte:Windchill:Wind:
Aussen-T/F 651 21-09-2009 10:04:02 17.7 C 11.16 g/m*3 17.7 C 0 km/h
652 21-09-2009 10:16:01 18.5 C 11.39 g/m*3 18.5 C 0 km/h
653 21-09-2009 10:28:01 19.5 C 11.08 g/m*3 19.5 C 0 km/h
654 21-09-2009 10:40:01 19.8 C 10.93 g/m*3 19.8 C 0 km/h
655 21-09-2009 10:52:01 20.3 C 10.9 g/m*3 20.3 C 0 km/h
656 21-09-2009 11:04:02 20 C 10.37 g/m*3 20 C 0 km/h
657 21-09-2009 11:16:01 19.7 C 10.36 g/m*3 19.7 C 0 km/h
658 21-09-2009 11:28:01 19.6 C 10.47 g/m*3 19.6 C 0 km/h
659 21-09-2009 11:40:01 19.6 C 10.47 g/m*3 19.6 C 0 km/h
660 21-09-2009 11:52:01 19.3 C 10.28 g/m*3 19.3 C 0 km/h
661 21-09-2009 12:04:02 19.2 C 10.39 g/m*3 19.2 C 0 km/h
662 21-09-2009 12:16:01 19.7 C 10.53 g/m*3 19.7 C 0 km/h
663 21-09-2009 12:28:01 21.2 C 10.56 g/m*3 21.2 C 0 km/h
664 21-09-2009 12:40:01 21.6 C 10.43 g/m*3 21.6 C 0 km/h
665 21-09-2009 12:52:01 21.2 C 10.19 g/m*3 21.2 C 0 km/h
666 21-09-2009 13:04:02 21.3 C 10.07 g/m*3 21.3 C 0 km/h
667 21-09-2009 13:16:02 20.8 C 10.14 g/m*3 20.8 C 0 km/h
668 21-09-2009 13:28:02 20.8 C 9.96 g/m*3 20.8 C 0 km/h
669 21-09-2009 13:40:01 20.5 C 9.79 g/m*3 20.5 C 0 km/h
670 21-09-2009 13:52:01 20.1 C 9.56 g/m*3 20.1 C 0 km/h
671 21-09-2009 14:04:01 20.5 C 9.61 g/m*3 20.5 C 0 km/h
672 21-09-2009 14:16:02 20.4 C 9.2 g/m*3 20.4 C 0 km/h
673 21-09-2009 14:28:02 20.6 C 9.31 g/m*3 20.6 C 0 km/h
674 21-09-2009 14:40:01 21.3 C 9.32 g/m*3 21.3 C 0 km/h
675 21-09-2009 14:52:01 22.3 C 9.48 g/m*3 22.3 C 0 km/h
Sensor: Nr:Datum:Temp:Abs-Feuchte:Windchill:Wind:
Aussen-T/F 676 21-09-2009 15:04:01 22.8 C 9.14 g/m*3 22.8 C 0 km/h
677 21-09-2009 15:16:02 23.4 C 9.25 g/m*3 23.4 C 0 km/h
678 21-09-2009 15:28:02 23.8 C 9.03 g/m*3 23.8 C 0 km/h
679 21-09-2009 15:40:01 23.6 C 8.93 g/m*3 23.6 C 0 km/h
680 21-09-2009 15:52:01 24 C 8.92 g/m*3 24 C 0 km/h
681 21-09-2009 16:04:01 24.5 C 8.95 g/m*3 24.5 C 0 km/h
682 21-09-2009 16:16:02 25 C 8.52 g/m*3 25 C 0 km/h
683 21-09-2009 16:28:02 24.5 C 8.5 g/m*3 24.5 C 0 km/h
684 21-09-2009 16:40:01 22.8 C 8.74 g/m*3 22.8 C 0 km/h
685 21-09-2009 16:52:03 22.7 C 8.89 g/m*3 22.7 C 0 km/h
686 21-09-2009 17:04:02 22.4 C 9.14 g/m*3 22.4 C 0 km/h
687 21-09-2009 17:16:02 22.6 C 8.84 g/m*3 22.6 C 0 km/h
688 21-09-2009 17:28:02 22.7 C 8.89 g/m*3 22.7 C 0 km/h
689 21-09-2009 17:40:02 22.8 C 8.53 g/m*3 22.8 C 0 km/h
690 21-09-2009 17:52:02 22.5 C 8.39 g/m*3 22.5 C 0 km/h
691 21-09-2009 18:04:02 22.5 C 8.59 g/m*3 22.5 C 0 km/h
692 21-09-2009 18:16:02 21.8 C 8.44 g/m*3 21.8 C 0 km/h
693 21-09-2009 18:28:03 21.2 C 8.52 g/m*3 21.2 C 0 km/h
694 21-09-2009 18:40:01 21 C 8.61 g/m*3 21 C 0 km/h
695 21-09-2009 18:52:02 20.8 C 8.69 g/m*3 20.8 C 0 km/h
696 21-09-2009 19:04:01 20.4 C 8.67 g/m*3 20.4 C 0 km/h
697 21-09-2009 19:16:02 20 C 8.99 g/m*3 20 C 0 km/h
698 21-09-2009 19:28:02 19.4 C 9.34 g/m*3 19.4 C 0 km/h
699 21-09-2009 19:40:02 19.1 C 9.18 g/m*3 19.1 C 0 km/h
700 21-09-2009 19:52:02 18.5 C 9.33 g/m*3 18.5 C 0 km/h
Sensor: Nr:Datum:Temp:Abs-Feuchte:Windchill:Wind:
Aussen-T/F 701 21-09-2009 20:04:02 18.3 C 9.38 g/m*3 18.3 C 0 km/h
702 21-09-2009 20:16:02 18 C 9.22 g/m*3 18 C 0 km/h
703 21-09-2009 20:28:02 17.8 C 9.11 g/m*3 17.8 C 0 km/h
704 21-09-2009 20:40:03 17.5 C 9.24 g/m*3 17.5 C 0 km/h
705 21-09-2009 20:52:02 17.2 C 9.23 g/m*3 17.2 C 0 km/h
706 21-09-2009 21:05:02 17 C 9.26 g/m*3 17 C 0 km/h
707 21-09-2009 21:17:02 16.8 C 9.44 g/m*3 16.8 C 0 km/h
708 21-09-2009 21:29:02 16.7 C 9.52 g/m*3 16.7 C 0 km/h
709 21-09-2009 21:41:02 16.5 C 9.55 g/m*3 16.5 C 0 km/h
710 21-09-2009 21:53:02 16.2 C 9.65 g/m*3 16.2 C 0 km/h
711 21-09-2009 22:05:02 16.1 C 9.6 g/m*3 16.1 C 0 km/h
712 21-09-2009 22:17:02 15.9 C 9.75 g/m*3 15.9 C 0 km/h
713 21-09-2009 22:29:02 15.7 C 9.77 g/m*3 15.7 C 0 km/h
714 21-09-2009 22:41:02 15.5 C 9.65 g/m*3 15.5 C 0 km/h
715 21-09-2009 22:53:02 15.4 C 9.72 g/m*3 15.4 C 0 km/h
716 21-09-2009 23:05:02 15.2 C 9.61 g/m*3 15.2 C 0 km/h
717 21-09-2009 23:17:02 15.1 C 9.55 g/m*3 15.1 C 0 km/h
718 21-09-2009 23:29:02 14.8 C 9.75 g/m*3 14.8 C 0 km/h
719 21-09-2009 23:41:02 14.7 C 9.69 g/m*3 14.7 C 0 km/h
720 21-09-2009 23:53:02 14.5 C 9.7 g/m*3 14.5 C 0 km/h
721 22-09-2009 00:05:03 14.5 C 9.7 g/m*3 14.5 C 0 km/h
722 22-09-2009 00:17:03 14.2 C 9.52 g/m*3 14.2 C 0 km/h
723 22-09-2009 00:29:03 14 C 9.53 g/m*3 14 C 0 km/h
724 22-09-2009 00:41:03 14 C 9.41 g/m*3 14 C 0 km/h
725 22-09-2009 00:53:03 13.9 C 9.47 g/m*3 13.9 C 0 km/h
Sensor: Nr:Datum:Temp:Abs-Feuchte:Windchill:Wind:
Aussen-T/F 726 22-09-2009 01:05:03 13.8 C 9.53 g/m*3 13.8 C 0 km/h
727 22-09-2009 01:17:03 13.7 C 9.71 g/m*3 13.7 C 0 km/h
728 22-09-2009 01:29:03 13.5 C 9.59 g/m*3 13.5 C 0 km/h
729 22-09-2009 01:41:03 13.4 C 9.53 g/m*3 13.4 C 0 km/h
730 22-09-2009 01:53:03 13.3 C 9.59 g/m*3 13.3 C 0 km/h
731 22-09-2009 02:05:03 13.1 C 9.47 g/m*3 13.1 C 0 km/h
732 22-09-2009 02:17:03 13.1 C 9.47 g/m*3 13.1 C 0 km/h
733 22-09-2009 02:29:03 13 C 9.41 g/m*3 13 C 0 km/h
734 22-09-2009 02:41:03 12.8 C 9.52 g/m*3 12.8 C 0 km/h
735 22-09-2009 02:53:03 12.7 C 9.35 g/m*3 12.7 C 0 km/h
736 22-09-2009 03:05:03 12.6 C 9.4 g/m*3 12.6 C 0 km/h
737 22-09-2009 03:17:03 12.4 C 9.29 g/m*3 12.4 C 0 km/h
738 22-09-2009 03:29:03 12.4 C 9.29 g/m*3 12.4 C 0 km/h
739 22-09-2009 03:41:03 12.3 C 9.34 g/m*3 12.3 C 0 km/h
740 22-09-2009 03:53:04 12.2 C 9.28 g/m*3 12.2 C 0 km/h
741 22-09-2009 04:05:04 12.1 C 9.22 g/m*3 12.1 C 0 km/h
742 22-09-2009 04:17:04 12.1 C 9.22 g/m*3 12.1 C 0 km/h
743 22-09-2009 04:29:04 11.8 C 9.05 g/m*3 11.8 C 0 km/h
744 22-09-2009 04:41:04 11.7 C 9.1 g/m*3 11.7 C 0 km/h
745 22-09-2009 04:53:04 11.6 C 9.04 g/m*3 11.6 C 0 km/h
746 22-09-2009 05:05:04 11.6 C 9.15 g/m*3 11.6 C 0 km/h
747 22-09-2009 05:17:04 11.6 C 9.25 g/m*3 11.6 C 0 km/h
748 22-09-2009 05:29:04 11.6 C 9.25 g/m*3 11.6 C 0 km/h
749 22-09-2009 05:41:04 11.7 C 9.2 g/m*3 11.7 C 0 km/h
750 22-09-2009 05:53:04 11.6 C 9.15 g/m*3 11.6 C 0 km/h
Sensor: Nr:Datum:Temp:Abs-Feuchte:Windchill:Wind:
Aussen-T/F 751 22-09-2009 06:05:04 11.5 C 9.09 g/m*3 11.5 C 0 km/h
752 22-09-2009 06:17:02 11.4 C 9.03 g/m*3 11.4 C 0 km/h
753 22-09-2009 06:29:02 11.2 C 8.92 g/m*3 11.2 C 0 km/h
754 22-09-2009 06:41:02 11.1 C 8.86 g/m*3 11.1 C 0 km/h
755 22-09-2009 06:53:01 11.1 C 8.86 g/m*3 11.1 C 0 km/h
756 22-09-2009 07:05:02 11.2 C 8.92 g/m*3 11.2 C 0 km/h
757 22-09-2009 07:17:01 11.4 C 9.03 g/m*3 11.4 C 0 km/h
758 22-09-2009 07:29:01 11.4 C 9.03 g/m*3 11.4 C 0 km/h
759 22-09-2009 07:41:02 11.2 C 8.92 g/m*3 11.2 C 0 km/h
760 22-09-2009 07:53:01 11.4 C 9.03 g/m*3 11.4 C 0 km/h
761 22-09-2009 08:05:02 11.3 C 8.87 g/m*3 11.3 C 0 km/h
762 22-09-2009 08:17:01 11.1 C 8.76 g/m*3 11.1 C 0 km/h
763 22-09-2009 08:29:01 10.9 C 8.75 g/m*3 10.9 C 0 km/h
764 22-09-2009 08:41:02 11.1 C 8.86 g/m*3 11.1 C 0 km/h
765 22-09-2009 08:53:01 11.2 C 8.92 g/m*3 11.2 C 0 km/h
766 22-09-2009 09:05:02 11.5 C 8.99 g/m*3 11.5 C 0 km/h
767 22-09-2009 09:17:01 11.6 C 9.04 g/m*3 11.6 C 0 km/h
768 22-09-2009 09:29:01 11.7 C 9.1 g/m*3 11.7 C 0 km/h
769 22-09-2009 09:41:02 12 C 9.17 g/m*3 12 C 0 km/h
770 22-09-2009 09:53:02 12.1 C 9.01 g/m*3 12.1 C 0 km/h
771 22-09-2009 10:05:02 12.8 C 9.41 g/m*3 12.8 C 0 km/h
772 22-09-2009 10:17:02 13 C 9.07 g/m*3 13 C 0 km/h
773 22-09-2009 10:29:02 13 C 8.96 g/m*3 13 C 0 km/h
774 22-09-2009 10:41:02 13.2 C 9.19 g/m*3 13.2 C 0 km/h
775 22-09-2009 10:53:01 13.5 C 9.36 g/m*3 13.5 C 0 km/h
Sensor: Nr:Datum:Temp:Abs-Feuchte:Windchill:Wind:
Aussen-T/F 776 22-09-2009 11:05:02 14 C 9.53 g/m*3 14 C 0 km/h
777 22-09-2009 11:17:02 14.4 C 9.52 g/m*3 14.4 C 0 km/h
778 22-09-2009 11:29:02 14.9 C 9.69 g/m*3 14.9 C 0 km/h
779 22-09-2009 11:41:02 15.6 C 9.71 g/m*3 15.6 C 0 km/h
780 22-09-2009 11:53:02 16.4 C 10.05 g/m*3 16.4 C 0 km/h
781 22-09-2009 12:05:02 17.2 C 10.4 g/m*3 17.2 C 0 km/h
782 22-09-2009 12:17:02 17.8 C 10.02 g/m*3 17.8 C 0 km/h
783 22-09-2009 12:29:02 18.5 C 9.81 g/m*3 18.5 C 0 km/h
784 22-09-2009 12:41:02 18.9 C 9.56 g/m*3 18.9 C 0 km/h
785 22-09-2009 12:53:02 19.6 C 9.79 g/m*3 19.6 C 0 km/h
786 22-09-2009 13:05:02 20 C 9.68 g/m*3 20 C 0 km/h
787 22-09-2009 13:17:02 20.5 C 9.25 g/m*3 20.5 C 0 km/h
788 22-09-2009 13:29:02 21 C 9.34 g/m*3 21 C 0 km/h
789 22-09-2009 13:41:01 21.7 C 8.77 g/m*3 21.7 C 0 km/h
790 22-09-2009 13:53:02 22.2 C 8.05 g/m*3 22.2 C 0 km/h
791 22-09-2009 14:05:01 23.1 C 8.48 g/m*3 23.1 C 0 km/h
792 22-09-2009 14:17:02 23.7 C 7.91 g/m*3 23.7 C 0 km/h
793 22-09-2009 14:29:02 24.3 C 8.41 g/m*3 24.3 C 0 km/h
794 22-09-2009 14:41:01 24.7 C 8.15 g/m*3 24.7 C 0 km/h
795 22-09-2009 14:53:02 24.7 C 7.47 g/m*3 24.7 C 0 km/h
796 22-09-2009 15:05:02 25.4 C 7.77 g/m*3 25.4 C 0 km/h
797 22-09-2009 15:17:02 26.1 C 7.59 g/m*3 26.1 C 0 km/h
798 22-09-2009 15:29:02 26.4 C 7.97 g/m*3 26.4 C 0 km/h
799 22-09-2009 15:41:03 27.1 C 7.76 g/m*3 27.1 C 0 km/h
800 22-09-2009 15:53:02 27.8 C 7.8 g/m*3 27.8 C 0 km/h
Sensor: Nr:Datum:Temp:Abs-Feuchte:Windchill:Wind:
Aussen-T/F 801 22-09-2009 16:05:01 28.2 C 7.7 g/m*3 28.2 C 0 km/h
802 22-09-2009 16:17:02 29.1 C 7.22 g/m*3 29.1 C 0 km/h
803 22-09-2009 16:29:02 29.2 C 7.26 g/m*3 29.2 C 0 km/h
804 22-09-2009 16:41:02 28 C 8.16 g/m*3 28 C 0 km/h
805 22-09-2009 16:53:02 26 C 8.52 g/m*3 26 C 0 km/h
806 22-09-2009 17:05:03 27 C 8.49 g/m*3 27 C 0 km/h
807 22-09-2009 17:17:02 27.7 C 8.29 g/m*3 27.7 C 0 km/h
808 22-09-2009 17:29:02 27.6 C 8.51 g/m*3 27.6 C 0 km/h
809 22-09-2009 17:41:03 27.5 C 8.47 g/m*3 27.5 C 0 km/h
810 22-09-2009 17:53:02 27.5 C 8.47 g/m*3 27.5 C 0 km/h
811 22-09-2009 18:05:02 26.7 C 8.61 g/m*3 26.7 C 0 km/h
812 22-09-2009 18:17:02 26.2 C 8.37 g/m*3 26.2 C 0 km/h
813 22-09-2009 18:29:02 25.6 C 8.57 g/m*3 25.6 C 0 km/h
814 22-09-2009 18:41:02 24.9 C 8.7 g/m*3 24.9 C 0 km/h
815 22-09-2009 18:53:02 24.4 C 8.23 g/m*3 24.4 C 0 km/h
816 22-09-2009 19:05:02 23.5 C 8.04 g/m*3 23.5 C 0 km/h
817 22-09-2009 19:17:02 22.5 C 7.99 g/m*3 22.5 C 0 km/h
818 22-09-2009 19:29:02 21.5 C 8.3 g/m*3 21.5 C 0 km/h
819 22-09-2009 19:41:02 20.7 C 8.46 g/m*3 20.7 C 0 km/h
820 22-09-2009 19:53:01 20 C 8.47 g/m*3 20 C 0 km/h
821 22-09-2009 20:05:02 19.7 C 8.66 g/m*3 19.7 C 0 km/h
822 22-09-2009 20:17:01 19.2 C 8.24 g/m*3 19.2 C 0 km/h
823 22-09-2009 20:29:01 19.1 C 8.03 g/m*3 19.1 C 0 km/h
824 22-09-2009 20:41:02 19 C 8.15 g/m*3 19 C 0 km/h
825 22-09-2009 20:53:02 18.8 C 8.05 g/m*3 18.8 C 0 km/h
Sensor: Nr:Datum:Temp:Abs-Feuchte:Windchill:Wind:
Aussen-T/F 826 22-09-2009 21:05:02 18.8 C 7.89 g/m*3 18.8 C 0 km/h
827 22-09-2009 21:17:02 18.7 C 7.84 g/m*3 18.7 C 0 km/h
828 22-09-2009 21:29:02 18.3 C 7.97 g/m*3 18.3 C 0 km/h
829 22-09-2009 21:41:02 18.1 C 8.03 g/m*3 18.1 C 0 km/h
830 22-09-2009 21:53:01 17.8 C 8.2 g/m*3 17.8 C 0 km/h
831 22-09-2009 22:05:02 17.4 C 8.45 g/m*3 17.4 C 0 km/h
832 22-09-2009 22:18:03 17.2 C 8.49 g/m*3 17.2 C 0 km/h
833 22-09-2009 22:30:03 17 C 8.39 g/m*3 17 C 0 km/h
834 22-09-2009 22:42:03 16.4 C 9.07 g/m*3 16.4 C 0 km/h
835 22-09-2009 22:54:03 16.3 C 9.02 g/m*3 16.3 C 0 km/h
836 22-09-2009 23:06:03 16.1 C 8.91 g/m*3 16.1 C 0 km/h
837 22-09-2009 23:18:03 16 C 8.99 g/m*3 16 C 0 km/h
838 22-09-2009 23:30:03 15.9 C 9.07 g/m*3 15.9 C 0 km/h
839 22-09-2009 23:42:03 15.6 C 9.04 g/m*3 15.6 C 0 km/h
840 22-09-2009 23:54:03 15.4 C 9.2 g/m*3 15.4 C 0 km/h
841 23-09-2009 00:06:03 15.1 C 9.16 g/m*3 15.1 C 0 km/h
842 23-09-2009 00:18:03 14.8 C 9.25 g/m*3 14.8 C 0 km/h
843 23-09-2009 00:30:03 14.7 C 9.32 g/m*3 14.7 C 0 km/h
844 23-09-2009 00:42:03 14.6 C 9.26 g/m*3 14.6 C 0 km/h
845 23-09-2009 00:54:03 14.4 C 9.27 g/m*3 14.4 C 0 km/h
846 23-09-2009 01:06:03 14.4 C 9.27 g/m*3 14.4 C 0 km/h
847 23-09-2009 01:18:03 14.2 C 9.28 g/m*3 14.2 C 0 km/h
848 23-09-2009 01:30:03 14.4 C 9.27 g/m*3 14.4 C 0 km/h
849 23-09-2009 01:42:03 14.1 C 9.1 g/m*3 14.1 C 0 km/h
850 23-09-2009 01:54:03 14 C 9.05 g/m*3 14 C 0 km/h
Sensor: Nr:Datum:Temp:Abs-Feuchte:Windchill:Wind:
Aussen-T/F 851 23-09-2009 02:06:04 13.8 C 9.06 g/m*3 13.8 C 0 km/h
852 23-09-2009 02:18:04 13.7 C 9.12 g/m*3 13.7 C 0 km/h
853 23-09-2009 02:30:04 13.4 C 8.95 g/m*3 13.4 C 0 km/h
854 23-09-2009 02:42:04 13.3 C 9.01 g/m*3 13.3 C 0 km/h
855 23-09-2009 02:54:04 13.2 C 9.07 g/m*3 13.2 C 0 km/h
856 23-09-2009 03:06:04 13.1 C 9.01 g/m*3 13.1 C 0 km/h
857 23-09-2009 03:18:04 12.9 C 9.13 g/m*3 12.9 C 0 km/h
858 23-09-2009 03:30:04 12.9 C 9.13 g/m*3 12.9 C 0 km/h
859 23-09-2009 03:42:04 12.8 C 9.18 g/m*3 12.8 C 0 km/h
860 23-09-2009 03:54:04 12.7 C 9.13 g/m*3 12.7 C 0 km/h
861 23-09-2009 04:06:04 12.6 C 9.07 g/m*3 12.6 C 0 km/h
862 23-09-2009 04:18:04 12.5 C 9.13 g/m*3 12.5 C 0 km/h
863 23-09-2009 04:30:04 12.4 C 9.18 g/m*3 12.4 C 0 km/h
864 23-09-2009 04:42:04 12.3 C 9.12 g/m*3 12.3 C 0 km/h
865 23-09-2009 04:54:04 12.3 C 9.12 g/m*3 12.3 C 0 km/h
866 23-09-2009 05:06:04 12.1 C 9.01 g/m*3 12.1 C 0 km/h
867 23-09-2009 05:18:04 12.1 C 9.01 g/m*3 12.1 C 0 km/h
868 23-09-2009 05:30:04 11.9 C 8.9 g/m*3 11.9 C 0 km/h
869 23-09-2009 05:42:04 11.8 C 8.84 g/m*3 11.8 C 0 km/h
870 23-09-2009 05:54:04 11.8 C 8.84 g/m*3 11.8 C 0 km/h
871 23-09-2009 06:06:05 11.6 C 8.83 g/m*3 11.6 C 0 km/h
872 23-09-2009 06:18:05 11.5 C 8.78 g/m*3 11.5 C 0 km/h
873 23-09-2009 06:30:05 11.3 C 8.67 g/m*3 11.3 C 0 km/h
874 23-09-2009 06:42:05 11.2 C 8.72 g/m*3 11.2 C 0 km/h
875 23-09-2009 06:54:05 11.1 C 8.66 g/m*3 11.1 C 0 km/h
Sensor: Nr:Datum:Temp:Abs-Feuchte:Windchill:Wind:
Aussen-T/F 876 23-09-2009 07:06:03 11.1 C 8.66 g/m*3 11.1 C 0 km/h
877 23-09-2009 07:18:03 10.9 C 8.65 g/m*3 10.9 C 0 km/h
878 23-09-2009 07:30:03 10.9 C 8.65 g/m*3 10.9 C 0 km/h
879 23-09-2009 07:42:04 11 C 8.71 g/m*3 11 C 0 km/h
880 23-09-2009 07:54:02 10.9 C 8.75 g/m*3 10.9 C 0 km/h
881 23-09-2009 08:06:02 10.9 C 8.85 g/m*3 10.9 C 0 km/h
882 23-09-2009 08:18:02 11 C 8.81 g/m*3 11 C 0 km/h
883 23-09-2009 08:30:02 11 C 8.81 g/m*3 11 C 0 km/h
884 23-09-2009 08:42:02 11.1 C 8.86 g/m*3 11.1 C 0 km/h
885 23-09-2009 08:54:02 11.3 C 8.98 g/m*3 11.3 C 0 km/h
886 23-09-2009 09:06:02 11.4 C 9.14 g/m*3 11.4 C 0 km/h
887 23-09-2009 09:18:01 11.5 C 9.19 g/m*3 11.5 C 0 km/h
888 23-09-2009 09:30:01 11.7 C 9.31 g/m*3 11.7 C 0 km/h
889 23-09-2009 09:42:02 12.3 C 9.66 g/m*3 12.3 C 0 km/h
890 23-09-2009 09:54:02 12.9 C 9.92 g/m*3 12.9 C 0 km/h
891 23-09-2009 10:06:02 13.5 C 9.94 g/m*3 13.5 C 0 km/h
892 23-09-2009 10:18:02 14.3 C 9.83 g/m*3 14.3 C 0 km/h
893 23-09-2009 10:30:02 14.8 C 9.75 g/m*3 14.8 C 0 km/h
894 23-09-2009 10:42:02 15.2 C 9.48 g/m*3 15.2 C 0 km/h
895 23-09-2009 10:54:02 15.6 C 9.58 g/m*3 15.6 C 0 km/h
896 23-09-2009 11:06:02 15.9 C 9.48 g/m*3 15.9 C 0 km/h
897 23-09-2009 11:18:02 16.6 C 9.32 g/m*3 16.6 C 0 km/h
898 23-09-2009 11:30:02 17.2 C 9.23 g/m*3 17.2 C 0 km/h
899 23-09-2009 11:42:02 17.8 C 9.26 g/m*3 17.8 C 0 km/h
900 23-09-2009 11:54:01 18.3 C 9.22 g/m*3 18.3 C 0 km/h
Sensor: Nr:Datum:Temp:Abs-Feuchte:Windchill:Wind:
Aussen-T/F 901 23-09-2009 12:06:02 19.1 C 9.34 g/m*3 19.1 C 0 km/h
902 23-09-2009 12:18:01 19.5 C 9.4 g/m*3 19.5 C 0 km/h
903 23-09-2009 12:30:01 19.6 C 8.95 g/m*3 19.6 C 0 km/h
904 23-09-2009 12:42:01 19.4 C 8.84 g/m*3 19.4 C 0 km/h
905 23-09-2009 12:54:01 19.5 C 9.23 g/m*3 19.5 C 0 km/h
906 23-09-2009 13:06:02 20.4 C 9.2 g/m*3 20.4 C 0 km/h
907 23-09-2009 13:18:01 21 C 9.16 g/m*3 21 C 0 km/h
908 23-09-2009 13:30:01 21.6 C 9.1 g/m*3 21.6 C 0 km/h
909 23-09-2009 13:42:01 22.1 C 8.98 g/m*3 22.1 C 0 km/h
910 23-09-2009 13:54:01 22.5 C 8.99 g/m*3 22.5 C 0 km/h
911 23-09-2009 14:06:02 22.7 C 8.69 g/m*3 22.7 C 0 km/h
912 23-09-2009 14:18:02 23.5 C 8.88 g/m*3 23.5 C 0 km/h
913 23-09-2009 14:30:02 24.1 C 8.53 g/m*3 24.1 C 0 km/h
914 23-09-2009 14:42:01 24.3 C 8.63 g/m*3 24.3 C 0 km/h
915 23-09-2009 14:54:01 24.7 C 8.6 g/m*3 24.7 C 0 km/h
916 23-09-2009 15:06:02 25.6 C 8.33 g/m*3 25.6 C 0 km/h
917 23-09-2009 15:18:01 26.1 C 8.32 g/m*3 26.1 C 0 km/h
918 23-09-2009 15:30:01 26.1 C 8.57 g/m*3 26.1 C 0 km/h
919 23-09-2009 15:42:02 26.6 C 8.31 g/m*3 26.6 C 0 km/h
920 23-09-2009 15:54:02 26.6 C 8.56 g/m*3 26.6 C 0 km/h
921 23-09-2009 16:06:02 27.1 C 8.02 g/m*3 27.1 C 0 km/h
922 23-09-2009 16:18:02 26.8 C 8.14 g/m*3 26.8 C 0 km/h
923 23-09-2009 16:30:02 26.1 C 8.57 g/m*3 26.1 C 0 km/h
924 23-09-2009 16:42:02 26.4 C 8.71 g/m*3 26.4 C 0 km/h
925 23-09-2009 16:54:01 27.5 C 8.2 g/m*3 27.5 C 0 km/h
Sensor: Nr:Datum:Temp:Abs-Feuchte:Windchill:Wind:
Aussen-T/F 926 23-09-2009 17:06:02 27.6 C 8.25 g/m*3 27.6 C 0 km/h
927 23-09-2009 17:18:01 26.2 C 8.62 g/m*3 26.2 C 0 km/h
928 23-09-2009 17:30:01 25.3 C 9.13 g/m*3 25.3 C 0 km/h
929 23-09-2009 17:42:02 24.5 C 9.4 g/m*3 24.5 C 0 km/h
930 23-09-2009 17:54:02 23.7 C 9.63 g/m*3 23.7 C 0 km/h
931 23-09-2009 18:06:02 23.7 C 9.84 g/m*3 23.7 C 0 km/h
932 23-09-2009 18:18:01 24 C 9.36 g/m*3 24 C 0 km/h
933 23-09-2009 18:30:01 24 C 9.57 g/m*3 24 C 0 km/h
934 23-09-2009 18:42:02 23.8 C 9.68 g/m*3 23.8 C 0 km/h
935 23-09-2009 18:54:02 23 C 9.66 g/m*3 23 C 0 km/h
936 23-09-2009 19:06:02 21.6 C 9.48 g/m*3 21.6 C 0 km/h
937 23-09-2009 19:18:02 21.1 C 9.58 g/m*3 21.1 C 0 km/h
938 23-09-2009 19:30:02 20.8 C 9.78 g/m*3 20.8 C 0 km/h
939 23-09-2009 19:42:02 20.3 C 9.67 g/m*3 20.3 C 0 km/h
940 23-09-2009 19:54:01 20 C 9.85 g/m*3 20 C 0 km/h
941 23-09-2009 20:06:02 19.7 C 10.02 g/m*3 19.7 C 0 km/h
942 23-09-2009 20:18:01 19.4 C 9.84 g/m*3 19.4 C 0 km/h
943 23-09-2009 20:30:01 19.1 C 10 g/m*3 19.1 C 0 km/h
944 23-09-2009 20:42:01 18.7 C 10.09 g/m*3 18.7 C 0 km/h
945 23-09-2009 20:54:01 18.4 C 10.07 g/m*3 18.4 C 0 km/h
946 23-09-2009 21:06:02 18.4 C 10.22 g/m*3 18.4 C 0 km/h
947 23-09-2009 21:18:01 18.6 C 10.19 g/m*3 18.6 C 0 km/h
948 23-09-2009 21:30:01 18.5 C 10.13 g/m*3 18.5 C 0 km/h
949 23-09-2009 21:42:01 18.3 C 10.16 g/m*3 18.3 C 0 km/h
950 23-09-2009 21:54:01 18 C 10.14 g/m*3 18 C 0 km/h
Sensor: Nr:Datum:Temp:Abs-Feuchte:Windchill:Wind:
Aussen-T/F 951 23-09-2009 22:06:02 17.9 C 10.23 g/m*3 17.9 C 0 km/h
952 23-09-2009 22:18:01 18.2 C 10.26 g/m*3 18.2 C 0 km/h
953 23-09-2009 22:30:01 18.2 C 10.1 g/m*3 18.2 C 0 km/h
954 23-09-2009 22:42:02 18.2 C 10.26 g/m*3 18.2 C 0 km/h
955 23-09-2009 22:54:02 18.3 C 10.32 g/m*3 18.3 C 0 km/h
956 23-09-2009 23:06:02 18.2 C 10.26 g/m*3 18.2 C 0 km/h
957 23-09-2009 23:18:02 18.1 C 10.35 g/m*3 18.1 C 0 km/h
958 23-09-2009 23:30:02 18.1 C 10.35 g/m*3 18.1 C 0 km/h
959 23-09-2009 23:42:02 18 C 10.29 g/m*3 18 C 0 km/h
960 23-09-2009 23:54:02 17.8 C 10.47 g/m*3 17.8 C 0 km/h
961 24-09-2009 00:06:02 17.6 C 10.5 g/m*3 17.6 C 0 km/h
962 24-09-2009 00:18:02 17.6 C 10.5 g/m*3 17.6 C 0 km/h
963 24-09-2009 00:30:02 17.5 C 10.44 g/m*3 17.5 C 0 km/h
964 24-09-2009 00:42:02 17.2 C 10.4 g/m*3 17.2 C 0 km/h
965 24-09-2009 00:54:01 16.9 C 10.5 g/m*3 16.9 C 0 km/h
966 24-09-2009 01:06:02 16.7 C 10.37 g/m*3 16.7 C 0 km/h
967 24-09-2009 01:18:01 16.8 C 10.58 g/m*3 16.8 C 0 km/h
968 24-09-2009 01:30:01 16.8 C 10.58 g/m*3 16.8 C 0 km/h
969 24-09-2009 01:42:01 16.8 C 10.58 g/m*3 16.8 C 0 km/h
970 24-09-2009 01:54:01 16.6 C 10.59 g/m*3 16.6 C 0 km/h
971 24-09-2009 02:06:02 16.6 C 10.59 g/m*3 16.6 C 0 km/h
972 24-09-2009 02:18:01 16.6 C 10.59 g/m*3 16.6 C 0 km/h
973 24-09-2009 02:30:01 16.6 C 10.59 g/m*3 16.6 C 0 km/h
974 24-09-2009 02:42:02 16.5 C 10.67 g/m*3 16.5 C 0 km/h
975 24-09-2009 02:55:03 16.5 C 10.67 g/m*3 16.5 C 0 km/h
Sensor: Nr:Datum:Temp:Abs-Feuchte:Windchill:Wind:
Aussen-T/F 976 24-09-2009 03:07:03 16.6 C 10.59 g/m*3 16.6 C 0 km/h
977 24-09-2009 03:19:03 16.6 C 10.59 g/m*3 16.6 C 0 km/h
978 24-09-2009 03:31:01 16.3 C 10.54 g/m*3 16.3 C 0 km/h
979 24-09-2009 03:43:01 16.1 C 10.55 g/m*3 16.1 C 0 km/h
980 24-09-2009 03:55:01 16.2 C 10.62 g/m*3 16.2 C 0 km/h
981 24-09-2009 04:07:02 16.3 C 10.68 g/m*3 16.3 C 0 km/h
982 24-09-2009 04:19:01 16.4 C 10.75 g/m*3 16.4 C 0 km/h
983 24-09-2009 04:31:02 16.4 C 10.75 g/m*3 16.4 C 0 km/h
984 24-09-2009 04:43:03 16.4 C 10.61 g/m*3 16.4 C 0 km/h
985 24-09-2009 04:55:02 16.4 C 10.61 g/m*3 16.4 C 0 km/h
986 24-09-2009 05:07:02 16.4 C 10.61 g/m*3 16.4 C 0 km/h
987 24-09-2009 05:19:01 16.2 C 10.62 g/m*3 16.2 C 0 km/h
988 24-09-2009 05:31:02 16.2 C 10.62 g/m*3 16.2 C 0 km/h
989 24-09-2009 05:43:02 16.2 C 10.76 g/m*3 16.2 C 0 km/h
990 24-09-2009 05:55:02 16.3 C 10.82 g/m*3 16.3 C 0 km/h
991 24-09-2009 06:07:02 16.3 C 10.68 g/m*3 16.3 C 0 km/h
992 24-09-2009 06:19:01 16.2 C 10.62 g/m*3 16.2 C 0 km/h
993 24-09-2009 06:31:02 16.2 C 10.62 g/m*3 16.2 C 0 km/h
994 24-09-2009 06:43:02 16 C 10.63 g/m*3 16 C 0 km/h
995 24-09-2009 06:55:02 16 C 10.63 g/m*3 16 C 0 km/h
996 24-09-2009 07:07:02 15.9 C 10.7 g/m*3 15.9 C 0 km/h
997 24-09-2009 07:19:01 15.9 C 10.7 g/m*3 15.9 C 0 km/h
998 24-09-2009 07:31:02 16.1 C 10.69 g/m*3 16.1 C 0 km/h
999 24-09-2009 07:43:02 16.2 C 10.76 g/m*3 16.2 C 0 km/h
1000 24-09-2009 07:55:02 16.2 C 10.76 g/m*3 16.2 C 0 km/h
Sensor: Nr:Datum:Temp:Abs-Feuchte:Windchill:Wind:
Aussen-T/F 1001 24-09-2009 08:07:02 16.2 C 10.62 g/m*3 16.2 C 0 km/h
1002 24-09-2009 08:19:02 16.1 C 10.55 g/m*3 16.1 C 0 km/h
1003 24-09-2009 08:31:02 16.2 C 10.62 g/m*3 16.2 C 0 km/h
1004 24-09-2009 08:43:02 16.3 C 10.68 g/m*3 16.3 C 0 km/h
1005 24-09-2009 08:55:01 16.5 C 10.81 g/m*3 16.5 C 0 km/h
1006 24-09-2009 09:07:02 16.6 C 10.74 g/m*3 16.6 C 0 km/h
1007 24-09-2009 09:19:02 16.5 C 10.67 g/m*3 16.5 C 0 km/h
1008 24-09-2009 09:31:02 16.6 C 10.74 g/m*3 16.6 C 0 km/h
1009 24-09-2009 09:43:02 16.8 C 10.58 g/m*3 16.8 C 0 km/h
1010 24-09-2009 09:55:01 16.9 C 10.64 g/m*3 16.9 C 0 km/h
1011 24-09-2009 10:07:02 16.9 C 10.64 g/m*3 16.9 C 0 km/h
1012 24-09-2009 10:19:01 17.1 C 10.77 g/m*3 17.1 C 0 km/h
1013 24-09-2009 10:31:02 17.3 C 10.75 g/m*3 17.3 C 0 km/h
1014 24-09-2009 10:43:02 17.8 C 10.93 g/m*3 17.8 C 0 km/h
1015 24-09-2009 10:55:02 18.1 C 10.66 g/m*3 18.1 C 0 km/h
1016 24-09-2009 11:07:02 18.4 C 10.7 g/m*3 18.4 C 0 km/h
1017 24-09-2009 11:19:02 18.6 C 10.82 g/m*3 18.6 C 0 km/h
1018 24-09-2009 11:31:02 19.3 C 10.62 g/m*3 19.3 C 0 km/h
1019 24-09-2009 11:43:03 19.7 C 10.36 g/m*3 19.7 C 0 km/h
1020 24-09-2009 11:55:02 20.1 C 10.43 g/m*3 20.1 C 0 km/h
1021 24-09-2009 12:07:02 20.1 C 10.08 g/m*3 20.1 C 0 km/h
1022 24-09-2009 12:19:02 19.9 C 10.48 g/m*3 19.9 C 0 km/h
1023 24-09-2009 12:31:02 19.5 C 10.41 g/m*3 19.5 C 0 km/h
1024 24-09-2009 12:43:02 19.9 C 10.65 g/m*3 19.9 C 0 km/h
1025 24-09-2009 12:55:01 20.6 C 10.56 g/m*3 20.6 C 0 km/h
Sensor: Nr:Datum:Temp:Abs-Feuchte:Windchill:Wind:
Aussen-T/F 1026 24-09-2009 13:07:01 20.9 C 10.38 g/m*3 20.9 C 0 km/h
1027 24-09-2009 13:19:01 19.4 C 10.34 g/m*3 19.4 C 0 km/h
1028 24-09-2009 13:31:01 17.7 C 11.16 g/m*3 17.7 C 0 km/h
1029 24-09-2009 13:43:01 17.5 C 11.33 g/m*3 17.5 C 0 km/h
1030 24-09-2009 13:55:01 17.6 C 11.4 g/m*3 17.6 C 0 km/h
1031 24-09-2009 14:07:01 18.1 C 10.97 g/m*3 18.1 C 0 km/h
1032 24-09-2009 14:19:01 18.5 C 10.6 g/m*3 18.5 C 0 km/h
1033 24-09-2009 14:31:01 18.7 C 10.25 g/m*3 18.7 C 0 km/h
1034 24-09-2009 14:43:01 19.4 C 10.51 g/m*3 19.4 C 0 km/h
1035 24-09-2009 14:55:01 19.8 C 10.08 g/m*3 19.8 C 0 km/h
1036 24-09-2009 15:07:01 20.3 C 10.02 g/m*3 20.3 C 0 km/h
1037 24-09-2009 15:19:02 20.2 C 9.97 g/m*3 20.2 C 0 km/h
1038 24-09-2009 15:31:01 19.7 C 9.85 g/m*3 19.7 C 0 km/h
1039 24-09-2009 15:43:01 19.4 C 10.01 g/m*3 19.4 C 0 km/h
1040 24-09-2009 15:55:01 19.7 C 10.02 g/m*3 19.7 C 0 km/h
1041 24-09-2009 16:07:01 19.7 C 9.51 g/m*3 19.7 C 0 km/h
1042 24-09-2009 16:19:02 19.6 C 9.96 g/m*3 19.6 C 0 km/h
1043 24-09-2009 16:31:01 19.5 C 9.9 g/m*3 19.5 C 0 km/h
1044 24-09-2009 16:43:01 19.5 C 9.73 g/m*3 19.5 C 0 km/h
1045 24-09-2009 16:55:02 19 C 9.61 g/m*3 19 C 0 km/h
1046 24-09-2009 17:07:02 19 C 9.78 g/m*3 19 C 0 km/h
1047 24-09-2009 17:19:03 18.8 C 9.66 g/m*3 18.8 C 0 km/h
1048 24-09-2009 17:31:02 18.5 C 9.81 g/m*3 18.5 C 0 km/h
1049 24-09-2009 17:43:02 18.5 C 9.97 g/m*3 18.5 C 0 km/h
1050 24-09-2009 17:55:03 18.5 C 10.13 g/m*3 18.5 C 0 km/h
Sensor: Nr:Datum:Temp:Abs-Feuchte:Windchill:Wind:
Aussen-T/F 1051 24-09-2009 18:07:02 18.6 C 10.35 g/m*3 18.6 C 0 km/h
1052 24-09-2009 18:19:02 18.5 C 10.28 g/m*3 18.5 C 0 km/h
1053 24-09-2009 18:31:02 18.5 C 10.13 g/m*3 18.5 C 0 km/h
1054 24-09-2009 18:43:02 18.2 C 9.79 g/m*3 18.2 C 0 km/h
1055 24-09-2009 18:55:02 18.3 C 10.01 g/m*3 18.3 C 0 km/h
1056 24-09-2009 19:07:02 17.9 C 9.77 g/m*3 17.9 C 0 km/h
1057 24-09-2009 19:19:02 17.7 C 9.66 g/m*3 17.7 C 0 km/h
1058 24-09-2009 19:31:02 17.6 C 9.6 g/m*3 17.6 C 0 km/h
1059 24-09-2009 19:43:02 17.4 C 9.63 g/m*3 17.4 C 0 km/h
1060 24-09-2009 19:55:02 17.2 C 9.67 g/m*3 17.2 C 0 km/h
1061 24-09-2009 20:07:01 16.9 C 9.92 g/m*3 16.9 C 0 km/h
1062 24-09-2009 20:19:02 16.6 C 10.03 g/m*3 16.6 C 0 km/h
1063 24-09-2009 20:31:02 16.4 C 10.05 g/m*3 16.4 C 0 km/h
1064 24-09-2009 20:43:02 16.1 C 10.01 g/m*3 16.1 C 0 km/h
1065 24-09-2009 20:55:02 15.7 C 10.03 g/m*3 15.7 C 0 km/h
1066 24-09-2009 21:07:01 15.5 C 10.05 g/m*3 15.5 C 0 km/h
1067 24-09-2009 21:19:02 15.5 C 10.18 g/m*3 15.5 C 0 km/h
1068 24-09-2009 21:31:01 15.3 C 10.19 g/m*3 15.3 C 0 km/h
1069 24-09-2009 21:43:01 15 C 10.13 g/m*3 15 C 0 km/h
1070 24-09-2009 21:55:03 14.8 C 10.26 g/m*3 14.8 C 0 km/h
1071 24-09-2009 22:08:03 14.8 C 10.39 g/m*3 14.8 C 0 km/h
1072 24-09-2009 22:20:03 14.7 C 10.32 g/m*3 14.7 C 0 km/h
1073 24-09-2009 22:32:03 14.3 C 10.2 g/m*3 14.3 C 0 km/h
1074 24-09-2009 22:44:03 14.1 C 10.07 g/m*3 14.1 C 0 km/h
1075 24-09-2009 22:56:04 14 C 10.01 g/m*3 14 C 0 km/h
Sensor: Nr:Datum:Temp:Abs-Feuchte:Windchill:Wind:
Aussen-T/F 1076 24-09-2009 23:08:04 14 C 10.13 g/m*3 14 C 0 km/h
1077 24-09-2009 23:20:04 14 C 10.13 g/m*3 14 C 0 km/h
1078 24-09-2009 23:32:04 13.8 C 10.13 g/m*3 13.8 C 0 km/h
1079 24-09-2009 23:44:04 13.4 C 9.88 g/m*3 13.4 C 0 km/h
1080 24-09-2009 23:56:04 13.2 C 9.76 g/m*3 13.2 C 0 km/h
1081 25-09-2009 00:08:04 13 C 9.64 g/m*3 13 C 0 km/h
1082 25-09-2009 00:20:04 12.8 C 9.63 g/m*3 12.8 C 0 km/h
1083 25-09-2009 00:32:04 12.7 C 9.57 g/m*3 12.7 C 0 km/h
1084 25-09-2009 00:44:04 12.5 C 9.57 g/m*3 12.5 C 0 km/h
1085 25-09-2009 00:56:04 12.4 C 9.51 g/m*3 12.4 C 0 km/h
1086 25-09-2009 01:08:04 12.3 C 9.45 g/m*3 12.3 C 0 km/h
1087 25-09-2009 01:20:04 12.5 C 9.68 g/m*3 12.5 C 0 km/h
1088 25-09-2009 01:32:04 12.6 C 9.74 g/m*3 12.6 C 0 km/h
1089 25-09-2009 01:44:04 12.6 C 9.74 g/m*3 12.6 C 0 km/h
1090 25-09-2009 01:56:04 12.7 C 9.8 g/m*3 12.7 C 0 km/h
1091 25-09-2009 02:08:04 12.8 C 9.74 g/m*3 12.8 C 0 km/h
1092 25-09-2009 02:20:04 12.8 C 9.74 g/m*3 12.8 C 0 km/h
1093 25-09-2009 02:32:04 12.8 C 9.63 g/m*3 12.8 C 0 km/h
1094 25-09-2009 02:44:04 12.7 C 9.57 g/m*3 12.7 C 0 km/h
1095 25-09-2009 02:56:04 12.5 C 9.57 g/m*3 12.5 C 0 km/h
1096 25-09-2009 03:08:05 12.4 C 9.51 g/m*3 12.4 C 0 km/h
1097 25-09-2009 03:20:05 12.2 C 9.39 g/m*3 12.2 C 0 km/h
1098 25-09-2009 03:32:05 12.3 C 9.56 g/m*3 12.3 C 0 km/h
1099 25-09-2009 03:44:05 12.3 C 9.56 g/m*3 12.3 C 0 km/h
1100 25-09-2009 03:56:05 12.4 C 9.62 g/m*3 12.4 C 0 km/h
Sensor: Nr:Datum:Temp:Abs-Feuchte:Windchill:Wind:
Aussen-T/F 1101 25-09-2009 04:08:05 12.3 C 9.56 g/m*3 12.3 C 0 km/h
1102 25-09-2009 04:20:05 11.8 C 9.26 g/m*3 11.8 C 0 km/h
1103 25-09-2009 04:32:05 11.7 C 9.2 g/m*3 11.7 C 0 km/h
1104 25-09-2009 04:44:05 11.7 C 9.31 g/m*3 11.7 C 0 km/h
1105 25-09-2009 04:56:05 11.5 C 9.19 g/m*3 11.5 C 0 km/h
1106 25-09-2009 05:08:05 11.2 C 9.02 g/m*3 11.2 C 0 km/h
1107 25-09-2009 05:20:05 11.1 C 8.96 g/m*3 11.1 C 0 km/h
1108 25-09-2009 05:32:05 11.1 C 9.07 g/m*3 11.1 C 0 km/h
1109 25-09-2009 05:44:05 11 C 9.01 g/m*3 11 C 0 km/h
1110 25-09-2009 05:56:05 10.8 C 8.9 g/m*3 10.8 C 0 km/h
1111 25-09-2009 06:08:05 10.8 C 8.99 g/m*3 10.8 C 0 km/h
1112 25-09-2009 06:20:05 10.9 C 9.05 g/m*3 10.9 C 0 km/h
1113 25-09-2009 06:32:05 11 C 9.01 g/m*3 11 C 0 km/h
1114 25-09-2009 06:44:05 10.9 C 8.95 g/m*3 10.9 C 0 km/h
1115 25-09-2009 06:56:05 10.9 C 8.95 g/m*3 10.9 C 0 km/h
1116 25-09-2009 07:08:06 11.1 C 8.96 g/m*3 11.1 C 0 km/h
1117 25-09-2009 07:20:06 11.1 C 8.96 g/m*3 11.1 C 0 km/h
1118 25-09-2009 07:32:04 11 C 8.91 g/m*3 11 C 0 km/h
1119 25-09-2009 07:44:04 10.9 C 8.95 g/m*3 10.9 C 0 km/h
1120 25-09-2009 07:56:02 11.1 C 9.07 g/m*3 11.1 C 0 km/h
1121 25-09-2009 08:08:02 11.3 C 9.18 g/m*3 11.3 C 0 km/h
1122 25-09-2009 08:20:02 11.4 C 9.14 g/m*3 11.4 C 0 km/h
1123 25-09-2009 08:32:02 11.6 C 9.25 g/m*3 11.6 C 0 km/h
1124 25-09-2009 08:44:02 11.9 C 9.43 g/m*3 11.9 C 0 km/h
1125 25-09-2009 08:56:02 11.8 C 9.16 g/m*3 11.8 C 0 km/h
Sensor: Nr:Datum:Temp:Abs-Feuchte:Windchill:Wind:
Aussen-T/F 1126 25-09-2009 09:08:01 11.9 C 9.21 g/m*3 11.9 C 0 km/h
1127 25-09-2009 09:20:01 12.4 C 9.4 g/m*3 12.4 C 0 km/h
1128 25-09-2009 09:32:02 12.7 C 9.35 g/m*3 12.7 C 0 km/h
1129 25-09-2009 09:44:02 13.2 C 9.42 g/m*3 13.2 C 0 km/h
1130 25-09-2009 09:56:02 13.4 C 9.18 g/m*3 13.4 C 0 km/h
1131 25-09-2009 10:08:02 14 C 9.17 g/m*3 14 C 0 km/h
1132 25-09-2009 10:20:02 14.1 C 8.86 g/m*3 14.1 C 0 km/h
1133 25-09-2009 10:32:02 14.3 C 8.85 g/m*3 14.3 C 0 km/h
1134 25-09-2009 10:44:02 14.4 C 8.65 g/m*3 14.4 C 0 km/h
1135 25-09-2009 10:56:02 14.6 C 8.76 g/m*3 14.6 C 0 km/h
1136 25-09-2009 11:08:02 14.7 C 8.69 g/m*3 14.7 C 0 km/h
1137 25-09-2009 11:20:01 15 C 8.59 g/m*3 15 C 0 km/h
1138 25-09-2009 11:32:02 15 C 8.72 g/m*3 15 C 0 km/h
1139 25-09-2009 11:44:02 15 C 8.85 g/m*3 15 C 0 km/h
1140 25-09-2009 11:56:02 15.5 C 8.99 g/m*3 15.5 C 0 km/h
1141 25-09-2009 12:08:02 15.7 C 8.83 g/m*3 15.7 C 0 km/h
1142 25-09-2009 12:20:02 16.3 C 8.74 g/m*3 16.3 C 0 km/h
1143 25-09-2009 12:32:02 16.6 C 8.9 g/m*3 16.6 C 0 km/h
1144 25-09-2009 12:44:02 16.9 C 8.77 g/m*3 16.9 C 0 km/h
1145 25-09-2009 12:56:03 17.7 C 8.6 g/m*3 17.7 C 0 km/h
1146 25-09-2009 13:08:02 18.2 C 8.24 g/m*3 18.2 C 0 km/h
1147 25-09-2009 13:20:02 18.8 C 8.37 g/m*3 18.8 C 0 km/h
1148 25-09-2009 13:32:02 19.4 C 7.67 g/m*3 19.4 C 0 km/h
1149 25-09-2009 13:44:02 20 C 7.09 g/m*3 20 C 0 km/h
1150 25-09-2009 13:56:02 20.9 C 7.1 g/m*3 20.9 C 0 km/h
Sensor: Nr:Datum:Temp:Abs-Feuchte:Windchill:Wind:
Aussen-T/F 1151 25-09-2009 14:08:02 21 C 5.86 g/m*3 21 C 0 km/h
1152 25-09-2009 14:20:01 21.3 C 6.15 g/m*3 21.3 C 0 km/h
1153 25-09-2009 14:32:02 22.7 C 6.26 g/m*3 22.7 C 0 km/h
1154 25-09-2009 14:44:02 22.1 C 6.05 g/m*3 22.1 C 0 km/h
1155 25-09-2009 14:56:02 21.5 C 6.6 g/m*3 21.5 C 0 km/h
1156 25-09-2009 15:08:02 20.4 C 6.55 g/m*3 20.4 C 0 km/h
1157 25-09-2009 15:20:02 20.5 C 7.12 g/m*3 20.5 C 0 km/h
1158 25-09-2009 15:32:02 22.1 C 6.44 g/m*3 22.1 C 0 km/h
1159 25-09-2009 15:44:02 23.1 C 5.58 g/m*3 23.1 C 0 km/h
1160 25-09-2009 15:56:02 21.1 C 5.53 g/m*3 21.1 C 0 km/h
1161 25-09-2009 16:08:02 21.3 C 5.96 g/m*3 21.3 C 0 km/h
1162 25-09-2009 16:20:02 21.2 C 6.12 g/m*3 21.2 C 0 km/h
1163 25-09-2009 16:32:02 20.4 C 6.37 g/m*3 20.4 C 0 km/h
1164 25-09-2009 16:44:02 20.5 C 6.41 g/m*3 20.5 C 0 km/h
1165 25-09-2009 16:56:02 21.4 C 6.19 g/m*3 21.4 C 0 km/h
1166 25-09-2009 17:08:02 20.8 C 5.98 g/m*3 20.8 C 0 km/h
1167 25-09-2009 17:20:02 21.5 C 6.22 g/m*3 21.5 C 0 km/h
1168 25-09-2009 17:32:02 21.5 C 6.41 g/m*3 21.5 C 0 km/h
1169 25-09-2009 17:44:02 20.8 C 6.7 g/m*3 20.8 C 0 km/h
1170 25-09-2009 17:56:01 20 C 6.91 g/m*3 20 C 0 km/h
1171 25-09-2009 18:08:01 19.9 C 7.39 g/m*3 19.9 C 0 km/h
1172 25-09-2009 18:20:02 19.5 C 7.55 g/m*3 19.5 C 0 km/h
1173 25-09-2009 18:32:01 19.1 C 7.38 g/m*3 19.1 C 0 km/h
1174 25-09-2009 18:44:01 18.6 C 7.48 g/m*3 18.6 C 0 km/h
1175 25-09-2009 18:56:02 18.4 C 7.55 g/m*3 18.4 C 0 km/h
Sensor: Nr:Datum:Temp:Abs-Feuchte:Windchill:Wind:
Aussen-T/F 1176 25-09-2009 19:08:02 17.8 C 7.44 g/m*3 17.8 C 0 km/h
1177 25-09-2009 19:20:03 17 C 7.23 g/m*3 17 C 0 km/h
1178 25-09-2009 19:32:02 16.8 C 7.43 g/m*3 16.8 C 0 km/h
1179 25-09-2009 19:44:02 16.5 C 7.44 g/m*3 16.5 C 0 km/h
1180 25-09-2009 19:56:03 16.2 C 7.31 g/m*3 16.2 C 0 km/h
1181 25-09-2009 20:08:02 16 C 7.49 g/m*3 16 C 0 km/h
1182 25-09-2009 20:20:02 15.6 C 7.45 g/m*3 15.6 C 0 km/h
1183 25-09-2009 20:32:02 15.2 C 7.53 g/m*3 15.2 C 0 km/h
1184 25-09-2009 20:44:02 15.1 C 7.61 g/m*3 15.1 C 0 km/h
1185 25-09-2009 20:56:02 15.3 C 7.7 g/m*3 15.3 C 0 km/h
1186 25-09-2009 21:08:02 15.5 C 7.93 g/m*3 15.5 C 0 km/h
1187 25-09-2009 21:20:02 15.5 C 8.06 g/m*3 15.5 C 0 km/h
1188 25-09-2009 21:32:02 15.6 C 8.11 g/m*3 15.6 C 0 km/h
1189 25-09-2009 21:44:02 15.4 C 8.01 g/m*3 15.4 C 0 km/h
1190 25-09-2009 21:56:02 15.1 C 8 g/m*3 15.1 C 0 km/h
1191 25-09-2009 22:08:02 14.9 C 8.03 g/m*3 14.9 C 0 km/h
1192 25-09-2009 22:21:03 14.6 C 8.01 g/m*3 14.6 C 0 km/h
1193 25-09-2009 22:33:03 14.3 C 7.86 g/m*3 14.3 C 0 km/h
1194 25-09-2009 22:45:03 13.9 C 7.91 g/m*3 13.9 C 0 km/h
1195 25-09-2009 22:57:03 13.7 C 7.93 g/m*3 13.7 C 0 km/h
1196 25-09-2009 23:09:03 13.3 C 7.97 g/m*3 13.3 C 0 km/h
1197 25-09-2009 23:21:03 13.1 C 7.99 g/m*3 13.1 C 0 km/h
1198 25-09-2009 23:33:03 13 C 8.05 g/m*3 13 C 0 km/h
1199 25-09-2009 23:45:03 12.7 C 8.13 g/m*3 12.7 C 0 km/h
1200 25-09-2009 23:57:03 12.6 C 8.08 g/m*3 12.6 C 0 km/h
Sensor: Nr:Datum:Temp:Abs-Feuchte:Windchill:Wind:
Aussen-T/F 1201 26-09-2009 00:09:03 12.4 C 8.09 g/m*3 12.4 C 0 km/h
1202 26-09-2009 00:21:03 12.1 C 7.94 g/m*3 12.1 C 0 km/h
1203 26-09-2009 00:33:03 12.1 C 8.04 g/m*3 12.1 C 0 km/h
1204 26-09-2009 00:45:03 11.8 C 8.1 g/m*3 11.8 C 0 km/h
1205 26-09-2009 00:57:03 11.8 C 8.1 g/m*3 11.8 C 0 km/h
1206 26-09-2009 01:09:03 11.7 C 8.05 g/m*3 11.7 C 0 km/h
1207 26-09-2009 01:21:03 11.6 C 8.11 g/m*3 11.6 C 0 km/h
1208 26-09-2009 01:33:03 11.7 C 8.16 g/m*3 11.7 C 0 km/h
1209 26-09-2009 01:45:03 11.5 C 8.06 g/m*3 11.5 C 0 km/h
1210 26-09-2009 01:57:03 11.2 C 7.91 g/m*3 11.2 C 0 km/h
1211 26-09-2009 02:09:04 11.1 C 7.86 g/m*3 11.1 C 0 km/h
1212 26-09-2009 02:21:04 10.9 C 7.86 g/m*3 10.9 C 0 km/h
1213 26-09-2009 02:33:04 10.7 C 7.86 g/m*3 10.7 C 0 km/h
1214 26-09-2009 02:45:04 10.6 C 7.81 g/m*3 10.6 C 0 km/h
1215 26-09-2009 02:57:04 10.4 C 7.81 g/m*3 10.4 C 0 km/h
1216 26-09-2009 03:09:04 10.1 C 7.66 g/m*3 10.1 C 0 km/h
1217 26-09-2009 03:21:04 10 C 7.61 g/m*3 10 C 0 km/h
1218 26-09-2009 03:33:04 9.8 C 7.61 g/m*3 9.8 C 0 km/h
1219 26-09-2009 03:45:04 9.7 C 7.65 g/m*3 9.7 C 0 km/h
1220 26-09-2009 03:57:04 9.5 C 7.55 g/m*3 9.5 C 0 km/h
1221 26-09-2009 04:09:04 9.3 C 7.55 g/m*3 9.3 C 0 km/h
1222 26-09-2009 04:21:04 9.2 C 7.5 g/m*3 9.2 C 0 km/h
1223 26-09-2009 04:33:04 9.1 C 7.54 g/m*3 9.1 C 0 km/h
1224 26-09-2009 04:45:04 9 C 7.49 g/m*3 9 C 0 km/h
1225 26-09-2009 04:57:04 8.8 C 7.57 g/m*3 8.8 C 0 km/h
Sensor: Nr:Datum:Temp:Abs-Feuchte:Windchill:Wind:
Aussen-T/F 1226 26-09-2009 05:09:04 8.7 C 7.52 g/m*3 8.7 C 0 km/h
1227 26-09-2009 05:21:04 8.6 C 7.48 g/m*3 8.6 C 0 km/h
1228 26-09-2009 05:33:04 8.5 C 7.43 g/m*3 8.5 C 0 km/h
1229 26-09-2009 05:45:04 8.4 C 7.3 g/m*3 8.4 C 0 km/h
1230 26-09-2009 05:57:04 8.2 C 7.29 g/m*3 8.2 C 0 km/h
1231 26-09-2009 06:09:05 8 C 7.19 g/m*3 8 C 0 km/h
1232 26-09-2009 06:21:05 7.8 C 7.26 g/m*3 7.8 C 0 km/h
1233 26-09-2009 06:33:05 7.8 C 7.26 g/m*3 7.8 C 0 km/h
1234 26-09-2009 06:45:05 7.8 C 7.26 g/m*3 7.8 C 0 km/h
1235 26-09-2009 06:57:05 7.8 C 7.35 g/m*3 7.8 C 0 km/h
1236 26-09-2009 07:09:05 7.9 C 7.39 g/m*3 7.9 C 0 km/h
1237 26-09-2009 07:21:05 7.9 C 7.39 g/m*3 7.9 C 0 km/h
1238 26-09-2009 07:33:05 7.9 C 7.39 g/m*3 7.9 C 0 km/h
1239 26-09-2009 07:45:05 8.1 C 7.41 g/m*3 8.1 C 0 km/h
1240 26-09-2009 07:57:05 7.9 C 7.39 g/m*3 7.9 C 0 km/h
1241 26-09-2009 08:09:05 7.8 C 7.43 g/m*3 7.8 C 0 km/h
1242 26-09-2009 08:21:05 7.9 C 7.47 g/m*3 7.9 C 0 km/h
1243 26-09-2009 08:33:05 8 C 7.44 g/m*3 8 C 0 km/h
1244 26-09-2009 08:45:02 8.1 C 7.49 g/m*3 8.1 C 0 km/h
1245 26-09-2009 08:57:02 8.5 C 7.77 g/m*3 8.5 C 0 km/h
1246 26-09-2009 09:09:03 8.7 C 7.78 g/m*3 8.7 C 0 km/h
1247 26-09-2009 09:21:02 9.1 C 7.9 g/m*3 9.1 C 0 km/h
1248 26-09-2009 09:33:02 9.2 C 7.95 g/m*3 9.2 C 0 km/h
1249 26-09-2009 09:45:01 9.5 C 8.1 g/m*3 9.5 C 0 km/h
1250 26-09-2009 09:57:01 9.9 C 8.31 g/m*3 9.9 C 0 km/h
Sensor: Nr:Datum:Temp:Abs-Feuchte:Windchill:Wind:
Aussen-T/F 1251 26-09-2009 10:09:02 10.2 C 8.37 g/m*3 10.2 C 0 km/h
1252 26-09-2009 10:21:01 10.9 C 8.65 g/m*3 10.9 C 0 km/h
1253 26-09-2009 10:33:02 11.1 C 8.36 g/m*3 11.1 C 0 km/h
1254 26-09-2009 10:45:01 11.2 C 8.41 g/m*3 11.2 C 0 km/h
1255 26-09-2009 10:57:01 11.7 C 8.79 g/m*3 11.7 C 0 km/h
1256 26-09-2009 11:09:02 12.2 C 8.85 g/m*3 12.2 C 0 km/h
1257 26-09-2009 11:21:01 12.8 C 8.85 g/m*3 12.8 C 0 km/h
1258 26-09-2009 11:33:02 13.4 C 8.72 g/m*3 13.4 C 0 km/h
1259 26-09-2009 11:45:02 14.1 C 8.86 g/m*3 14.1 C 0 km/h
1260 26-09-2009 11:57:02 14.7 C 8.81 g/m*3 14.7 C 0 km/h
1261 26-09-2009 12:09:02 15.2 C 8.83 g/m*3 15.2 C 0 km/h
1262 26-09-2009 12:21:01 15.6 C 8.64 g/m*3 15.6 C 0 km/h
1263 26-09-2009 12:33:02 16.1 C 8.5 g/m*3 16.1 C 0 km/h
1264 26-09-2009 12:45:02 16.4 C 8.65 g/m*3 16.4 C 0 km/h
1265 26-09-2009 12:57:02 17.1 C 8.73 g/m*3 17.1 C 0 km/h
1266 26-09-2009 13:09:02 17.6 C 8.85 g/m*3 17.6 C 0 km/h
1267 26-09-2009 13:21:02 18.2 C 8.39 g/m*3 18.2 C 0 km/h
1268 26-09-2009 13:33:02 18.9 C 8.1 g/m*3 18.9 C 0 km/h
1269 26-09-2009 13:45:01 19.7 C 7.81 g/m*3 19.7 C 0 km/h
1270 26-09-2009 13:57:01 20.4 C 8.14 g/m*3 20.4 C 0 km/h
1271 26-09-2009 14:09:02 20.9 C 7.29 g/m*3 20.9 C 0 km/h
1272 26-09-2009 14:21:02 21.1 C 6.82 g/m*3 21.1 C 0 km/h
1273 26-09-2009 14:33:02 21.9 C 6.95 g/m*3 21.9 C 0 km/h
1274 26-09-2009 14:45:02 22.7 C 7.07 g/m*3 22.7 C 0 km/h
1275 26-09-2009 14:57:02 23 C 6.37 g/m*3 23 C 0 km/h
Sensor: Nr:Datum:Temp:Abs-Feuchte:Windchill:Wind:
Aussen-T/F 1276 26-09-2009 15:09:01 23.4 C 6.52 g/m*3 23.4 C 0 km/h
1277 26-09-2009 15:21:02 23.8 C 6.45 g/m*3 23.8 C 0 km/h
1278 26-09-2009 15:33:01 24.1 C 6.56 g/m*3 24.1 C 0 km/h
1279 26-09-2009 15:45:02 23.9 C 6.06 g/m*3 23.9 C 0 km/h
1280 26-09-2009 15:57:02 24 C 5.87 g/m*3 24 C 0 km/h
1281 26-09-2009 16:09:01 24.2 C 5.94 g/m*3 24.2 C 0 km/h
1282 26-09-2009 16:21:02 24.4 C 6.68 g/m*3 24.4 C 0 km/h
1283 26-09-2009 16:33:02 24.7 C 5.88 g/m*3 24.7 C 0 km/h
1284 26-09-2009 16:45:02 24.7 C 6.11 g/m*3 24.7 C 0 km/h
1285 26-09-2009 16:57:03 25.7 C 6.46 g/m*3 25.7 C 0 km/h
1286 26-09-2009 17:09:02 25.6 C 6.19 g/m*3 25.6 C 0 km/h
1287 26-09-2009 17:21:02 26 C 6.33 g/m*3 26 C 0 km/h
1288 26-09-2009 17:33:02 25.7 C 6.94 g/m*3 25.7 C 0 km/h
1289 26-09-2009 17:45:02 25.5 C 7.1 g/m*3 25.5 C 0 km/h
1290 26-09-2009 17:57:02 25 C 6.91 g/m*3 25 C 0 km/h
1291 26-09-2009 18:09:02 24.5 C 6.94 g/m*3 24.5 C 0 km/h
1292 26-09-2009 18:21:01 23.7 C 7.06 g/m*3 23.7 C 0 km/h
1293 26-09-2009 18:33:02 22.7 C 7.07 g/m*3 22.7 C 0 km/h
1294 26-09-2009 18:45:02 22 C 7.18 g/m*3 22 C 0 km/h
1295 26-09-2009 18:57:02 21.1 C 7.19 g/m*3 21.1 C 0 km/h
1296 26-09-2009 19:09:02 20 C 7.26 g/m*3 20 C 0 km/h
1297 26-09-2009 19:21:02 19.1 C 7.38 g/m*3 19.1 C 0 km/h
1298 26-09-2009 19:33:02 18.3 C 7.35 g/m*3 18.3 C 0 km/h
1299 26-09-2009 19:45:02 17.8 C 7.44 g/m*3 17.8 C 0 km/h
1300 26-09-2009 19:57:02 17.2 C 7.47 g/m*3 17.2 C 0 km/h
Sensor: Nr:Datum:Temp:Abs-Feuchte:Windchill:Wind:
Aussen-T/F 1301 26-09-2009 20:09:02 17.1 C 7.57 g/m*3 17.1 C 0 km/h
1302 26-09-2009 20:21:02 16.7 C 7.53 g/m*3 16.7 C 0 km/h
1303 26-09-2009 20:33:02 16.2 C 7.58 g/m*3 16.2 C 0 km/h
1304 26-09-2009 20:45:01 16 C 7.49 g/m*3 16 C 0 km/h
1305 26-09-2009 20:57:01 15.8 C 7.67 g/m*3 15.8 C 0 km/h
1306 26-09-2009 21:09:02 15.5 C 7.67 g/m*3 15.5 C 0 km/h
1307 26-09-2009 21:21:01 15.3 C 7.57 g/m*3 15.3 C 0 km/h
1308 26-09-2009 21:33:01 14.9 C 7.65 g/m*3 14.9 C 0 km/h
1309 26-09-2009 21:45:01 14.7 C 7.81 g/m*3 14.7 C 0 km/h
1310 26-09-2009 21:57:01 14.5 C 7.71 g/m*3 14.5 C 0 km/h
1311 26-09-2009 22:09:01 14.3 C 7.74 g/m*3 14.3 C 0 km/h
1312 26-09-2009 22:21:01 14 C 7.72 g/m*3 14 C 0 km/h
1313 26-09-2009 22:33:02 13.8 C 7.86 g/m*3 13.8 C 0 km/h
1314 26-09-2009 22:45:02 13.6 C 7.89 g/m*3 13.6 C 0 km/h
1315 26-09-2009 22:57:02 13.4 C 7.79 g/m*3 13.4 C 0 km/h
1316 26-09-2009 23:09:02 13.2 C 7.81 g/m*3 13.2 C 0 km/h
1317 26-09-2009 23:21:02 13 C 7.94 g/m*3 13 C 0 km/h
1318 26-09-2009 23:33:02 12.6 C 8.08 g/m*3 12.6 C 0 km/h
1319 26-09-2009 23:45:02 12.5 C 8.25 g/m*3 12.5 C 0 km/h
1320 26-09-2009 23:57:02 12.2 C 8.09 g/m*3 12.2 C 0 km/h
1321 27-09-2009 00:09:03 12.1 C 8.04 g/m*3 12.1 C 0 km/h
1322 27-09-2009 00:21:02 11.9 C 8.05 g/m*3 11.9 C 0 km/h
1323 27-09-2009 00:33:02 11.7 C 8.16 g/m*3 11.7 C 0 km/h
1324 27-09-2009 00:45:02 11.5 C 8.06 g/m*3 11.5 C 0 km/h
1325 27-09-2009 00:57:02 11.5 C 8.16 g/m*3 11.5 C 0 km/h
Sensor: Nr:Datum:Temp:Abs-Feuchte:Windchill:Wind:
Aussen-T/F 1326 27-09-2009 01:09:02 11.4 C 8.11 g/m*3 11.4 C 0 km/h
1327 27-09-2009 01:21:02 11.1 C 7.96 g/m*3 11.1 C 0 km/h
1328 27-09-2009 01:33:02 11.1 C 7.96 g/m*3 11.1 C 0 km/h
1329 27-09-2009 01:45:02 10.9 C 7.96 g/m*3 10.9 C 0 km/h
1330 27-09-2009 01:57:02 10.8 C 8.01 g/m*3 10.8 C 0 km/h
1331 27-09-2009 02:09:01 10.6 C 8 g/m*3 10.6 C 0 km/h
1332 27-09-2009 02:21:02 10.5 C 7.95 g/m*3 10.5 C 0 km/h
1333 27-09-2009 02:33:02 10.4 C 7.9 g/m*3 10.4 C 0 km/h
1334 27-09-2009 02:45:01 10.2 C 7.8 g/m*3 10.2 C 0 km/h
1335 27-09-2009 02:57:01 10.1 C 7.75 g/m*3 10.1 C 0 km/h
1336 27-09-2009 03:09:01 9.9 C 7.75 g/m*3 9.9 C 0 km/h
1337 27-09-2009 03:21:01 9.8 C 7.7 g/m*3 9.8 C 0 km/h
1338 27-09-2009 03:33:01 9.7 C 7.65 g/m*3 9.7 C 0 km/h
1339 27-09-2009 03:45:01 9.6 C 7.69 g/m*3 9.6 C 0 km/h
1340 27-09-2009 03:57:02 9.5 C 7.65 g/m*3 9.5 C 0 km/h
1341 27-09-2009 04:09:01 9.3 C 7.55 g/m*3 9.3 C 0 km/h
1342 27-09-2009 04:21:01 9.3 C 7.55 g/m*3 9.3 C 0 km/h
1343 27-09-2009 04:33:02 9.2 C 7.5 g/m*3 9.2 C 0 km/h
1344 27-09-2009 04:45:01 9 C 7.41 g/m*3 9 C 0 km/h
1345 27-09-2009 04:57:01 8.9 C 7.45 g/m*3 8.9 C 0 km/h
1346 27-09-2009 05:09:02 8.8 C 7.4 g/m*3 8.8 C 0 km/h
1347 27-09-2009 05:21:01 8.6 C 7.3 g/m*3 8.6 C 0 km/h
1348 27-09-2009 05:33:02 8.5 C 7.34 g/m*3 8.5 C 0 km/h
1349 27-09-2009 05:45:01 8.5 C 7.43 g/m*3 8.5 C 0 km/h
1350 27-09-2009 05:57:01 8.6 C 7.48 g/m*3 8.6 C 0 km/h
Sensor: Nr:Datum:Temp:Abs-Feuchte:Windchill:Wind:
Aussen-T/F 1351 27-09-2009 06:09:02 8.6 C 7.56 g/m*3 8.6 C 0 km/h
1352 27-09-2009 06:21:01 8.6 C 7.56 g/m*3 8.6 C 0 km/h
1353 27-09-2009 06:33:01 8.7 C 7.7 g/m*3 8.7 C 0 km/h
1354 27-09-2009 06:45:01 8.9 C 7.8 g/m*3 8.9 C 0 km/h
1355 27-09-2009 06:57:01 8.8 C 7.66 g/m*3 8.8 C 0 km/h
1356 27-09-2009 07:09:02 8.8 C 7.66 g/m*3 8.8 C 0 km/h
1357 27-09-2009 07:21:01 8.7 C 7.61 g/m*3 8.7 C 0 km/h
1358 27-09-2009 07:33:01 8.8 C 7.66 g/m*3 8.8 C 0 km/h
1359 27-09-2009 07:45:01 8.8 C 7.57 g/m*3 8.8 C 0 km/h
1360 27-09-2009 07:57:01 8.5 C 7.43 g/m*3 8.5 C 0 km/h
1361 27-09-2009 08:09:01 8.5 C 7.51 g/m*3 8.5 C 0 km/h
1362 27-09-2009 08:21:01 8.5 C 7.51 g/m*3 8.5 C 0 km/h
1363 27-09-2009 08:33:01 8.3 C 7.42 g/m*3 8.3 C 0 km/h
1364 27-09-2009 08:45:01 8.5 C 7.6 g/m*3 8.5 C 0 km/h
1365 27-09-2009 08:57:01 8.7 C 7.7 g/m*3 8.7 C 0 km/h
1366 27-09-2009 09:09:01 8.8 C 7.66 g/m*3 8.8 C 0 km/h
1367 27-09-2009 09:21:02 8.9 C 7.71 g/m*3 8.9 C 0 km/h
1368 27-09-2009 09:33:01 9.3 C 7.73 g/m*3 9.3 C 0 km/h
1369 27-09-2009 09:45:02 9.4 C 7.69 g/m*3 9.4 C 0 km/h
1370 27-09-2009 09:57:02 9.7 C 7.74 g/m*3 9.7 C 0 km/h
1371 27-09-2009 10:09:01 10.3 C 7.95 g/m*3 10.3 C 0 km/h
1372 27-09-2009 10:21:02 11 C 8.11 g/m*3 11 C 0 km/h
1373 27-09-2009 10:33:01 11.5 C 8.06 g/m*3 11.5 C 0 km/h
1374 27-09-2009 10:45:02 11.9 C 8.05 g/m*3 11.9 C 0 km/h
1375 27-09-2009 10:57:02 12.5 C 8.14 g/m*3 12.5 C 0 km/h
Sensor: Nr:Datum:Temp:Abs-Feuchte:Windchill:Wind:
Aussen-T/F 1376 27-09-2009 11:09:01 12.6 C 7.97 g/m*3 12.6 C 0 km/h
1377 27-09-2009 11:21:02 13 C 8.05 g/m*3 13 C 0 km/h
1378 27-09-2009 11:33:01 13.1 C 8.1 g/m*3 13.1 C 0 km/h
1379 27-09-2009 11:45:02 13 C 8.28 g/m*3 13 C 0 km/h
1380 27-09-2009 11:57:02 13.3 C 8.55 g/m*3 13.3 C 0 km/h
1381 27-09-2009 12:09:01 13.8 C 8.7 g/m*3 13.8 C 0 km/h
1382 27-09-2009 12:21:01 14.4 C 8.65 g/m*3 14.4 C 0 km/h
1383 27-09-2009 12:33:02 15 C 8.85 g/m*3 15 C 0 km/h
1384 27-09-2009 12:45:02 15.8 C 8.75 g/m*3 15.8 C 0 km/h
1385 27-09-2009 12:57:02 16.4 C 8.79 g/m*3 16.4 C 0 km/h
1386 27-09-2009 13:09:01 17.1 C 8.59 g/m*3 17.1 C 0 km/h
1387 27-09-2009 13:21:01 18.2 C 8.7 g/m*3 18.2 C 0 km/h
1388 27-09-2009 13:33:02 18.9 C 8.42 g/m*3 18.9 C 0 km/h
1389 27-09-2009 13:45:01 19.3 C 8.79 g/m*3 19.3 C 0 km/h
1390 27-09-2009 13:57:01 20.3 C 8.27 g/m*3 20.3 C 0 km/h
1391 27-09-2009 14:09:01 21.1 C 8.29 g/m*3 21.1 C 0 km/h
1392 27-09-2009 14:21:01 22 C 7.96 g/m*3 22 C 0 km/h
1393 27-09-2009 14:33:02 22.3 C 8.29 g/m*3 22.3 C 0 km/h
1394 27-09-2009 14:45:01 22.8 C 8.13 g/m*3 22.8 C 0 km/h
1395 27-09-2009 14:57:01 23.3 C 7.74 g/m*3 23.3 C 0 km/h
1396 27-09-2009 15:09:02 23.8 C 8.17 g/m*3 23.8 C 0 km/h
1397 27-09-2009 15:21:01 24 C 6.53 g/m*3 24 C 0 km/h
1398 27-09-2009 15:33:02 24.5 C 7.39 g/m*3 24.5 C 0 km/h
1399 27-09-2009 15:45:01 25 C 6.68 g/m*3 25 C 0 km/h
1400 27-09-2009 15:57:01 25.4 C 7.06 g/m*3 25.4 C 0 km/h
Sensor: Nr:Datum:Temp:Abs-Feuchte:Windchill:Wind:
Aussen-T/F 1401 27-09-2009 16:09:02 25.7 C 7.18 g/m*3 25.7 C 0 km/h
1402 27-09-2009 16:21:01 26 C 7.06 g/m*3 26 C 0 km/h
1403 27-09-2009 16:33:01 25.9 C 7.02 g/m*3 25.9 C 0 km/h
1404 27-09-2009 16:45:01 26.1 C 6.85 g/m*3 26.1 C 0 km/h
1405 27-09-2009 16:57:01 26.2 C 6.65 g/m*3 26.2 C 0 km/h
1406 27-09-2009 17:09:01 26.4 C 6.97 g/m*3 26.4 C 0 km/h
1407 27-09-2009 17:21:01 26.4 C 6.47 g/m*3 26.4 C 0 km/h
1408 27-09-2009 17:33:01 26.2 C 6.65 g/m*3 26.2 C 0 km/h
1409 27-09-2009 17:45:01 25.1 C 6.71 g/m*3 25.1 C 0 km/h
1410 27-09-2009 17:57:01 24.4 C 6.45 g/m*3 24.4 C 0 km/h
1411 27-09-2009 18:09:01 23.9 C 6.49 g/m*3 23.9 C 0 km/h
1412 27-09-2009 18:21:02 23.2 C 6.44 g/m*3 23.2 C 0 km/h
1413 27-09-2009 18:33:01 22.3 C 6.52 g/m*3 22.3 C 0 km/h
1414 27-09-2009 18:45:02 21.5 C 6.6 g/m*3 21.5 C 0 km/h
1415 27-09-2009 18:57:02 20.3 C 6.86 g/m*3 20.3 C 0 km/h
1416 27-09-2009 19:09:01 19.4 C 7.01 g/m*3 19.4 C 0 km/h
1417 27-09-2009 19:21:02 18.7 C 7.04 g/m*3 18.7 C 0 km/h
1418 27-09-2009 19:33:02 18.2 C 6.99 g/m*3 18.2 C 0 km/h
1419 27-09-2009 19:45:01 17.9 C 7.18 g/m*3 17.9 C 0 km/h
1420 27-09-2009 19:57:01 17.3 C 7.22 g/m*3 17.3 C 0 km/h
1421 27-09-2009 20:09:01 16.9 C 7.34 g/m*3 16.9 C 0 km/h
1422 27-09-2009 20:21:02 16.6 C 7.35 g/m*3 16.6 C 0 km/h
1423 27-09-2009 20:33:01 16.3 C 7.49 g/m*3 16.3 C 0 km/h
1424 27-09-2009 20:45:01 16.2 C 7.45 g/m*3 16.2 C 0 km/h
1425 27-09-2009 20:57:01 16.1 C 7.4 g/m*3 16.1 C 0 km/h
Sensor: Nr:Datum:Temp:Abs-Feuchte:Windchill:Wind:
Aussen-T/F 1426 27-09-2009 21:09:01 15.8 C 7.54 g/m*3 15.8 C 0 km/h
1427 27-09-2009 21:21:02 15.5 C 7.67 g/m*3 15.5 C 0 km/h
1428 27-09-2009 21:33:01 15.2 C 7.53 g/m*3 15.2 C 0 km/h
1429 27-09-2009 21:45:02 14.9 C 7.77 g/m*3 14.9 C 0 km/h
1430 27-09-2009 21:57:02 14.7 C 7.81 g/m*3 14.7 C 0 km/h
1431 27-09-2009 22:09:01 14.5 C 7.84 g/m*3 14.5 C 0 km/h
1432 27-09-2009 22:21:02 14 C 7.72 g/m*3 14 C 0 km/h
1433 27-09-2009 22:33:01 13.8 C 7.86 g/m*3 13.8 C 0 km/h
1434 27-09-2009 22:45:01 13.7 C 7.93 g/m*3 13.7 C 0 km/h
1435 27-09-2009 22:57:01 13.3 C 7.97 g/m*3 13.3 C 0 km/h
1436 27-09-2009 23:09:01 12.9 C 8.11 g/m*3 12.9 C 0 km/h
1437 27-09-2009 23:21:02 12.9 C 8.11 g/m*3 12.9 C 0 km/h
1438 27-09-2009 23:33:01 12.8 C 8.06 g/m*3 12.8 C 0 km/h
1439 27-09-2009 23:45:02 12.7 C 8.01 g/m*3 12.7 C 0 km/h
1440 27-09-2009 23:57:02 12.5 C 7.92 g/m*3 12.5 C 0 km/h
1441 28-09-2009 00:09:01 12.5 C 8.14 g/m*3 12.5 C 0 km/h
1442 28-09-2009 00:21:02 12.3 C 8.04 g/m*3 12.3 C 0 km/h
1443 28-09-2009 00:33:01 12.1 C 8.04 g/m*3 12.1 C 0 km/h
1444 28-09-2009 00:45:02 11.8 C 8 g/m*3 11.8 C 0 km/h
1445 28-09-2009 00:57:02 11.6 C 8 g/m*3 11.6 C 0 km/h
1446 28-09-2009 01:09:01 11.5 C 7.95 g/m*3 11.5 C 0 km/h
1447 28-09-2009 01:21:02 11.4 C 8.01 g/m*3 11.4 C 0 km/h
1448 28-09-2009 01:33:01 11.3 C 7.96 g/m*3 11.3 C 0 km/h
1449 28-09-2009 01:45:02 11.2 C 7.91 g/m*3 11.2 C 0 km/h
1450 28-09-2009 01:57:02 11.1 C 7.96 g/m*3 11.1 C 0 km/h
Sensor: Nr:Datum:Temp:Abs-Feuchte:Windchill:Wind:
Aussen-T/F 1451 28-09-2009 02:09:01 11 C 7.91 g/m*3 11 C 0 km/h
1452 28-09-2009 02:21:02 10.8 C 7.91 g/m*3 10.8 C 0 km/h
1453 28-09-2009 02:33:01 10.8 C 7.91 g/m*3 10.8 C 0 km/h
1454 28-09-2009 02:46:06 10.6 C 7.91 g/m*3 10.6 C 0 km/h
1455 28-09-2009 02:58:06 10.5 C 7.95 g/m*3 10.5 C 0 km/h
1456 28-09-2009 03:10:06 10.4 C 7.9 g/m*3 10.4 C 0 km/h
1457 28-09-2009 03:22:06 10.2 C 7.9 g/m*3 10.2 C 0 km/h
1458 28-09-2009 03:34:01 10 C 7.8 g/m*3 10 C 0 km/h
1459 28-09-2009 03:46:01 9.9 C 7.94 g/m*3 9.9 C 0 km/h
1460 28-09-2009 03:58:01 9.8 C 7.89 g/m*3 9.8 C 0 km/h
1461 28-09-2009 04:10:02 9.7 C 7.93 g/m*3 9.7 C 0 km/h
1462 28-09-2009 04:22:02 9.7 C 7.93 g/m*3 9.7 C 0 km/h
1463 28-09-2009 04:34:02 9.5 C 7.83 g/m*3 9.5 C 0 km/h
1464 28-09-2009 04:46:01 9.4 C 7.78 g/m*3 9.4 C 0 km/h
1465 28-09-2009 04:58:01 9.3 C 7.73 g/m*3 9.3 C 0 km/h
1466 28-09-2009 05:10:02 9.2 C 7.68 g/m*3 9.2 C 0 km/h
1467 28-09-2009 05:22:02 9 C 7.58 g/m*3 9 C 0 km/h
1468 28-09-2009 05:34:01 8.9 C 7.62 g/m*3 8.9 C 0 km/h
1469 28-09-2009 05:46:02 8.9 C 7.71 g/m*3 8.9 C 0 km/h
1470 28-09-2009 05:58:02 8.7 C 7.61 g/m*3 8.7 C 0 km/h
1471 28-09-2009 06:10:01 8.7 C 7.61 g/m*3 8.7 C 0 km/h
1472 28-09-2009 06:22:02 8.7 C 7.61 g/m*3 8.7 C 0 km/h
1473 28-09-2009 06:34:01 8.5 C 7.51 g/m*3 8.5 C 0 km/h
1474 28-09-2009 06:46:02 8.5 C 7.51 g/m*3 8.5 C 0 km/h
1475 28-09-2009 06:58:02 8.4 C 7.47 g/m*3 8.4 C 0 km/h
Sensor: Nr:Datum:Temp:Abs-Feuchte:Windchill:Wind:
Aussen-T/F 1476 28-09-2009 07:10:02 8.2 C 7.37 g/m*3 8.2 C 0 km/h
1477 28-09-2009 07:22:02 8.2 C 7.45 g/m*3 8.2 C 0 km/h
1478 28-09-2009 07:34:03 8 C 7.36 g/m*3 8 C 0 km/h
1479 28-09-2009 07:46:02 8 C 7.36 g/m*3 8 C 0 km/h
1480 28-09-2009 07:58:03 8 C 7.36 g/m*3 8 C 0 km/h
1481 28-09-2009 08:10:01 8 C 7.36 g/m*3 8 C 0 km/h
1482 28-09-2009 08:22:02 8 C 7.36 g/m*3 8 C 0 km/h
1483 28-09-2009 08:34:02 8.1 C 7.41 g/m*3 8.1 C 0 km/h
1484 28-09-2009 08:46:02 8.4 C 7.55 g/m*3 8.4 C 0 km/h
1485 28-09-2009 08:58:02 8.3 C 7.5 g/m*3 8.3 C 0 km/h
1486 28-09-2009 09:10:03 8.6 C 7.73 g/m*3 8.6 C 0 km/h
1487 28-09-2009 09:22:02 8.9 C 7.88 g/m*3 8.9 C 0 km/h
1488 28-09-2009 09:34:01 9.4 C 8.05 g/m*3 9.4 C 0 km/h
1489 28-09-2009 09:46:02 9.4 C 7.87 g/m*3 9.4 C 0 km/h
1490 28-09-2009 09:58:02 9.6 C 7.88 g/m*3 9.6 C 0 km/h
1491 28-09-2009 10:10:01 10 C 7.89 g/m*3 10 C 0 km/h
1492 28-09-2009 10:22:02 10.4 C 8 g/m*3 10.4 C 0 km/h
1493 28-09-2009 10:34:01 10.4 C 7.9 g/m*3 10.4 C 0 km/h
1494 28-09-2009 10:46:02 11.2 C 8.21 g/m*3 11.2 C 0 km/h
1495 28-09-2009 10:58:02 12.1 C 8.47 g/m*3 12.1 C 0 km/h
1496 28-09-2009 11:10:02 12.7 C 8.46 g/m*3 12.7 C 0 km/h
1497 28-09-2009 11:22:02 13.5 C 8.54 g/m*3 13.5 C 0 km/h
1498 28-09-2009 11:34:03 14.1 C 8.37 g/m*3 14.1 C 0 km/h
1499 28-09-2009 11:46:02 14.8 C 8.36 g/m*3 14.8 C 0 km/h
1500 28-09-2009 11:58:02 15.8 C 8.21 g/m*3 15.8 C 0 km/h
Sensor: Nr:Datum:Temp:Abs-Feuchte:Windchill:Wind:
Aussen-T/F 1501 28-09-2009 12:10:01 16.2 C 8 g/m*3 16.2 C 0 km/h
1502 28-09-2009 12:22:02 16.4 C 8.23 g/m*3 16.4 C 0 km/h
1503 28-09-2009 12:34:02 16.9 C 8.2 g/m*3 16.9 C 0 km/h
1504 28-09-2009 12:46:02 17.4 C 8.3 g/m*3 17.4 C 0 km/h
1505 28-09-2009 12:58:02 18.1 C 8.19 g/m*3 18.1 C 0 km/h
1506 28-09-2009 13:10:02 18.5 C 8.23 g/m*3 18.5 C 0 km/h
1507 28-09-2009 13:22:02 18.9 C 8.26 g/m*3 18.9 C 0 km/h
1508 28-09-2009 13:34:02 19.2 C 8.08 g/m*3 19.2 C 0 km/h
1509 28-09-2009 13:46:01 19.8 C 8.2 g/m*3 19.8 C 0 km/h
1510 28-09-2009 13:58:01 20.8 C 8.15 g/m*3 20.8 C 0 km/h
1511 28-09-2009 14:10:02 21.2 C 7.6 g/m*3 21.2 C 0 km/h
1512 28-09-2009 14:22:01 21 C 7.69 g/m*3 21 C 0 km/h
1513 28-09-2009 14:34:01 20.6 C 7.87 g/m*3 20.6 C 0 km/h
1514 28-09-2009 14:46:01 20.6 C 8.23 g/m*3 20.6 C 0 km/h
1515 28-09-2009 14:58:01 21.4 C 7.87 g/m*3 21.4 C 0 km/h
1516 28-09-2009 15:10:02 22 C 7.57 g/m*3 22 C 0 km/h
1517 28-09-2009 15:22:01 22 C 7.76 g/m*3 22 C 0 km/h
1518 28-09-2009 15:34:01 21.6 C 7.78 g/m*3 21.6 C 0 km/h
1519 28-09-2009 15:46:01 22.5 C 7.99 g/m*3 22.5 C 0 km/h
1520 28-09-2009 15:58:01 22.6 C 7.83 g/m*3 22.6 C 0 km/h
1521 28-09-2009 16:10:02 22.8 C 7.72 g/m*3 22.8 C 0 km/h
1522 28-09-2009 16:22:01 23 C 7.6 g/m*3 23 C 0 km/h
1523 28-09-2009 16:34:01 23.5 C 7.61 g/m*3 23.5 C 0 km/h
1524 28-09-2009 16:46:01 22.8 C 7.32 g/m*3 22.8 C 0 km/h
1525 28-09-2009 16:58:01 22.7 C 8.08 g/m*3 22.7 C 0 km/h
Sensor: Nr:Datum:Temp:Abs-Feuchte:Windchill:Wind:
Aussen-T/F 1526 28-09-2009 17:10:01 22.5 C 7.99 g/m*3 22.5 C 0 km/h
1527 28-09-2009 17:22:02 21.9 C 8.1 g/m*3 21.9 C 0 km/h
1528 28-09-2009 17:34:01 22.1 C 7.81 g/m*3 22.1 C 0 km/h
1529 28-09-2009 17:46:03 21.9 C 8.1 g/m*3 21.9 C 0 km/h
1530 28-09-2009 17:58:03 20.8 C 8.33 g/m*3 20.8 C 0 km/h
1531 28-09-2009 18:10:02 19.8 C 8.37 g/m*3 19.8 C 0 km/h
1532 28-09-2009 18:22:02 19.2 C 8.41 g/m*3 19.2 C 0 km/h
1533 28-09-2009 18:34:02 18.7 C 8.65 g/m*3 18.7 C 0 km/h
1534 28-09-2009 18:46:02 18.3 C 8.76 g/m*3 18.3 C 0 km/h
1535 28-09-2009 18:58:02 18.1 C 8.81 g/m*3 18.1 C 0 km/h
1536 28-09-2009 19:10:02 17.8 C 8.95 g/m*3 17.8 C 0 km/h
1537 28-09-2009 19:22:02 17.3 C 8.84 g/m*3 17.3 C 0 km/h
1538 28-09-2009 19:34:01 17 C 8.83 g/m*3 17 C 0 km/h
1539 28-09-2009 19:46:02 16.6 C 8.9 g/m*3 16.6 C 0 km/h
1540 28-09-2009 19:58:02 16.3 C 8.88 g/m*3 16.3 C 0 km/h
1541 28-09-2009 20:10:01 16.1 C 9.05 g/m*3 16.1 C 0 km/h
1542 28-09-2009 20:22:02 15.8 C 9.15 g/m*3 15.8 C 0 km/h
1543 28-09-2009 20:34:02 15.6 C 9.04 g/m*3 15.6 C 0 km/h
1544 28-09-2009 20:46:02 15.6 C 9.18 g/m*3 15.6 C 0 km/h
1545 28-09-2009 20:58:02 15.4 C 9.07 g/m*3 15.4 C 0 km/h
1546 28-09-2009 21:10:02 15.3 C 9.01 g/m*3 15.3 C 0 km/h
1547 28-09-2009 21:22:02 15.3 C 9.01 g/m*3 15.3 C 0 km/h
1548 28-09-2009 21:34:02 15.2 C 8.96 g/m*3 15.2 C 0 km/h
1549 28-09-2009 21:46:01 15.2 C 8.96 g/m*3 15.2 C 0 km/h
1550 28-09-2009 21:58:01 14.8 C 8.99 g/m*3 14.8 C 0 km/h
Sensor: Nr:Datum:Temp:Abs-Feuchte:Windchill:Wind:
Aussen-T/F 1551 28-09-2009 22:11:02 14.6 C 9.01 g/m*3 14.6 C 0 km/h
1552 28-09-2009 22:23:02 14.5 C 8.95 g/m*3 14.5 C 0 km/h
1553 28-09-2009 22:35:02 14.5 C 8.95 g/m*3 14.5 C 0 km/h
1554 28-09-2009 22:47:02 14 C 8.81 g/m*3 14 C 0 km/h
1555 28-09-2009 22:59:02 13.9 C 8.99 g/m*3 13.9 C 0 km/h
1556 28-09-2009 23:11:02 14 C 9.17 g/m*3 14 C 0 km/h
1557 28-09-2009 23:23:02 14.2 C 9.4 g/m*3 14.2 C 0 km/h
1558 28-09-2009 23:35:02 14.5 C 9.33 g/m*3 14.5 C 0 km/h
1559 28-09-2009 23:47:02 14.2 C 9.28 g/m*3 14.2 C 0 km/h
1560 28-09-2009 23:59:02 14.4 C 9.39 g/m*3 14.4 C 0 km/h
1561 29-09-2009 00:11:02 14.5 C 9.33 g/m*3 14.5 C 0 km/h
1562 29-09-2009 00:23:02 14.7 C 9.32 g/m*3 14.7 C 0 km/h
1563 29-09-2009 00:35:03 14.7 C 9.32 g/m*3 14.7 C 0 km/h
1564 29-09-2009 00:47:03 14.7 C 9.19 g/m*3 14.7 C 0 km/h
1565 29-09-2009 00:59:03 14.6 C 9.13 g/m*3 14.6 C 0 km/h
1566 29-09-2009 01:11:03 14.6 C 9.13 g/m*3 14.6 C 0 km/h
1567 29-09-2009 01:23:03 14.6 C 9.13 g/m*3 14.6 C 0 km/h
1568 29-09-2009 01:35:03 14.6 C 9.13 g/m*3 14.6 C 0 km/h
1569 29-09-2009 01:47:03 14.7 C 9.19 g/m*3 14.7 C 0 km/h
1570 29-09-2009 01:59:03 14.6 C 9.26 g/m*3 14.6 C 0 km/h
1571 29-09-2009 02:11:03 14.7 C 9.32 g/m*3 14.7 C 0 km/h
1572 29-09-2009 02:23:03 14.7 C 9.32 g/m*3 14.7 C 0 km/h
1573 29-09-2009 02:35:03 14.8 C 9.12 g/m*3 14.8 C 0 km/h
1574 29-09-2009 02:47:03 15 C 8.85 g/m*3 15 C 0 km/h
1575 29-09-2009 02:59:03 15.1 C 8.77 g/m*3 15.1 C 0 km/h
Sensor: Nr:Datum:Temp:Abs-Feuchte:Windchill:Wind:
Aussen-T/F 1576 29-09-2009 03:11:03 15.2 C 8.7 g/m*3 15.2 C 0 km/h
1577 29-09-2009 03:23:03 15.2 C 8.44 g/m*3 15.2 C 0 km/h
1578 29-09-2009 03:35:03 15.2 C 8.44 g/m*3 15.2 C 0 km/h
1579 29-09-2009 03:47:03 15.2 C 8.31 g/m*3 15.2 C 0 km/h
1580 29-09-2009 03:59:03 15.2 C 8.18 g/m*3 15.2 C 0 km/h
1581 29-09-2009 04:11:03 15.2 C 8.05 g/m*3 15.2 C 0 km/h
1582 29-09-2009 04:23:04 15.2 C 8.05 g/m*3 15.2 C 0 km/h
1583 29-09-2009 04:35:04 15 C 7.95 g/m*3 15 C 0 km/h
1584 29-09-2009 04:47:04 14.9 C 8.03 g/m*3 14.9 C 0 km/h
1585 29-09-2009 04:59:04 14.9 C 7.9 g/m*3 14.9 C 0 km/h
1586 29-09-2009 05:11:04 14.9 C 7.9 g/m*3 14.9 C 0 km/h
1587 29-09-2009 05:23:04 14.7 C 7.68 g/m*3 14.7 C 0 km/h
1588 29-09-2009 05:35:04 14.2 C 7.57 g/m*3 14.2 C 0 km/h
1589 29-09-2009 05:47:04 13.9 C 7.79 g/m*3 13.9 C 0 km/h
1590 29-09-2009 05:59:04 13.7 C 7.82 g/m*3 13.7 C 0 km/h
1591 29-09-2009 06:11:04 13.4 C 7.79 g/m*3 13.4 C 0 km/h
1592 29-09-2009 06:23:04 13.2 C 7.92 g/m*3 13.2 C 0 km/h
1593 29-09-2009 06:35:04 13 C 7.94 g/m*3 13 C 0 km/h
1594 29-09-2009 06:47:04 13.1 C 7.87 g/m*3 13.1 C 0 km/h
1595 29-09-2009 06:59:04 13.2 C 7.81 g/m*3 13.2 C 0 km/h
1596 29-09-2009 07:11:02 13.4 C 7.9 g/m*3 13.4 C 0 km/h
1597 29-09-2009 07:23:02 13.4 C 7.9 g/m*3 13.4 C 0 km/h
1598 29-09-2009 07:35:02 13.5 C 7.95 g/m*3 13.5 C 0 km/h
1599 29-09-2009 07:47:01 13.4 C 8.02 g/m*3 13.4 C 0 km/h
1600 29-09-2009 07:59:01 13.6 C 7.89 g/m*3 13.6 C 0 km/h
Sensor: Nr:Datum:Temp:Abs-Feuchte:Windchill:Wind:
Aussen-T/F 1601 29-09-2009 08:11:02 13.6 C 7.89 g/m*3 13.6 C 0 km/h
1602 29-09-2009 08:23:01 13.6 C 7.89 g/m*3 13.6 C 0 km/h
1603 29-09-2009 08:35:01 13.8 C 7.98 g/m*3 13.8 C 0 km/h
1604 29-09-2009 08:47:01 14 C 7.84 g/m*3 14 C 0 km/h
1605 29-09-2009 08:59:01 14 C 7.96 g/m*3 14 C 0 km/h
1606 29-09-2009 09:11:01 14.2 C 7.94 g/m*3 14.2 C 0 km/h
1607 29-09-2009 09:23:02 14.6 C 8.13 g/m*3 14.6 C 0 km/h
1608 29-09-2009 09:35:01 14.7 C 8.06 g/m*3 14.7 C 0 km/h
1609 29-09-2009 09:47:03 14.7 C 8.06 g/m*3 14.7 C 0 km/h
1610 29-09-2009 09:59:03 15 C 8.21 g/m*3 15 C 0 km/h
1611 29-09-2009 10:11:02 15 C 8.08 g/m*3 15 C 0 km/h
1612 29-09-2009 10:23:03 15 C 8.08 g/m*3 15 C 0 km/h
1613 29-09-2009 10:35:02 15.2 C 8.18 g/m*3 15.2 C 0 km/h
1614 29-09-2009 10:47:02 15.1 C 8.13 g/m*3 15.1 C 0 km/h
1615 29-09-2009 10:59:02 15.3 C 8.23 g/m*3 15.3 C 0 km/h
1616 29-09-2009 11:11:02 15.3 C 8.23 g/m*3 15.3 C 0 km/h
1617 29-09-2009 11:23:02 15.4 C 8.41 g/m*3 15.4 C 0 km/h
1618 29-09-2009 11:35:02 15.3 C 8.49 g/m*3 15.3 C 0 km/h
1619 29-09-2009 11:47:02 15.6 C 8.64 g/m*3 15.6 C 0 km/h
1620 29-09-2009 11:59:02 15.7 C 8.7 g/m*3 15.7 C 0 km/h
1621 29-09-2009 12:11:01 16.1 C 8.64 g/m*3 16.1 C 0 km/h
1622 29-09-2009 12:23:02 16.2 C 8.41 g/m*3 16.2 C 0 km/h
1623 29-09-2009 12:35:02 16.6 C 8.48 g/m*3 16.6 C 0 km/h
1624 29-09-2009 12:47:02 17 C 8.39 g/m*3 17 C 0 km/h
1625 29-09-2009 12:59:02 17.5 C 8.2 g/m*3 17.5 C 0 km/h
Sensor: Nr:Datum:Temp:Abs-Feuchte:Windchill:Wind:
Aussen-T/F 1626 29-09-2009 13:11:02 17.8 C 8.35 g/m*3 17.8 C 0 km/h
1627 29-09-2009 13:23:02 17.7 C 8.45 g/m*3 17.7 C 0 km/h
1628 29-09-2009 13:35:02 17.9 C 8.7 g/m*3 17.9 C 0 km/h
1629 29-09-2009 13:47:02 18.7 C 8.33 g/m*3 18.7 C 0 km/h
1630 29-09-2009 13:59:02 18.6 C 8.44 g/m*3 18.6 C 0 km/h
1631 29-09-2009 14:11:02 18.5 C 8.39 g/m*3 18.5 C 0 km/h
1632 29-09-2009 14:23:01 18.6 C 8.59 g/m*3 18.6 C 0 km/h
1633 29-09-2009 14:35:02 18.3 C 8.44 g/m*3 18.3 C 0 km/h
1634 29-09-2009 14:47:02 18.4 C 8.34 g/m*3 18.4 C 0 km/h
1635 29-09-2009 14:59:02 18.1 C 8.34 g/m*3 18.1 C 0 km/h
1636 29-09-2009 15:11:02 18.1 C 8.34 g/m*3 18.1 C 0 km/h
1637 29-09-2009 15:23:02 18.2 C 8.55 g/m*3 18.2 C 0 km/h
1638 29-09-2009 15:35:02 18 C 8.45 g/m*3 18 C 0 km/h
1639 29-09-2009 15:47:02 17.8 C 8.5 g/m*3 17.8 C 0 km/h
1640 29-09-2009 15:59:02 17.6 C 8.85 g/m*3 17.6 C 0 km/h
1641 29-09-2009 16:11:02 17.6 C 8.7 g/m*3 17.6 C 0 km/h
1642 29-09-2009 16:23:02 17.8 C 8.65 g/m*3 17.8 C 0 km/h
1643 29-09-2009 16:35:02 17.6 C 8.85 g/m*3 17.6 C 0 km/h
1644 29-09-2009 16:47:02 17.5 C 9.09 g/m*3 17.5 C 0 km/h
1645 29-09-2009 16:59:02 17.7 C 9.05 g/m*3 17.7 C 0 km/h
1646 29-09-2009 17:11:02 17.9 C 8.86 g/m*3 17.9 C 0 km/h
1647 29-09-2009 17:23:02 18 C 9.06 g/m*3 18 C 0 km/h
1648 29-09-2009 17:35:02 17.7 C 9.05 g/m*3 17.7 C 0 km/h
1649 29-09-2009 17:47:02 17.5 C 9.09 g/m*3 17.5 C 0 km/h
1650 29-09-2009 17:59:02 17.4 C 9.04 g/m*3 17.4 C 0 km/h
Sensor: Nr:Datum:Temp:Abs-Feuchte:Windchill:Wind:
Aussen-T/F 1651 29-09-2009 18:11:02 17.3 C 8.99 g/m*3 17.3 C 0 km/h
1652 29-09-2009 18:23:03 17.3 C 8.84 g/m*3 17.3 C 0 km/h
1653 29-09-2009 18:35:02 17.2 C 8.93 g/m*3 17.2 C 0 km/h
1654 29-09-2009 18:47:02 17.2 C 9.08 g/m*3 17.2 C 0 km/h
1655 29-09-2009 18:59:02 17.3 C 9.13 g/m*3 17.3 C 0 km/h
1656 29-09-2009 19:11:02 17.1 C 8.88 g/m*3 17.1 C 0 km/h
1657 29-09-2009 19:23:03 17.2 C 8.93 g/m*3 17.2 C 0 km/h
1658 29-09-2009 19:35:02 17.2 C 8.93 g/m*3 17.2 C 0 km/h
1659 29-09-2009 19:47:02 17.2 C 8.79 g/m*3 17.2 C 0 km/h
1660 29-09-2009 19:59:02 17 C 8.83 g/m*3 17 C 0 km/h
1661 29-09-2009 20:11:02 17 C 8.83 g/m*3 17 C 0 km/h
1662 29-09-2009 20:23:02 17.1 C 9.03 g/m*3 17.1 C 0 km/h
1663 29-09-2009 20:35:02 17.2 C 9.23 g/m*3 17.2 C 0 km/h
1664 29-09-2009 20:47:02 17 C 9.26 g/m*3 17 C 0 km/h
1665 29-09-2009 20:59:02 16.9 C 9.49 g/m*3 16.9 C 0 km/h
1666 29-09-2009 21:11:02 16.8 C 9.44 g/m*3 16.8 C 0 km/h
1667 29-09-2009 21:23:02 16.8 C 9.58 g/m*3 16.8 C 0 km/h
1668 29-09-2009 21:35:01 16.6 C 9.61 g/m*3 16.6 C 0 km/h
1669 29-09-2009 21:47:02 16.6 C 9.61 g/m*3 16.6 C 0 km/h
1670 29-09-2009 21:59:02 16.6 C 9.61 g/m*3 16.6 C 0 km/h
1671 29-09-2009 22:11:02 16.4 C 9.63 g/m*3 16.4 C 0 km/h
1672 29-09-2009 22:24:03 16.4 C 9.77 g/m*3 16.4 C 0 km/h
1673 29-09-2009 22:36:03 16.3 C 9.71 g/m*3 16.3 C 0 km/h
1674 29-09-2009 22:48:03 16.2 C 9.79 g/m*3 16.2 C 0 km/h
1675 29-09-2009 23:00:03 16.2 C 9.93 g/m*3 16.2 C 0 km/h
Sensor: Nr:Datum:Temp:Abs-Feuchte:Windchill:Wind:
Aussen-T/F 1676 29-09-2009 23:12:03 16.1 C 9.87 g/m*3 16.1 C 0 km/h
1677 29-09-2009 23:24:03 16 C 9.95 g/m*3 16 C 0 km/h
1678 29-09-2009 23:36:03 16 C 9.95 g/m*3 16 C 0 km/h
1679 29-09-2009 23:48:03 16 C 9.95 g/m*3 16 C 0 km/h
1680 30-09-2009 00:00:03 15.9 C 10.16 g/m*3 15.9 C 0 km/h
1681 30-09-2009 00:12:03 15.7 C 10.03 g/m*3 15.7 C 0 km/h
1682 30-09-2009 00:24:03 15.6 C 10.11 g/m*3 15.6 C 0 km/h
1683 30-09-2009 00:36:03 15.6 C 10.11 g/m*3 15.6 C 0 km/h
1684 30-09-2009 00:48:03 15.6 C 10.11 g/m*3 15.6 C 0 km/h
1685 30-09-2009 01:00:03 15.6 C 10.11 g/m*3 15.6 C 0 km/h
1686 30-09-2009 01:12:04 15.6 C 10.11 g/m*3 15.6 C 0 km/h
1687 30-09-2009 01:24:04 15.6 C 10.11 g/m*3 15.6 C 0 km/h
1688 30-09-2009 01:36:04 15.6 C 10.11 g/m*3 15.6 C 0 km/h
1689 30-09-2009 01:48:04 15.6 C 10.11 g/m*3 15.6 C 0 km/h
1690 30-09-2009 02:00:04 15.6 C 9.97 g/m*3 15.6 C 0 km/h
1691 30-09-2009 02:12:04 15.5 C 9.91 g/m*3 15.5 C 0 km/h
1692 30-09-2009 02:24:04 15.5 C 9.91 g/m*3 15.5 C 0 km/h
1693 30-09-2009 02:36:04 15.5 C 9.78 g/m*3 15.5 C 0 km/h
1694 30-09-2009 02:48:04 15.6 C 9.84 g/m*3 15.6 C 0 km/h
1695 30-09-2009 03:00:04 15.6 C 9.84 g/m*3 15.6 C 0 km/h
1696 30-09-2009 03:12:04 15.6 C 9.84 g/m*3 15.6 C 0 km/h
1697 30-09-2009 03:24:04 15.5 C 9.78 g/m*3 15.5 C 0 km/h
1698 30-09-2009 03:36:04 15.5 C 9.78 g/m*3 15.5 C 0 km/h
1699 30-09-2009 03:48:04 15.4 C 9.72 g/m*3 15.4 C 0 km/h
1700 30-09-2009 04:00:04 15.4 C 9.72 g/m*3 15.4 C 0 km/h
Sensor: Nr:Datum:Temp:Abs-Feuchte:Windchill:Wind:
Aussen-T/F 1701 30-09-2009 04:12:04 15.4 C 9.85 g/m*3 15.4 C 0 km/h
1702 30-09-2009 04:24:04 15.3 C 9.79 g/m*3 15.3 C 0 km/h
1703 30-09-2009 04:36:04 15.2 C 9.86 g/m*3 15.2 C 0 km/h
1704 30-09-2009 04:48:04 15.2 C 9.86 g/m*3 15.2 C 0 km/h
1705 30-09-2009 05:00:05 15.2 C 9.99 g/m*3 15.2 C 0 km/h
1706 30-09-2009 05:12:05 15.2 C 10.12 g/m*3 15.2 C 0 km/h
1707 30-09-2009 05:24:05 15.2 C 9.99 g/m*3 15.2 C 0 km/h
1708 30-09-2009 05:36:05 15.3 C 10.06 g/m*3 15.3 C 0 km/h
1709 30-09-2009 05:48:05 15.3 C 10.06 g/m*3 15.3 C 0 km/h
1710 30-09-2009 06:00:05 15.3 C 9.92 g/m*3 15.3 C 0 km/h
1711 30-09-2009 06:12:05 15.3 C 9.92 g/m*3 15.3 C 0 km/h
1712 30-09-2009 06:24:05 15.3 C 9.92 g/m*3 15.3 C 0 km/h
1713 30-09-2009 06:36:05 15.2 C 9.86 g/m*3 15.2 C 0 km/h
1714 30-09-2009 06:48:05 15.2 C 9.99 g/m*3 15.2 C 0 km/h
1715 30-09-2009 07:00:05 15.2 C 9.99 g/m*3 15.2 C 0 km/h
1716 30-09-2009 07:12:05 15.1 C 9.93 g/m*3 15.1 C 0 km/h
1717 30-09-2009 07:24:02 15.1 C 9.93 g/m*3 15.1 C 0 km/h
1718 30-09-2009 07:36:02 15.1 C 9.93 g/m*3 15.1 C 0 km/h
1719 30-09-2009 07:48:02 15.1 C 9.93 g/m*3 15.1 C 0 km/h
1720 30-09-2009 08:00:02 15.2 C 9.99 g/m*3 15.2 C 0 km/h
1721 30-09-2009 08:12:02 15.2 C 9.99 g/m*3 15.2 C 0 km/h
1722 30-09-2009 08:24:02 15.4 C 10.12 g/m*3 15.4 C 0 km/h
1723 30-09-2009 08:36:01 15.6 C 10.24 g/m*3 15.6 C 0 km/h
1724 30-09-2009 08:48:02 15.8 C 10.36 g/m*3 15.8 C 0 km/h
1725 30-09-2009 09:00:02 16 C 10.22 g/m*3 16 C 0 km/h
Sensor: Nr:Datum:Temp:Abs-Feuchte:Windchill:Wind:
Aussen-T/F 1726 30-09-2009 09:12:01 16.1 C 10.01 g/m*3 16.1 C 0 km/h
1727 30-09-2009 09:24:01 16.1 C 10.01 g/m*3 16.1 C 0 km/h
1728 30-09-2009 09:36:02 16.3 C 10.13 g/m*3 16.3 C 0 km/h
1729 30-09-2009 09:48:02 16.3 C 10.13 g/m*3 16.3 C 0 km/h
1730 30-09-2009 10:00:02 16.2 C 9.93 g/m*3 16.2 C 0 km/h
1731 30-09-2009 10:12:01 16.3 C 9.99 g/m*3 16.3 C 0 km/h
1732 30-09-2009 10:24:02 16.3 C 9.99 g/m*3 16.3 C 0 km/h
1733 30-09-2009 10:36:02 16 C 10.08 g/m*3 16 C 0 km/h
1734 30-09-2009 10:48:02 16.2 C 10.2 g/m*3 16.2 C 0 km/h
1735 30-09-2009 11:00:02 16.6 C 10.03 g/m*3 16.6 C 0 km/h
1736 30-09-2009 11:12:03 17.4 C 10.08 g/m*3 17.4 C 0 km/h
1737 30-09-2009 11:24:02 17.9 C 10.54 g/m*3 17.9 C 0 km/h
1738 30-09-2009 11:36:02 18.4 C 9.91 g/m*3 18.4 C 0 km/h
1739 30-09-2009 11:48:01 19 C 9.78 g/m*3 19 C 0 km/h
1740 30-09-2009 12:00:01 19.1 C 9.67 g/m*3 19.1 C 0 km/h
1741 30-09-2009 12:12:02 19.2 C 9.4 g/m*3 19.2 C 0 km/h
1742 30-09-2009 12:24:01 19.7 C 9.51 g/m*3 19.7 C 0 km/h
1743 30-09-2009 12:36:02 19.6 C 9.45 g/m*3 19.6 C 0 km/h
1744 30-09-2009 12:48:02 19.4 C 9.34 g/m*3 19.4 C 0 km/h
1745 30-09-2009 13:00:02 19.4 C 9.34 g/m*3 19.4 C 0 km/h
1746 30-09-2009 13:12:02 19.6 C 9.79 g/m*3 19.6 C 0 km/h
1747 30-09-2009 13:24:03 20.5 C 9.79 g/m*3 20.5 C 0 km/h
1748 30-09-2009 13:36:02 20.6 C 9.66 g/m*3 20.6 C 0 km/h
1749 30-09-2009 13:48:03 20.2 C 9.62 g/m*3 20.2 C 0 km/h
1750 30-09-2009 14:00:03 20 C 9.51 g/m*3 20 C 0 km/h
Sensor: Nr:Datum:Temp:Abs-Feuchte:Windchill:Wind:
Aussen-T/F 1751 30-09-2009 14:12:02 19.7 C 9.68 g/m*3 19.7 C 0 km/h
1752 30-09-2009 14:24:02 19.4 C 9.51 g/m*3 19.4 C 0 km/h
1753 30-09-2009 14:36:02 19.4 C 9.51 g/m*3 19.4 C 0 km/h
1754 30-09-2009 14:48:02 19.3 C 9.62 g/m*3 19.3 C 0 km/h
1755 30-09-2009 15:00:02 19.1 C 9.67 g/m*3 19.1 C 0 km/h
1756 30-09-2009 15:12:02 19 C 9.61 g/m*3 19 C 0 km/h
1757 30-09-2009 15:24:02 19.1 C 9.84 g/m*3 19.1 C 0 km/h
1758 30-09-2009 15:36:02 19.2 C 9.73 g/m*3 19.2 C 0 km/h
1759 30-09-2009 15:48:02 19.2 C 9.89 g/m*3 19.2 C 0 km/h
1760 30-09-2009 16:00:02 19.1 C 9.84 g/m*3 19.1 C 0 km/h
1761 30-09-2009 16:12:01 19.1 C 9.67 g/m*3 19.1 C 0 km/h
1762 30-09-2009 16:24:02 19.3 C 9.62 g/m*3 19.3 C 0 km/h
1763 30-09-2009 16:36:02 19.1 C 9.67 g/m*3 19.1 C 0 km/h
1764 30-09-2009 16:48:01 19.1 C 10 g/m*3 19.1 C 0 km/h
1765 30-09-2009 17:00:01 19.3 C 9.95 g/m*3 19.3 C 0 km/h
1766 30-09-2009 17:12:02 19.3 C 9.62 g/m*3 19.3 C 0 km/h
1767 30-09-2009 17:24:01 19.1 C 9.84 g/m*3 19.1 C 0 km/h
1768 30-09-2009 17:36:02 18.9 C 10.21 g/m*3 18.9 C 0 km/h
1769 30-09-2009 17:48:02 18.7 C 10.41 g/m*3 18.7 C 0 km/h
1770 30-09-2009 18:00:02 18.4 C 10.38 g/m*3 18.4 C 0 km/h
1771 30-09-2009 18:12:02 18.4 C 10.54 g/m*3 18.4 C 0 km/h
1772 30-09-2009 18:24:01 18.4 C 10.54 g/m*3 18.4 C 0 km/h
1773 30-09-2009 18:36:02 18.3 C 10.48 g/m*3 18.3 C 0 km/h
1774 30-09-2009 18:48:02 17.8 C 10.47 g/m*3 17.8 C 0 km/h
1775 30-09-2009 19:00:02 17.3 C 9.72 g/m*3 17.3 C 0 km/h
Sensor: Nr:Datum:Temp:Abs-Feuchte:Windchill:Wind:
Aussen-T/F 1776 30-09-2009 19:12:02 16.9 C 9.78 g/m*3 16.9 C 0 km/h
1777 30-09-2009 19:24:02 16.5 C 9.69 g/m*3 16.5 C 0 km/h
1778 30-09-2009 19:36:02 16.3 C 9.71 g/m*3 16.3 C 0 km/h
1779 30-09-2009 19:48:02 16.2 C 9.65 g/m*3 16.2 C 0 km/h
1780 30-09-2009 20:00:02 16 C 9.54 g/m*3 16 C 0 km/h
1781 30-09-2009 20:12:02 15.5 C 9.65 g/m*3 15.5 C 0 km/h
1782 30-09-2009 20:24:02 15 C 9.62 g/m*3 15 C 0 km/h
1783 30-09-2009 20:36:02 14.8 C 9.75 g/m*3 14.8 C 0 km/h
1784 30-09-2009 20:48:02 14.6 C 9.64 g/m*3 14.6 C 0 km/h
1785 30-09-2009 21:00:02 14.4 C 9.64 g/m*3 14.4 C 0 km/h
1786 30-09-2009 21:12:03 14.5 C 9.95 g/m*3 14.5 C 0 km/h
1787 30-09-2009 21:24:02 14.2 C 9.77 g/m*3 14.2 C 0 km/h
1788 30-09-2009 21:36:02 14.1 C 9.71 g/m*3 14.1 C 0 km/h
1789 30-09-2009 21:48:01 13.9 C 9.83 g/m*3 13.9 C 0 km/h
1790 30-09-2009 22:00:01 13.8 C 9.89 g/m*3 13.8 C 0 km/h
1791 30-09-2009 22:12:02 13.7 C 9.83 g/m*3 13.7 C 0 km/h
1792 30-09-2009 22:24:01 13.6 C 9.77 g/m*3 13.6 C 0 km/h
1793 30-09-2009 22:37:02 13.6 C 9.89 g/m*3 13.6 C 0 km/h
1794 30-09-2009 22:49:02 13.4 C 9.76 g/m*3 13.4 C 0 km/h
1795 30-09-2009 23:01:02 13.6 C 10 g/m*3 13.6 C 0 km/h
1796 30-09-2009 23:13:02 13.6 C 10 g/m*3 13.6 C 0 km/h
1797 30-09-2009 23:25:03 13.7 C 10.07 g/m*3 13.7 C 0 km/h
1798 30-09-2009 23:37:03 13.7 C 10.07 g/m*3 13.7 C 0 km/h
1799 30-09-2009 23:49:03 13.7 C 9.95 g/m*3 13.7 C 0 km/h
1800 01-10-2009 00:01:03 13.8 C 10.01 g/m*3 13.8 C 0 km/h
Sensor: Nr:Datum:Temp:Abs-Feuchte:Windchill:Wind:
Aussen-T/F 1801 01-10-2009 00:13:03 13.6 C 9.89 g/m*3 13.6 C 0 km/h
1802 01-10-2009 00:25:03 13.4 C 9.76 g/m*3 13.4 C 0 km/h
1803 01-10-2009 00:37:03 13.1 C 9.7 g/m*3 13.1 C 0 km/h
1804 01-10-2009 00:49:03 13.2 C 9.87 g/m*3 13.2 C 0 km/h
1805 01-10-2009 01:01:03 13.4 C 10 g/m*3 13.4 C 0 km/h
1806 01-10-2009 01:13:03 13.5 C 10.06 g/m*3 13.5 C 0 km/h
1807 01-10-2009 01:25:03 13.6 C 10 g/m*3 13.6 C 0 km/h
1808 01-10-2009 01:37:03 13.5 C 9.94 g/m*3 13.5 C 0 km/h
1809 01-10-2009 01:49:03 13.7 C 10.07 g/m*3 13.7 C 0 km/h
1810 01-10-2009 02:01:03 13.7 C 9.95 g/m*3 13.7 C 0 km/h
1811 01-10-2009 02:13:03 13.8 C 9.89 g/m*3 13.8 C 0 km/h
1812 01-10-2009 02:25:03 13.7 C 9.83 g/m*3 13.7 C 0 km/h
1813 01-10-2009 02:37:03 13.7 C 9.83 g/m*3 13.7 C 0 km/h
1814 01-10-2009 02:49:03 13.7 C 9.83 g/m*3 13.7 C 0 km/h
1815 01-10-2009 03:01:03 13.6 C 9.77 g/m*3 13.6 C 0 km/h
1816 01-10-2009 03:13:04 13.6 C 9.89 g/m*3 13.6 C 0 km/h
1817 01-10-2009 03:25:04 13.5 C 9.83 g/m*3 13.5 C 0 km/h
1818 01-10-2009 03:37:04 13.4 C 9.76 g/m*3 13.4 C 0 km/h
1819 01-10-2009 03:49:04 13.4 C 9.76 g/m*3 13.4 C 0 km/h
1820 01-10-2009 04:01:04 13.4 C 9.76 g/m*3 13.4 C 0 km/h
1821 01-10-2009 04:13:04 13.4 C 9.76 g/m*3 13.4 C 0 km/h
1822 01-10-2009 04:25:04 13.3 C 9.82 g/m*3 13.3 C 0 km/h
1823 01-10-2009 04:37:04 13.3 C 9.82 g/m*3 13.3 C 0 km/h
1824 01-10-2009 04:49:04 13.3 C 9.82 g/m*3 13.3 C 0 km/h
1825 01-10-2009 05:01:04 13.3 C 9.82 g/m*3 13.3 C 0 km/h
Sensor: Nr:Datum:Temp:Abs-Feuchte:Windchill:Wind:
Aussen-T/F 1826 01-10-2009 05:13:04 13.3 C 9.82 g/m*3 13.3 C 0 km/h
1827 01-10-2009 05:25:04 13.2 C 9.76 g/m*3 13.2 C 0 km/h
1828 01-10-2009 05:37:04 13.1 C 9.7 g/m*3 13.1 C 0 km/h
1829 01-10-2009 05:49:04 13 C 9.75 g/m*3 13 C 0 km/h
1830 01-10-2009 06:01:04 12.9 C 9.81 g/m*3 12.9 C 0 km/h
1831 01-10-2009 06:13:04 12.8 C 9.86 g/m*3 12.8 C 0 km/h
1832 01-10-2009 06:25:04 13 C 9.87 g/m*3 13 C 0 km/h
1833 01-10-2009 06:37:04 13.1 C 9.93 g/m*3 13.1 C 0 km/h
1834 01-10-2009 06:49:04 13.2 C 9.99 g/m*3 13.2 C 0 km/h
1835 01-10-2009 07:01:02 13.2 C 9.87 g/m*3 13.2 C 0 km/h
1836 01-10-2009 07:13:02 13.3 C 9.94 g/m*3 13.3 C 0 km/h
1837 01-10-2009 07:25:03 13.2 C 9.76 g/m*3 13.2 C 0 km/h
1838 01-10-2009 07:37:02 13.2 C 9.76 g/m*3 13.2 C 0 km/h
1839 01-10-2009 07:49:03 13.1 C 9.7 g/m*3 13.1 C 0 km/h
1840 01-10-2009 08:01:02 13 C 9.64 g/m*3 13 C 0 km/h
1841 01-10-2009 08:13:02 13.2 C 9.76 g/m*3 13.2 C 0 km/h
1842 01-10-2009 08:25:02 13.5 C 9.83 g/m*3 13.5 C 0 km/h
1843 01-10-2009 08:37:02 13.7 C 9.95 g/m*3 13.7 C 0 km/h
1844 01-10-2009 08:49:02 13.8 C 9.77 g/m*3 13.8 C 0 km/h
1845 01-10-2009 09:01:01 13.9 C 9.83 g/m*3 13.9 C 0 km/h
1846 01-10-2009 09:13:01 14 C 9.77 g/m*3 14 C 0 km/h
1847 01-10-2009 09:25:02 14.1 C 9.71 g/m*3 14.1 C 0 km/h
1848 01-10-2009 09:37:01 14.2 C 9.65 g/m*3 14.2 C 0 km/h
1849 01-10-2009 09:49:02 14.2 C 9.4 g/m*3 14.2 C 0 km/h
1850 01-10-2009 10:01:01 14.6 C 9.39 g/m*3 14.6 C 0 km/h
Sensor: Nr:Datum:Temp:Abs-Feuchte:Windchill:Wind:
Aussen-T/F 1851 01-10-2009 10:13:01 14.7 C 9.32 g/m*3 14.7 C 0 km/h
1852 01-10-2009 10:25:01 15 C 9.23 g/m*3 15 C 0 km/h
1853 01-10-2009 10:37:02 15.4 C 9.2 g/m*3 15.4 C 0 km/h
1854 01-10-2009 10:49:02 15.7 C 9.23 g/m*3 15.7 C 0 km/h
1855 01-10-2009 11:01:02 15.4 C 9.2 g/m*3 15.4 C 0 km/h
1856 01-10-2009 11:13:02 16.4 C 9.07 g/m*3 16.4 C 0 km/h
1857 01-10-2009 11:25:02 17 C 8.68 g/m*3 17 C 0 km/h
1858 01-10-2009 11:37:02 17.7 C 8.75 g/m*3 17.7 C 0 km/h
1859 01-10-2009 11:49:02 17.9 C 8.7 g/m*3 17.9 C 0 km/h
1860 01-10-2009 12:01:02 18.2 C 8.55 g/m*3 18.2 C 0 km/h
1861 01-10-2009 12:13:02 18.5 C 7.75 g/m*3 18.5 C 0 km/h
1862 01-10-2009 12:25:02 18.2 C 7.31 g/m*3 18.2 C 0 km/h
1863 01-10-2009 12:37:02 18.1 C 7.57 g/m*3 18.1 C 0 km/h
1864 01-10-2009 12:49:01 17.9 C 7.94 g/m*3 17.9 C 0 km/h
1865 01-10-2009 13:01:01 16.9 C 8.63 g/m*3 16.9 C 0 km/h
1866 01-10-2009 13:13:02 16.8 C 9.01 g/m*3 16.8 C 0 km/h
1867 01-10-2009 13:25:01 17.5 C 8.65 g/m*3 17.5 C 0 km/h
1868 01-10-2009 13:37:01 18.3 C 7.97 g/m*3 18.3 C 0 km/h
1869 01-10-2009 13:49:01 18.7 C 8.01 g/m*3 18.7 C 0 km/h
1870 01-10-2009 14:01:01 18.6 C 7.8 g/m*3 18.6 C 0 km/h
1871 01-10-2009 14:13:01 18.1 C 7.73 g/m*3 18.1 C 0 km/h
1872 01-10-2009 14:25:02 17.9 C 8.09 g/m*3 17.9 C 0 km/h
1873 01-10-2009 14:37:01 18.3 C 8.13 g/m*3 18.3 C 0 km/h
1874 01-10-2009 14:49:03 18.7 C 8.01 g/m*3 18.7 C 0 km/h
1875 01-10-2009 15:01:02 19 C 7.82 g/m*3 19 C 0 km/h
Sensor: Nr:Datum:Temp:Abs-Feuchte:Windchill:Wind:
Aussen-T/F 1876 01-10-2009 15:13:02 19.2 C 7.91 g/m*3 19.2 C 0 km/h
1877 01-10-2009 15:25:02 19.1 C 7.87 g/m*3 19.1 C 0 km/h
1878 01-10-2009 15:37:02 18.7 C 7.84 g/m*3 18.7 C 0 km/h
1879 01-10-2009 15:49:02 18 C 7.83 g/m*3 18 C 0 km/h
1880 01-10-2009 16:01:02 17.4 C 8.15 g/m*3 17.4 C 0 km/h
1881 01-10-2009 16:13:02 17 C 7.81 g/m*3 17 C 0 km/h
1882 01-10-2009 16:25:02 16.8 C 7.86 g/m*3 16.8 C 0 km/h
1883 01-10-2009 16:37:01 16.5 C 7.44 g/m*3 16.5 C 0 km/h
1884 01-10-2009 16:49:02 16.2 C 7.31 g/m*3 16.2 C 0 km/h
1885 01-10-2009 17:01:01 16 C 7.49 g/m*3 16 C 0 km/h
1886 01-10-2009 17:13:01 15.6 C 7.85 g/m*3 15.6 C 0 km/h
1887 01-10-2009 17:25:01 15.6 C 7.98 g/m*3 15.6 C 0 km/h
1888 01-10-2009 17:37:02 15.5 C 8.06 g/m*3 15.5 C 0 km/h
1889 01-10-2009 17:49:02 15.1 C 8 g/m*3 15.1 C 0 km/h
1890 01-10-2009 18:01:02 14.9 C 8.16 g/m*3 14.9 C 0 km/h
1891 01-10-2009 18:13:02 15 C 8.08 g/m*3 15 C 0 km/h
1892 01-10-2009 18:25:02 14.9 C 8.16 g/m*3 14.9 C 0 km/h
1893 01-10-2009 18:37:02 15 C 8.08 g/m*3 15 C 0 km/h
1894 01-10-2009 18:49:02 14.9 C 8.16 g/m*3 14.9 C 0 km/h
1895 01-10-2009 19:01:02 14.7 C 8.06 g/m*3 14.7 C 0 km/h
1896 01-10-2009 19:13:02 14.7 C 8.06 g/m*3 14.7 C 0 km/h
1897 01-10-2009 19:25:02 14.7 C 8.06 g/m*3 14.7 C 0 km/h
1898 01-10-2009 19:37:02 14.7 C 8.06 g/m*3 14.7 C 0 km/h
1899 01-10-2009 19:49:01 14.6 C 8.13 g/m*3 14.6 C 0 km/h
1900 01-10-2009 20:01:01 14.7 C 8.44 g/m*3 14.7 C 0 km/h
Sensor: Nr:Datum:Temp:Abs-Feuchte:Windchill:Wind:
Aussen-T/F 1901 01-10-2009 20:13:01 13.5 C 8.3 g/m*3 13.5 C 0 km/h
1902 01-10-2009 20:25:01 13.4 C 8.37 g/m*3 13.4 C 0 km/h
1903 01-10-2009 20:37:01 13.6 C 8.36 g/m*3 13.6 C 0 km/h
1904 01-10-2009 20:49:02 13.6 C 7.77 g/m*3 13.6 C 0 km/h
1905 01-10-2009 21:01:02 13.3 C 7.63 g/m*3 13.3 C 0 km/h
1906 01-10-2009 21:13:02 13.4 C 7.44 g/m*3 13.4 C 0 km/h
1907 01-10-2009 21:25:03 13.4 C 7.44 g/m*3 13.4 C 0 km/h
1908 01-10-2009 21:37:02 13.4 C 7.21 g/m*3 13.4 C 0 km/h
1909 01-10-2009 21:49:03 13.3 C 7.16 g/m*3 13.3 C 0 km/h
1910 01-10-2009 22:01:02 13.2 C 7.23 g/m*3 13.2 C 0 km/h
1911 01-10-2009 22:13:02 13.1 C 7.19 g/m*3 13.1 C 0 km/h
1912 01-10-2009 22:25:02 12.8 C 7.28 g/m*3 12.8 C 0 km/h
1913 01-10-2009 22:38:02 12.4 C 7.21 g/m*3 12.4 C 0 km/h
1914 01-10-2009 22:50:02 12.3 C 7.38 g/m*3 12.3 C 0 km/h
1915 01-10-2009 23:02:02 12.4 C 7.43 g/m*3 12.4 C 0 km/h
1916 01-10-2009 23:14:02 12.4 C 7.32 g/m*3 12.4 C 0 km/h
1917 01-10-2009 23:26:02 12 C 7.25 g/m*3 12 C 0 km/h
1918 01-10-2009 23:38:02 11.7 C 7.32 g/m*3 11.7 C 0 km/h
1919 01-10-2009 23:50:02 11.6 C 7.28 g/m*3 11.6 C 0 km/h
1920 02-10-2009 00:02:02 11.7 C 7.32 g/m*3 11.7 C 0 km/h
1921 02-10-2009 00:14:02 12 C 7.35 g/m*3 12 C 0 km/h
1922 02-10-2009 00:26:02 11.9 C 7.41 g/m*3 11.9 C 0 km/h
1923 02-10-2009 00:38:02 11.7 C 7.43 g/m*3 11.7 C 0 km/h
1924 02-10-2009 00:50:02 11.5 C 7.02 g/m*3 11.5 C 0 km/h
1925 02-10-2009 01:02:02 11.3 C 6.83 g/m*3 11.3 C 0 km/h
Sensor: Nr:Datum:Temp:Abs-Feuchte:Windchill:Wind:
Aussen-T/F 1926 02-10-2009 01:14:02 11.3 C 6.83 g/m*3 11.3 C 0 km/h
1927 02-10-2009 01:26:02 11.1 C 6.75 g/m*3 11.1 C 0 km/h
1928 02-10-2009 01:38:02 10.8 C 6.82 g/m*3 10.8 C 0 km/h
1929 02-10-2009 01:50:02 10.6 C 6.93 g/m*3 10.6 C 0 km/h
1930 02-10-2009 02:02:02 10.4 C 7.04 g/m*3 10.4 C 0 km/h
1931 02-10-2009 02:14:02 10.1 C 7 g/m*3 10.1 C 0 km/h
1932 02-10-2009 02:26:03 10 C 7.05 g/m*3 10 C 0 km/h
1933 02-10-2009 02:38:03 10 C 6.95 g/m*3 10 C 0 km/h
1934 02-10-2009 02:50:03 9.9 C 7.1 g/m*3 9.9 C 0 km/h
1935 02-10-2009 03:02:03 9.8 C 7.05 g/m*3 9.8 C 0 km/h
1936 02-10-2009 03:14:03 9.5 C 6.92 g/m*3 9.5 C 0 km/h
1937 02-10-2009 03:26:03 9.2 C 6.88 g/m*3 9.2 C 0 km/h
1938 02-10-2009 03:38:03 9.1 C 7.01 g/m*3 9.1 C 0 km/h
1939 02-10-2009 03:50:03 8.8 C 7.05 g/m*3 8.8 C 0 km/h
1940 02-10-2009 04:02:03 8.6 C 6.96 g/m*3 8.6 C 0 km/h
1941 02-10-2009 04:14:03 8.6 C 7.13 g/m*3 8.6 C 0 km/h
1942 02-10-2009 04:26:03 8.4 C 7.04 g/m*3 8.4 C 0 km/h
1943 02-10-2009 04:38:03 8.2 C 7.03 g/m*3 8.2 C 0 km/h
1944 02-10-2009 04:50:03 8.2 C 7.03 g/m*3 8.2 C 0 km/h
1945 02-10-2009 05:02:03 8 C 6.94 g/m*3 8 C 0 km/h
1946 02-10-2009 05:14:03 7.8 C 7.02 g/m*3 7.8 C 0 km/h
1947 02-10-2009 05:26:03 7.8 C 7.1 g/m*3 7.8 C 0 km/h
1948 02-10-2009 05:38:03 7.6 C 7.01 g/m*3 7.6 C 0 km/h
1949 02-10-2009 05:50:03 7.5 C 6.96 g/m*3 7.5 C 0 km/h
1950 02-10-2009 06:02:03 7.5 C 7.04 g/m*3 7.5 C 0 km/h
Sensor: Nr:Datum:Temp:Abs-Feuchte:Windchill:Wind:
Aussen-T/F 1951 02-10-2009 06:14:04 7.5 C 7.04 g/m*3 7.5 C 0 km/h
1952 02-10-2009 06:26:04 7.3 C 6.95 g/m*3 7.3 C 0 km/h
1953 02-10-2009 06:38:04 7.3 C 6.95 g/m*3 7.3 C 0 km/h
1954 02-10-2009 06:50:04 7.3 C 6.95 g/m*3 7.3 C 0 km/h
1955 02-10-2009 07:02:02 7.2 C 6.91 g/m*3 7.2 C 0 km/h
1956 02-10-2009 07:14:02 7.1 C 6.94 g/m*3 7.1 C 0 km/h
1957 02-10-2009 07:26:02 7.2 C 6.99 g/m*3 7.2 C 0 km/h
1958 02-10-2009 07:38:01 7.1 C 6.94 g/m*3 7.1 C 0 km/h
1959 02-10-2009 07:50:02 7.2 C 6.99 g/m*3 7.2 C 0 km/h
1960 02-10-2009 08:02:01 7.5 C 7.12 g/m*3 7.5 C 0 km/h
1961 02-10-2009 08:14:01 7.4 C 7 g/m*3 7.4 C 0 km/h
1962 02-10-2009 08:26:02 7.5 C 6.96 g/m*3 7.5 C 0 km/h
1963 02-10-2009 08:38:01 7.4 C 6.92 g/m*3 7.4 C 0 km/h
1964 02-10-2009 08:50:03 7.5 C 6.96 g/m*3 7.5 C 0 km/h
1965 02-10-2009 09:02:02 7.6 C 7.01 g/m*3 7.6 C 0 km/h
1966 02-10-2009 09:14:02 7.9 C 7.06 g/m*3 7.9 C 0 km/h
1967 02-10-2009 09:26:02 8.2 C 7.03 g/m*3 8.2 C 0 km/h
1968 02-10-2009 09:38:03 8.5 C 7.09 g/m*3 8.5 C 0 km/h
1969 02-10-2009 09:50:02 8.5 C 7 g/m*3 8.5 C 0 km/h
1970 02-10-2009 10:02:02 8.7 C 7.18 g/m*3 8.7 C 0 km/h
1971 02-10-2009 10:14:02 9.3 C 7.19 g/m*3 9.3 C 0 km/h
1972 02-10-2009 10:26:02 10 C 6.77 g/m*3 10 C 0 km/h
1973 02-10-2009 10:38:02 10.1 C 6.62 g/m*3 10.1 C 0 km/h
1974 02-10-2009 10:50:01 10.6 C 6.73 g/m*3 10.6 C 0 km/h
1975 02-10-2009 11:02:02 11.2 C 6.49 g/m*3 11.2 C 0 km/h
Sensor: Nr:Datum:Temp:Abs-Feuchte:Windchill:Wind:
Aussen-T/F 1976 02-10-2009 11:14:02 11.5 C 6.51 g/m*3 11.5 C 0 km/h
1977 02-10-2009 11:26:01 11.8 C 6.31 g/m*3 11.8 C 0 km/h
1978 02-10-2009 11:38:01 12.1 C 6.22 g/m*3 12.1 C 0 km/h
1979 02-10-2009 11:50:01 12.8 C 6.05 g/m*3 12.8 C 0 km/h
1980 02-10-2009 12:02:02 13.4 C 5.81 g/m*3 13.4 C 0 km/h
1981 02-10-2009 12:14:02 13.6 C 5.65 g/m*3 13.6 C 0 km/h
1982 02-10-2009 12:26:01 14.1 C 5.58 g/m*3 14.1 C 0 km/h
1983 02-10-2009 12:38:02 14.3 C 5.28 g/m*3 14.3 C 0 km/h
1984 02-10-2009 12:50:01 14.6 C 5.13 g/m*3 14.6 C 0 km/h
1985 02-10-2009 13:02:02 14.5 C 4.97 g/m*3 14.5 C 0 km/h
1986 02-10-2009 13:14:02 14.6 C 4.76 g/m*3 14.6 C 0 km/h
1987 02-10-2009 13:26:01 14.6 C 5.01 g/m*3 14.6 C 0 km/h
1988 02-10-2009 13:38:02 14.7 C 5.04 g/m*3 14.7 C 0 km/h
1989 02-10-2009 13:50:01 14.1 C 4.98 g/m*3 14.1 C 0 km/h
1990 02-10-2009 14:02:02 13.9 C 4.92 g/m*3 13.9 C 0 km/h
1991 02-10-2009 14:14:02 13.9 C 5.15 g/m*3 13.9 C 0 km/h
1992 02-10-2009 14:26:02 13.8 C 5.24 g/m*3 13.8 C 0 km/h
1993 02-10-2009 14:38:01 13.8 C 5.36 g/m*3 13.8 C 0 km/h
1994 02-10-2009 14:50:02 14.2 C 5.37 g/m*3 14.2 C 0 km/h
1995 02-10-2009 15:02:01 14.4 C 5.44 g/m*3 14.4 C 0 km/h
1996 02-10-2009 15:14:01 14.8 C 5.32 g/m*3 14.8 C 0 km/h
1997 02-10-2009 15:26:02 15.2 C 5.45 g/m*3 15.2 C 0 km/h
1998 02-10-2009 15:38:01 15.3 C 5.62 g/m*3 15.3 C 0 km/h
1999 02-10-2009 15:50:03 14.9 C 5.48 g/m*3 14.9 C 0 km/h
2000 02-10-2009 16:02:02 14.8 C 5.57 g/m*3 14.8 C 0 km/h
Sensor: Nr:Datum:Temp:Abs-Feuchte:Windchill:Wind:
Aussen-T/F 2001 02-10-2009 16:14:02 15 C 5.39 g/m*3 15 C 0 km/h
2002 02-10-2009 16:26:02 15 C 5.51 g/m*3 15 C 0 km/h
2003 02-10-2009 16:38:02 14.9 C 5.61 g/m*3 14.9 C 0 km/h
2004 02-10-2009 16:50:02 14.9 C 5.74 g/m*3 14.9 C 0 km/h
2005 02-10-2009 17:02:01 14.8 C 5.7 g/m*3 14.8 C 0 km/h
2006 02-10-2009 17:14:01 14.9 C 5.74 g/m*3 14.9 C 0 km/h
2007 02-10-2009 17:26:02 14.8 C 5.57 g/m*3 14.8 C 0 km/h
2008 02-10-2009 17:38:02 14.7 C 5.41 g/m*3 14.7 C 0 km/h
2009 02-10-2009 17:50:01 14.7 C 5.54 g/m*3 14.7 C 0 km/h
2010 02-10-2009 18:02:02 14.5 C 5.47 g/m*3 14.5 C 0 km/h
2011 02-10-2009 18:14:02 14.4 C 5.69 g/m*3 14.4 C 0 km/h
2012 02-10-2009 18:26:01 14.4 C 5.69 g/m*3 14.4 C 0 km/h
2013 02-10-2009 18:38:02 14.6 C 5.76 g/m*3 14.6 C 0 km/h
2014 02-10-2009 18:50:02 14.1 C 5.7 g/m*3 14.1 C 0 km/h
2015 02-10-2009 19:02:02 14 C 5.79 g/m*3 14 C 0 km/h
2016 02-10-2009 19:14:02 13.8 C 5.96 g/m*3 13.8 C 0 km/h
2017 02-10-2009 19:26:01 13.7 C 6.04 g/m*3 13.7 C 0 km/h
2018 02-10-2009 19:38:02 13.6 C 6 g/m*3 13.6 C 0 km/h
2019 02-10-2009 19:50:02 13.5 C 6.08 g/m*3 13.5 C 0 km/h
2020 02-10-2009 20:02:02 13.4 C 6.16 g/m*3 13.4 C 0 km/h
2021 02-10-2009 20:14:02 13.1 C 6.16 g/m*3 13.1 C 0 km/h
2022 02-10-2009 20:26:01 12.9 C 6.31 g/m*3 12.9 C 0 km/h
2023 02-10-2009 20:38:02 12.7 C 6.35 g/m*3 12.7 C 0 km/h
2024 02-10-2009 20:50:02 12.6 C 6.31 g/m*3 12.6 C 0 km/h
2025 02-10-2009 21:02:02 12.6 C 6.42 g/m*3 12.6 C 0 km/h
Sensor: Nr:Datum:Temp:Abs-Feuchte:Windchill:Wind:
Aussen-T/F 2026 02-10-2009 21:14:03 12.3 C 6.41 g/m*3 12.3 C 0 km/h
2027 02-10-2009 21:26:01 12.2 C 6.47 g/m*3 12.2 C 0 km/h
2028 02-10-2009 21:38:02 12 C 6.5 g/m*3 12 C 0 km/h
2029 02-10-2009 21:50:02 11.9 C 6.57 g/m*3 11.9 C 0 km/h
2030 02-10-2009 22:02:02 11.7 C 6.48 g/m*3 11.7 C 0 km/h
2031 02-10-2009 22:14:02 11.5 C 6.61 g/m*3 11.5 C 0 km/h
2032 02-10-2009 22:26:02 11 C 6.41 g/m*3 11 C 0 km/h
2033 02-10-2009 22:39:04 10.8 C 6.52 g/m*3 10.8 C 0 km/h
2034 02-10-2009 22:51:04 10.7 C 6.58 g/m*3 10.7 C 0 km/h
2035 02-10-2009 23:03:04 10.7 C 6.68 g/m*3 10.7 C 0 km/h
2036 02-10-2009 23:15:04 10.5 C 6.6 g/m*3 10.5 C 0 km/h
2037 02-10-2009 23:27:05 10.2 C 6.57 g/m*3 10.2 C 0 km/h
2038 02-10-2009 23:39:05 10 C 6.58 g/m*3 10 C 0 km/h
2039 02-10-2009 23:51:05 9.8 C 6.68 g/m*3 9.8 C 0 km/h
2040 03-10-2009 00:03:05 9.6 C 6.69 g/m*3 9.6 C 0 km/h
2041 03-10-2009 00:15:05 9.5 C 6.64 g/m*3 9.5 C 0 km/h
2042 03-10-2009 00:27:05 9.2 C 6.7 g/m*3 9.2 C 0 km/h
2043 03-10-2009 00:39:05 9 C 6.79 g/m*3 9 C 0 km/h
2044 03-10-2009 00:51:05 9.1 C 6.83 g/m*3 9.1 C 0 km/h
2045 03-10-2009 01:03:05 8.9 C 6.83 g/m*3 8.9 C 0 km/h
2046 03-10-2009 01:15:05 8.7 C 6.83 g/m*3 8.7 C 0 km/h
2047 03-10-2009 01:27:05 8.6 C 6.87 g/m*3 8.6 C 0 km/h
2048 03-10-2009 01:39:05 8.4 C 6.79 g/m*3 8.4 C 0 km/h
2049 03-10-2009 01:51:05 8.4 C 6.87 g/m*3 8.4 C 0 km/h
2050 03-10-2009 02:03:05 8.1 C 6.74 g/m*3 8.1 C 0 km/h
Sensor: Nr:Datum:Temp:Abs-Feuchte:Windchill:Wind:
Aussen-T/F 2051 03-10-2009 02:15:05 8.1 C 6.82 g/m*3 8.1 C 0 km/h
2052 03-10-2009 02:27:05 8 C 6.78 g/m*3 8 C 0 km/h
2053 03-10-2009 02:39:05 7.7 C 6.73 g/m*3 7.7 C 0 km/h
2054 03-10-2009 02:51:05 7.5 C 6.72 g/m*3 7.5 C 0 km/h
2055 03-10-2009 03:03:06 7.4 C 6.76 g/m*3 7.4 C 0 km/h
2056 03-10-2009 03:15:06 7.3 C 6.79 g/m*3 7.3 C 0 km/h
2057 03-10-2009 03:27:06 7.3 C 6.79 g/m*3 7.3 C 0 km/h
2058 03-10-2009 03:39:06 7.4 C 6.84 g/m*3 7.4 C 0 km/h
2059 03-10-2009 03:51:06 7.1 C 6.79 g/m*3 7.1 C 0 km/h
2060 03-10-2009 04:03:06 6.9 C 6.77 g/m*3 6.9 C 0 km/h
2061 03-10-2009 04:15:06 6.9 C 6.77 g/m*3 6.9 C 0 km/h
2062 03-10-2009 04:27:06 6.9 C 6.77 g/m*3 6.9 C 0 km/h
2063 03-10-2009 04:39:06 6.8 C 6.73 g/m*3 6.8 C 0 km/h
2064 03-10-2009 04:51:06 6.6 C 6.72 g/m*3 6.6 C 0 km/h
2065 03-10-2009 05:03:06 6.5 C 6.67 g/m*3 6.5 C 0 km/h
2066 03-10-2009 05:15:06 6.4 C 6.63 g/m*3 6.4 C 0 km/h
2067 03-10-2009 05:27:06 6.4 C 6.63 g/m*3 6.4 C 0 km/h
2068 03-10-2009 05:39:06 6.4 C 6.71 g/m*3 6.4 C 0 km/h
2069 03-10-2009 05:51:06 6.7 C 6.91 g/m*3 6.7 C 0 km/h
2070 03-10-2009 06:03:06 7 C 6.97 g/m*3 7 C 0 km/h
2071 03-10-2009 06:15:06 7.2 C 7.06 g/m*3 7.2 C 0 km/h
2072 03-10-2009 06:27:06 7.3 C 7.03 g/m*3 7.3 C 0 km/h
2073 03-10-2009 06:39:06 7.4 C 7.08 g/m*3 7.4 C 0 km/h
2074 03-10-2009 06:51:06 7.4 C 7 g/m*3 7.4 C 0 km/h
2075 03-10-2009 07:03:07 7.4 C 6.92 g/m*3 7.4 C 0 km/h
Sensor: Nr:Datum:Temp:Abs-Feuchte:Windchill:Wind:
Aussen-T/F 2076 03-10-2009 07:15:07 7.4 C 6.92 g/m*3 7.4 C 0 km/h
2077 03-10-2009 07:27:07 7.5 C 6.96 g/m*3 7.5 C 0 km/h
2078 03-10-2009 07:39:07 7.5 C 6.88 g/m*3 7.5 C 0 km/h
2079 03-10-2009 07:51:07 7.6 C 7.01 g/m*3 7.6 C 0 km/h
2080 03-10-2009 08:03:07 8.1 C 7.16 g/m*3 8.1 C 0 km/h
2081 03-10-2009 08:15:04 8.7 C 7.01 g/m*3 8.7 C 0 km/h
2082 03-10-2009 08:27:04 9.1 C 6.83 g/m*3 9.1 C 0 km/h
2083 03-10-2009 08:39:04 9.4 C 6.78 g/m*3 9.4 C 0 km/h
2084 03-10-2009 08:51:02 9.6 C 6.6 g/m*3 9.6 C 0 km/h
2085 03-10-2009 09:03:01 9.8 C 6.68 g/m*3 9.8 C 0 km/h
2086 03-10-2009 09:15:01 10 C 6.48 g/m*3 10 C 0 km/h
2087 03-10-2009 09:27:01 10.2 C 6.47 g/m*3 10.2 C 0 km/h
2088 03-10-2009 09:39:02 10.4 C 6.55 g/m*3 10.4 C 0 km/h
2089 03-10-2009 09:51:02 10.6 C 6.54 g/m*3 10.6 C 0 km/h
2090 03-10-2009 10:03:02 10.8 C 6.52 g/m*3 10.8 C 0 km/h
2091 03-10-2009 10:15:02 11 C 6.51 g/m*3 11 C 0 km/h
2092 03-10-2009 10:27:02 11.4 C 6.57 g/m*3 11.4 C 0 km/h
2093 03-10-2009 10:39:02 11.8 C 6.53 g/m*3 11.8 C 0 km/h
2094 03-10-2009 10:51:02 12.1 C 6.43 g/m*3 12.1 C 0 km/h
2095 03-10-2009 11:03:02 12.5 C 6.49 g/m*3 12.5 C 0 km/h
2096 03-10-2009 11:15:02 13.1 C 6.28 g/m*3 13.1 C 0 km/h
2097 03-10-2009 11:27:02 13.4 C 6.28 g/m*3 13.4 C 0 km/h
2098 03-10-2009 11:39:02 13.6 C 6.12 g/m*3 13.6 C 0 km/h
2099 03-10-2009 11:51:02 13.8 C 6.08 g/m*3 13.8 C 0 km/h
2100 03-10-2009 12:03:02 14.1 C 6.07 g/m*3 14.1 C 0 km/h
Sensor: Nr:Datum:Temp:Abs-Feuchte:Windchill:Wind:
Aussen-T/F 2101 03-10-2009 12:15:03 14.4 C 6.06 g/m*3 14.4 C 0 km/h
2102 03-10-2009 12:27:03 14.7 C 6.17 g/m*3 14.7 C 0 km/h
2103 03-10-2009 12:39:02 15.1 C 6.19 g/m*3 15.1 C 0 km/h
2104 03-10-2009 12:51:02 15.4 C 6.04 g/m*3 15.4 C 0 km/h
2105 03-10-2009 13:03:02 15.1 C 6.06 g/m*3 15.1 C 0 km/h
2106 03-10-2009 13:15:03 15.1 C 6.06 g/m*3 15.1 C 0 km/h
2107 03-10-2009 13:27:03 14.9 C 6.12 g/m*3 14.9 C 0 km/h
2108 03-10-2009 13:39:02 15.3 C 6.14 g/m*3 15.3 C 0 km/h
2109 03-10-2009 13:51:02 15.2 C 6.1 g/m*3 15.2 C 0 km/h
2110 03-10-2009 14:03:02 15.3 C 6.01 g/m*3 15.3 C 0 km/h
2111 03-10-2009 14:15:02 15.3 C 6.14 g/m*3 15.3 C 0 km/h
2112 03-10-2009 14:27:03 15.8 C 6.06 g/m*3 15.8 C 0 km/h
2113 03-10-2009 14:39:02 16.1 C 6.03 g/m*3 16.1 C 0 km/h
2114 03-10-2009 14:51:02 15.8 C 6.06 g/m*3 15.8 C 0 km/h
2115 03-10-2009 15:03:01 15.8 C 6.06 g/m*3 15.8 C 0 km/h
2116 03-10-2009 15:15:02 15.9 C 6.09 g/m*3 15.9 C 0 km/h
2117 03-10-2009 15:27:02 16.3 C 5.97 g/m*3 16.3 C 0 km/h
2118 03-10-2009 15:39:02 16.1 C 6.03 g/m*3 16.1 C 0 km/h
2119 03-10-2009 15:51:02 15.7 C 6.15 g/m*3 15.7 C 0 km/h
2120 03-10-2009 16:03:03 15.7 C 6.15 g/m*3 15.7 C 0 km/h
2121 03-10-2009 16:15:02 15.6 C 6.12 g/m*3 15.6 C 0 km/h
2122 03-10-2009 16:27:02 15.4 C 6.04 g/m*3 15.4 C 0 km/h
2123 03-10-2009 16:39:02 15.3 C 6.01 g/m*3 15.3 C 0 km/h
2124 03-10-2009 16:51:02 15.2 C 6.1 g/m*3 15.2 C 0 km/h
2125 03-10-2009 17:03:02 15.2 C 6.1 g/m*3 15.2 C 0 km/h
Sensor: Nr:Datum:Temp:Abs-Feuchte:Windchill:Wind:
Aussen-T/F 2126 03-10-2009 17:15:01 15.4 C 6.04 g/m*3 15.4 C 0 km/h
2127 03-10-2009 17:27:01 15.5 C 6.08 g/m*3 15.5 C 0 km/h
2128 03-10-2009 17:39:02 15.6 C 6.12 g/m*3 15.6 C 0 km/h
2129 03-10-2009 17:51:02 15.5 C 6.08 g/m*3 15.5 C 0 km/h
2130 03-10-2009 18:03:02 15.4 C 6.04 g/m*3 15.4 C 0 km/h
2131 03-10-2009 18:15:01 15.4 C 6.04 g/m*3 15.4 C 0 km/h
2132 03-10-2009 18:27:01 15.7 C 6.15 g/m*3 15.7 C 0 km/h
2133 03-10-2009 18:39:02 15.7 C 6.15 g/m*3 15.7 C 0 km/h
2134 03-10-2009 18:51:01 15.3 C 6.14 g/m*3 15.3 C 0 km/h
2135 03-10-2009 19:03:02 15 C 6.15 g/m*3 15 C 0 km/h
2136 03-10-2009 19:15:02 14.8 C 6.46 g/m*3 14.8 C 0 km/h
2137 03-10-2009 19:27:02 14.6 C 6.51 g/m*3 14.6 C 0 km/h
2138 03-10-2009 19:39:02 14.5 C 6.47 g/m*3 14.5 C 0 km/h
2139 03-10-2009 19:51:02 14.6 C 6.63 g/m*3 14.6 C 0 km/h
2140 03-10-2009 20:03:01 14.3 C 6.63 g/m*3 14.3 C 0 km/h
2141 03-10-2009 20:15:02 13.9 C 6.71 g/m*3 13.9 C 0 km/h
2142 03-10-2009 20:27:02 13.4 C 6.74 g/m*3 13.4 C 0 km/h
2143 03-10-2009 20:39:01 13 C 6.8 g/m*3 13 C 0 km/h
2144 03-10-2009 20:51:02 12.8 C 6.94 g/m*3 12.8 C 0 km/h
2145 03-10-2009 21:03:02 13 C 6.92 g/m*3 13 C 0 km/h
2146 03-10-2009 21:15:01 13 C 6.92 g/m*3 13 C 0 km/h
2147 03-10-2009 21:27:01 12.9 C 7.1 g/m*3 12.9 C 0 km/h
2148 03-10-2009 21:39:01 13.1 C 6.96 g/m*3 13.1 C 0 km/h
2149 03-10-2009 21:51:01 13.1 C 6.96 g/m*3 13.1 C 0 km/h
2150 03-10-2009 22:03:01 13.1 C 6.96 g/m*3 13.1 C 0 km/h
Sensor: Nr:Datum:Temp:Abs-Feuchte:Windchill:Wind:
Aussen-T/F 2151 03-10-2009 22:15:02 13.2 C 7.12 g/m*3 13.2 C 0 km/h
2152 03-10-2009 22:27:02 13.3 C 6.93 g/m*3 13.3 C 0 km/h
2153 03-10-2009 22:39:01 13.4 C 6.97 g/m*3 13.4 C 0 km/h
2154 03-10-2009 22:52:03 13.7 C 6.63 g/m*3 13.7 C 0 km/h
2155 03-10-2009 23:04:03 14 C 6.39 g/m*3 14 C 0 km/h
2156 03-10-2009 23:16:03 14 C 6.39 g/m*3 14 C 0 km/h
2157 03-10-2009 23:28:03 14 C 6.39 g/m*3 14 C 0 km/h
2158 03-10-2009 23:40:03 14 C 6.39 g/m*3 14 C 0 km/h
2159 03-10-2009 23:52:03 13.9 C 6.47 g/m*3 13.9 C 0 km/h
2160 04-10-2009 00:04:03 13.9 C 6.47 g/m*3 13.9 C 0 km/h
2161 04-10-2009 00:16:03 13.8 C 6.55 g/m*3 13.8 C 0 km/h
2162 04-10-2009 00:28:03 13.8 C 6.43 g/m*3 13.8 C 0 km/h
2163 04-10-2009 00:40:03 13.7 C 6.51 g/m*3 13.7 C 0 km/h
2164 04-10-2009 00:52:03 13.5 C 6.43 g/m*3 13.5 C 0 km/h
2165 04-10-2009 01:04:04 13.2 C 6.32 g/m*3 13.2 C 0 km/h
2166 04-10-2009 01:16:04 13.2 C 6.32 g/m*3 13.2 C 0 km/h
2167 04-10-2009 01:28:04 13.2 C 6.32 g/m*3 13.2 C 0 km/h
2168 04-10-2009 01:40:04 12.9 C 6.31 g/m*3 12.9 C 0 km/h
2169 04-10-2009 01:52:04 13 C 6.35 g/m*3 13 C 0 km/h
2170 04-10-2009 02:04:04 13.2 C 6.32 g/m*3 13.2 C 0 km/h
2171 04-10-2009 02:16:04 13.3 C 6.24 g/m*3 13.3 C 0 km/h
2172 04-10-2009 02:28:04 13.3 C 6.35 g/m*3 13.3 C 0 km/h
2173 04-10-2009 02:40:04 13.2 C 6.32 g/m*3 13.2 C 0 km/h
2174 04-10-2009 02:52:04 13.1 C 6.28 g/m*3 13.1 C 0 km/h
2175 04-10-2009 03:04:04 12.9 C 6.42 g/m*3 12.9 C 0 km/h
Sensor: Nr:Datum:Temp:Abs-Feuchte:Windchill:Wind:
Aussen-T/F 2176 04-10-2009 03:16:04 12.8 C 6.38 g/m*3 12.8 C 0 km/h
2177 04-10-2009 03:28:04 12.7 C 6.35 g/m*3 12.7 C 0 km/h
2178 04-10-2009 03:40:04 12.6 C 6.42 g/m*3 12.6 C 0 km/h
2179 04-10-2009 03:52:04 12.8 C 6.38 g/m*3 12.8 C 0 km/h
2180 04-10-2009 04:04:04 12.7 C 6.46 g/m*3 12.7 C 0 km/h
2181 04-10-2009 04:16:04 12.6 C 6.53 g/m*3 12.6 C 0 km/h
2182 04-10-2009 04:28:04 12.7 C 6.46 g/m*3 12.7 C 0 km/h
2183 04-10-2009 04:40:04 12.8 C 6.5 g/m*3 12.8 C 0 km/h
2184 04-10-2009 04:52:04 12.7 C 6.57 g/m*3 12.7 C 0 km/h
2185 04-10-2009 05:04:04 12.6 C 6.53 g/m*3 12.6 C 0 km/h
2186 04-10-2009 05:16:05 12.9 C 6.65 g/m*3 12.9 C 0 km/h
2187 04-10-2009 05:28:05 13 C 6.58 g/m*3 13 C 0 km/h
2188 04-10-2009 05:40:05 13.1 C 6.5 g/m*3 13.1 C 0 km/h
2189 04-10-2009 05:52:05 13.2 C 6.54 g/m*3 13.2 C 0 km/h
2190 04-10-2009 06:04:05 13.1 C 6.5 g/m*3 13.1 C 0 km/h
2191 04-10-2009 06:16:05 13.1 C 6.5 g/m*3 13.1 C 0 km/h
2192 04-10-2009 06:28:05 13.1 C 6.5 g/m*3 13.1 C 0 km/h
2193 04-10-2009 06:40:05 13 C 6.46 g/m*3 13 C 0 km/h
2194 04-10-2009 06:52:05 12.8 C 6.61 g/m*3 12.8 C 0 km/h
2195 04-10-2009 07:04:05 12.9 C 6.65 g/m*3 12.9 C 0 km/h
2196 04-10-2009 07:16:05 13 C 6.46 g/m*3 13 C 0 km/h
2197 04-10-2009 07:28:05 13 C 6.58 g/m*3 13 C 0 km/h
2198 04-10-2009 07:40:05 12.9 C 6.65 g/m*3 12.9 C 0 km/h
2199 04-10-2009 07:52:05 12.8 C 6.61 g/m*3 12.8 C 0 km/h
2200 04-10-2009 08:04:05 12.9 C 6.76 g/m*3 12.9 C 0 km/h
Sensor: Nr:Datum:Temp:Abs-Feuchte:Windchill:Wind:
Aussen-T/F 2201 04-10-2009 08:16:05 12.9 C 6.76 g/m*3 12.9 C 0 km/h
2202 04-10-2009 08:28:05 13 C 6.69 g/m*3 13 C 0 km/h
2203 04-10-2009 08:40:03 13.1 C 6.62 g/m*3 13.1 C 0 km/h
2204 04-10-2009 08:52:02 13.3 C 6.7 g/m*3 13.3 C 0 km/h
2205 04-10-2009 09:04:02 13.5 C 6.78 g/m*3 13.5 C 0 km/h
2206 04-10-2009 09:16:02 13.7 C 6.87 g/m*3 13.7 C 0 km/h
2207 04-10-2009 09:28:02 13.8 C 6.91 g/m*3 13.8 C 0 km/h
2208 04-10-2009 09:40:02 13.8 C 6.91 g/m*3 13.8 C 0 km/h
2209 04-10-2009 09:52:01 13.9 C 7.07 g/m*3 13.9 C 0 km/h
2210 04-10-2009 10:04:02 14.1 C 7.04 g/m*3 14.1 C 0 km/h
2211 04-10-2009 10:16:01 14.2 C 6.96 g/m*3 14.2 C 0 km/h
2212 04-10-2009 10:28:01 14.6 C 7.13 g/m*3 14.6 C 0 km/h
2213 04-10-2009 10:40:01 14.8 C 7.09 g/m*3 14.8 C 0 km/h
2214 04-10-2009 10:52:01 14.8 C 7.09 g/m*3 14.8 C 0 km/h
2215 04-10-2009 11:04:02 14.7 C 7.18 g/m*3 14.7 C 0 km/h
2216 04-10-2009 11:16:01 14.9 C 7.26 g/m*3 14.9 C 0 km/h
2217 04-10-2009 11:28:01 15.3 C 7.31 g/m*3 15.3 C 0 km/h
2218 04-10-2009 11:40:02 15 C 7.18 g/m*3 15 C 0 km/h
2219 04-10-2009 11:52:01 14.8 C 7.47 g/m*3 14.8 C 0 km/h
2220 04-10-2009 12:04:02 14.8 C 7.47 g/m*3 14.8 C 0 km/h
2221 04-10-2009 12:16:02 14.7 C 7.55 g/m*3 14.7 C 0 km/h
2222 04-10-2009 12:28:02 14.7 C 7.55 g/m*3 14.7 C 0 km/h
2223 04-10-2009 12:40:01 14.9 C 7.65 g/m*3 14.9 C 0 km/h
2224 04-10-2009 12:52:01 15.3 C 7.84 g/m*3 15.3 C 0 km/h
2225 04-10-2009 13:04:01 15.6 C 7.58 g/m*3 15.6 C 0 km/h
Sensor: Nr:Datum:Temp:Abs-Feuchte:Windchill:Wind:
Aussen-T/F 2226 04-10-2009 13:16:02 15.8 C 7.54 g/m*3 15.8 C 0 km/h
2227 04-10-2009 13:28:02 15.5 C 7.67 g/m*3 15.5 C 0 km/h
2228 04-10-2009 13:40:01 15.4 C 7.62 g/m*3 15.4 C 0 km/h
2229 04-10-2009 13:52:02 15.6 C 7.58 g/m*3 15.6 C 0 km/h
2230 04-10-2009 14:04:01 15.8 C 7.81 g/m*3 15.8 C 0 km/h
2231 04-10-2009 14:16:01 15.9 C 7.72 g/m*3 15.9 C 0 km/h
2232 04-10-2009 14:28:01 15.8 C 7.67 g/m*3 15.8 C 0 km/h
2233 04-10-2009 14:40:01 15.6 C 7.58 g/m*3 15.6 C 0 km/h
2234 04-10-2009 14:52:02 15.9 C 7.72 g/m*3 15.9 C 0 km/h
2235 04-10-2009 15:04:02 16.2 C 7.58 g/m*3 16.2 C 0 km/h
2236 04-10-2009 15:16:02 16 C 7.63 g/m*3 16 C 0 km/h
2237 04-10-2009 15:28:02 15.8 C 7.81 g/m*3 15.8 C 0 km/h
2238 04-10-2009 15:40:02 15.8 C 7.81 g/m*3 15.8 C 0 km/h
2239 04-10-2009 15:52:02 15.8 C 7.81 g/m*3 15.8 C 0 km/h
2240 04-10-2009 16:04:01 15.6 C 7.98 g/m*3 15.6 C 0 km/h
2241 04-10-2009 16:16:01 14.6 C 8.76 g/m*3 14.6 C 0 km/h
2242 04-10-2009 16:28:01 13.6 C 9.53 g/m*3 13.6 C 0 km/h
2243 04-10-2009 16:40:02 13.2 C 9.76 g/m*3 13.2 C 0 km/h
2244 04-10-2009 16:52:02 13.3 C 10.05 g/m*3 13.3 C 0 km/h
2245 04-10-2009 17:04:02 13.3 C 10.17 g/m*3 13.3 C 0 km/h
2246 04-10-2009 17:16:01 13.2 C 10.1 g/m*3 13.2 C 0 km/h
2247 04-10-2009 17:28:01 13.3 C 10.28 g/m*3 13.3 C 0 km/h
2248 04-10-2009 17:40:02 13.2 C 10.22 g/m*3 13.2 C 0 km/h
2249 04-10-2009 17:52:02 13.2 C 10.22 g/m*3 13.2 C 0 km/h
2250 04-10-2009 18:04:02 13.1 C 10.27 g/m*3 13.1 C 0 km/h
Sensor: Nr:Datum:Temp:Abs-Feuchte:Windchill:Wind:
Aussen-T/F 2251 04-10-2009 18:16:02 13.1 C 10.27 g/m*3 13.1 C 0 km/h
2252 04-10-2009 18:28:02 12.9 C 10.14 g/m*3 12.9 C 0 km/h
2253 04-10-2009 18:40:02 12.8 C 10.08 g/m*3 12.8 C 0 km/h
2254 04-10-2009 18:52:02 12.9 C 10.14 g/m*3 12.9 C 0 km/h
2255 04-10-2009 19:04:02 12.9 C 10.14 g/m*3 12.9 C 0 km/h
2256 04-10-2009 19:16:03 12.9 C 10.14 g/m*3 12.9 C 0 km/h
2257 04-10-2009 19:28:03 13 C 10.21 g/m*3 13 C 0 km/h
2258 04-10-2009 19:40:02 13 C 10.21 g/m*3 13 C 0 km/h
2259 04-10-2009 19:52:02 13 C 10.09 g/m*3 13 C 0 km/h
2260 04-10-2009 20:04:02 12.9 C 10.03 g/m*3 12.9 C 0 km/h
2261 04-10-2009 20:16:02 12.6 C 9.85 g/m*3 12.6 C 0 km/h
2262 04-10-2009 20:28:02 12.5 C 9.78 g/m*3 12.5 C 0 km/h
2263 04-10-2009 20:40:02 12.4 C 9.83 g/m*3 12.4 C 0 km/h
2264 04-10-2009 20:52:02 12.2 C 9.71 g/m*3 12.2 C 0 km/h
2265 04-10-2009 21:04:02 12.2 C 9.71 g/m*3 12.2 C 0 km/h
2266 04-10-2009 21:16:01 12.2 C 9.82 g/m*3 12.2 C 0 km/h
2267 04-10-2009 21:28:01 12.2 C 9.82 g/m*3 12.2 C 0 km/h
2268 04-10-2009 21:40:02 12.2 C 9.82 g/m*3 12.2 C 0 km/h
2269 04-10-2009 21:52:01 12.2 C 9.82 g/m*3 12.2 C 0 km/h
2270 04-10-2009 22:04:02 12.2 C 9.82 g/m*3 12.2 C 0 km/h
2271 04-10-2009 22:16:02 12.2 C 9.93 g/m*3 12.2 C 0 km/h
2272 04-10-2009 22:28:02 12.1 C 9.87 g/m*3 12.1 C 0 km/h
2273 04-10-2009 22:41:03 12.1 C 9.87 g/m*3 12.1 C 0 km/h
2274 04-10-2009 22:53:03 12.1 C 9.87 g/m*3 12.1 C 0 km/h
2275 04-10-2009 23:05:03 12.1 C 9.87 g/m*3 12.1 C 0 km/h
Sensor: Nr:Datum:Temp:Abs-Feuchte:Windchill:Wind:
Aussen-T/F 2276 04-10-2009 23:17:03 12.1 C 9.87 g/m*3 12.1 C 0 km/h
2277 04-10-2009 23:29:03 12.1 C 9.87 g/m*3 12.1 C 0 km/h
2278 04-10-2009 23:41:03 12.1 C 9.76 g/m*3 12.1 C 0 km/h
2279 04-10-2009 23:53:03 12.1 C 9.76 g/m*3 12.1 C 0 km/h
2280 05-10-2009 00:05:03 11.9 C 9.74 g/m*3 11.9 C 0 km/h
2281 05-10-2009 00:17:04 11.9 C 9.74 g/m*3 11.9 C 0 km/h
2282 05-10-2009 00:29:04 11.9 C 9.74 g/m*3 11.9 C 0 km/h
2283 05-10-2009 00:41:04 11.9 C 9.74 g/m*3 11.9 C 0 km/h
2284 05-10-2009 00:53:04 11.8 C 9.68 g/m*3 11.8 C 0 km/h
2285 05-10-2009 01:05:04 11.7 C 9.62 g/m*3 11.7 C 0 km/h
2286 05-10-2009 01:17:04 11.7 C 9.62 g/m*3 11.7 C 0 km/h
2287 05-10-2009 01:29:04 11.6 C 9.56 g/m*3 11.6 C 0 km/h
2288 05-10-2009 01:41:04 11.6 C 9.56 g/m*3 11.6 C 0 km/h
2289 05-10-2009 01:53:04 11.5 C 9.61 g/m*3 11.5 C 0 km/h
2290 05-10-2009 02:05:04 11.3 C 9.49 g/m*3 11.3 C 0 km/h
2291 05-10-2009 02:17:04 11.2 C 9.43 g/m*3 11.2 C 0 km/h
2292 05-10-2009 02:29:04 11.2 C 9.43 g/m*3 11.2 C 0 km/h
2293 05-10-2009 02:41:04 11 C 9.31 g/m*3 11 C 0 km/h
2294 05-10-2009 02:53:04 11 C 9.31 g/m*3 11 C 0 km/h
2295 05-10-2009 03:05:04 11 C 9.31 g/m*3 11 C 0 km/h
2296 05-10-2009 03:17:04 11.1 C 9.47 g/m*3 11.1 C 0 km/h
2297 05-10-2009 03:29:04 11.1 C 9.47 g/m*3 11.1 C 0 km/h
2298 05-10-2009 03:41:04 11.1 C 9.47 g/m*3 11.1 C 0 km/h
2299 05-10-2009 03:53:04 11.2 C 9.53 g/m*3 11.2 C 0 km/h
2300 05-10-2009 04:05:04 11.3 C 9.59 g/m*3 11.3 C 0 km/h
Sensor: Nr:Datum:Temp:Abs-Feuchte:Windchill:Wind:
Aussen-T/F 2301 05-10-2009 04:17:04 11.2 C 9.53 g/m*3 11.2 C 0 km/h
2302 05-10-2009 04:29:05 11.2 C 9.53 g/m*3 11.2 C 0 km/h
2303 05-10-2009 04:41:05 11.1 C 9.47 g/m*3 11.1 C 0 km/h
2304 05-10-2009 04:53:05 11.1 C 9.47 g/m*3 11.1 C 0 km/h
2305 05-10-2009 05:05:05 11 C 9.41 g/m*3 11 C 0 km/h
2306 05-10-2009 05:17:05 11 C 9.41 g/m*3 11 C 0 km/h
2307 05-10-2009 05:29:05 11 C 9.41 g/m*3 11 C 0 km/h
2308 05-10-2009 05:41:05 11 C 9.41 g/m*3 11 C 0 km/h
2309 05-10-2009 05:53:05 11 C 9.51 g/m*3 11 C 0 km/h
2310 05-10-2009 06:05:05 11 C 9.41 g/m*3 11 C 0 km/h
2311 05-10-2009 06:17:05 11.1 C 9.57 g/m*3 11.1 C 0 km/h
2312 05-10-2009 06:29:05 11.1 C 9.57 g/m*3 11.1 C 0 km/h
2313 05-10-2009 06:41:05 11.1 C 9.57 g/m*3 11.1 C 0 km/h
2314 05-10-2009 06:53:05 11.1 C 9.57 g/m*3 11.1 C 0 km/h
2315 05-10-2009 07:05:03 11.1 C 9.57 g/m*3 11.1 C 0 km/h
2316 05-10-2009 07:17:03 11.1 C 9.57 g/m*3 11.1 C 0 km/h
2317 05-10-2009 07:29:03 11.1 C 9.57 g/m*3 11.1 C 0 km/h
2318 05-10-2009 07:41:03 11.2 C 9.63 g/m*3 11.2 C 0 km/h
2319 05-10-2009 07:53:02 11.2 C 9.63 g/m*3 11.2 C 0 km/h
2320 05-10-2009 08:05:02 11.3 C 9.69 g/m*3 11.3 C 0 km/h
2321 05-10-2009 08:17:03 11.4 C 9.75 g/m*3 11.4 C 0 km/h
2322 05-10-2009 08:29:03 11.4 C 9.75 g/m*3 11.4 C 0 km/h
2323 05-10-2009 08:41:02 11.6 C 9.87 g/m*3 11.6 C 0 km/h
2324 05-10-2009 08:53:01 11.8 C 10 g/m*3 11.8 C 0 km/h
2325 05-10-2009 09:05:01 11.9 C 10.06 g/m*3 11.9 C 0 km/h
Sensor: Nr:Datum:Temp:Abs-Feuchte:Windchill:Wind:
Aussen-T/F 2326 05-10-2009 09:17:02 12.1 C 10.19 g/m*3 12.1 C 0 km/h
2327 05-10-2009 09:29:02 12.2 C 10.25 g/m*3 12.2 C 0 km/h
2328 05-10-2009 09:41:01 12.3 C 10.32 g/m*3 12.3 C 0 km/h
2329 05-10-2009 09:53:02 12.4 C 10.38 g/m*3 12.4 C 0 km/h
2330 05-10-2009 10:05:01 12.8 C 10.64 g/m*3 12.8 C 0 km/h
2331 05-10-2009 10:17:02 13 C 10.66 g/m*3 13 C 0 km/h
2332 05-10-2009 10:29:02 13.2 C 10.79 g/m*3 13.2 C 0 km/h
2333 05-10-2009 10:41:01 13.2 C 10.68 g/m*3 13.2 C 0 km/h
2334 05-10-2009 10:53:02 13.4 C 10.69 g/m*3 13.4 C 0 km/h
2335 05-10-2009 11:05:02 13.3 C 10.4 g/m*3 13.3 C 0 km/h
2336 05-10-2009 11:17:02 13.4 C 10 g/m*3 13.4 C 0 km/h
2337 05-10-2009 11:29:02 13.8 C 10.13 g/m*3 13.8 C 0 km/h
2338 05-10-2009 11:41:02 14.2 C 10.26 g/m*3 14.2 C 0 km/h
2339 05-10-2009 11:53:02 14.1 C 10.07 g/m*3 14.1 C 0 km/h
2340 05-10-2009 12:05:01 14.6 C 10.39 g/m*3 14.6 C 0 km/h
2341 05-10-2009 12:17:02 15.2 C 10.25 g/m*3 15.2 C 0 km/h
2342 05-10-2009 12:29:02 15.4 C 9.99 g/m*3 15.4 C 0 km/h
2343 05-10-2009 12:41:02 15.5 C 9.91 g/m*3 15.5 C 0 km/h
2344 05-10-2009 12:53:02 15.4 C 9.85 g/m*3 15.4 C 0 km/h
2345 05-10-2009 13:05:03 15.3 C 10.06 g/m*3 15.3 C 0 km/h
2346 05-10-2009 13:17:02 14.9 C 10.07 g/m*3 14.9 C 0 km/h
2347 05-10-2009 13:29:02 14.8 C 10.26 g/m*3 14.8 C 0 km/h
2348 05-10-2009 13:41:02 14.7 C 10.2 g/m*3 14.7 C 0 km/h
2349 05-10-2009 13:53:01 14.7 C 10.45 g/m*3 14.7 C 0 km/h
2350 05-10-2009 14:05:02 14.7 C 10.45 g/m*3 14.7 C 0 km/h
Sensor: Nr:Datum:Temp:Abs-Feuchte:Windchill:Wind:
Aussen-T/F 2351 05-10-2009 14:17:01 14.6 C 10.51 g/m*3 14.6 C 0 km/h
2352 05-10-2009 14:29:01 14.4 C 10.26 g/m*3 14.4 C 0 km/h
2353 05-10-2009 14:41:02 14.3 C 10.2 g/m*3 14.3 C 0 km/h
2354 05-10-2009 14:53:01 14.1 C 10.19 g/m*3 14.1 C 0 km/h
2355 05-10-2009 15:05:02 14 C 10.13 g/m*3 14 C 0 km/h
2356 05-10-2009 15:17:02 13.6 C 10 g/m*3 13.6 C 0 km/h
2357 05-10-2009 15:29:02 13.5 C 10.18 g/m*3 13.5 C 0 km/h
2358 05-10-2009 15:41:01 13.5 C 10.29 g/m*3 13.5 C 0 km/h
2359 05-10-2009 15:53:01 13.7 C 10.54 g/m*3 13.7 C 0 km/h
2360 05-10-2009 16:05:02 13.8 C 10.6 g/m*3 13.8 C 0 km/h
2361 05-10-2009 16:17:02 13.5 C 10.53 g/m*3 13.5 C 0 km/h
2362 05-10-2009 16:29:02 13.4 C 10.46 g/m*3 13.4 C 0 km/h
2363 05-10-2009 16:41:01 13.2 C 10.33 g/m*3 13.2 C 0 km/h
2364 05-10-2009 16:53:02 13.1 C 10.38 g/m*3 13.1 C 0 km/h
2365 05-10-2009 17:05:01 13 C 10.32 g/m*3 13 C 0 km/h
2366 05-10-2009 17:17:02 12.7 C 10.24 g/m*3 12.7 C 0 km/h
2367 05-10-2009 17:29:02 12.4 C 10.05 g/m*3 12.4 C 0 km/h
2368 05-10-2009 17:41:01 12.3 C 9.99 g/m*3 12.3 C 0 km/h
2369 05-10-2009 17:53:02 12.1 C 9.87 g/m*3 12.1 C 0 km/h
2370 05-10-2009 18:05:02 12.2 C 9.82 g/m*3 12.2 C 0 km/h
2371 05-10-2009 18:17:02 12 C 9.8 g/m*3 12 C 0 km/h
2372 05-10-2009 18:29:02 12 C 9.8 g/m*3 12 C 0 km/h
2373 05-10-2009 18:41:02 12 C 9.8 g/m*3 12 C 0 km/h
2374 05-10-2009 18:53:02 12 C 9.91 g/m*3 12 C 0 km/h
2375 05-10-2009 19:05:01 12 C 9.91 g/m*3 12 C 0 km/h
Sensor: Nr:Datum:Temp:Abs-Feuchte:Windchill:Wind:
Aussen-T/F 2376 05-10-2009 19:17:01 12 C 9.91 g/m*3 12 C 0 km/h
2377 05-10-2009 19:29:01 12 C 9.91 g/m*3 12 C 0 km/h
2378 05-10-2009 19:41:02 12 C 10.02 g/m*3 12 C 0 km/h
2379 05-10-2009 19:53:02 12 C 10.02 g/m*3 12 C 0 km/h
2380 05-10-2009 20:05:02 12 C 10.02 g/m*3 12 C 0 km/h
2381 05-10-2009 20:17:02 12 C 10.02 g/m*3 12 C 0 km/h
2382 05-10-2009 20:29:02 12 C 10.02 g/m*3 12 C 0 km/h
2383 05-10-2009 20:41:02 12 C 10.02 g/m*3 12 C 0 km/h
2384 05-10-2009 20:53:01 12.3 C 10.32 g/m*3 12.3 C 0 km/h
2385 05-10-2009 21:05:01 12.2 C 10.25 g/m*3 12.2 C 0 km/h
2386 05-10-2009 21:17:02 12.1 C 10.19 g/m*3 12.1 C 0 km/h
2387 05-10-2009 21:29:02 12.1 C 10.19 g/m*3 12.1 C 0 km/h
2388 05-10-2009 21:41:01 12.2 C 10.25 g/m*3 12.2 C 0 km/h
2389 05-10-2009 21:53:03 12.2 C 10.25 g/m*3 12.2 C 0 km/h
2390 05-10-2009 22:05:02 12.2 C 10.25 g/m*3 12.2 C 0 km/h
2391 05-10-2009 22:18:02 12.3 C 10.32 g/m*3 12.3 C 0 km/h
2392 05-10-2009 22:30:02 12.3 C 10.32 g/m*3 12.3 C 0 km/h
2393 05-10-2009 22:42:03 12.3 C 10.32 g/m*3 12.3 C 0 km/h
2394 05-10-2009 22:54:03 12.4 C 10.38 g/m*3 12.4 C 0 km/h
2395 05-10-2009 23:06:03 12.4 C 10.38 g/m*3 12.4 C 0 km/h
2396 05-10-2009 23:18:03 12.4 C 10.38 g/m*3 12.4 C 0 km/h
2397 05-10-2009 23:30:03 12.4 C 10.38 g/m*3 12.4 C 0 km/h
2398 05-10-2009 23:42:03 12.5 C 10.44 g/m*3 12.5 C 0 km/h
2399 05-10-2009 23:54:03 12.5 C 10.44 g/m*3 12.5 C 0 km/h
2400 06-10-2009 00:06:03 12.6 C 10.51 g/m*3 12.6 C 0 km/h
Sensor: Nr:Datum:Temp:Abs-Feuchte:Windchill:Wind:
Aussen-T/F 2401 06-10-2009 00:18:03 12.6 C 10.51 g/m*3 12.6 C 0 km/h
2402 06-10-2009 00:30:03 12.6 C 10.51 g/m*3 12.6 C 0 km/h
2403 06-10-2009 00:42:03 12.7 C 10.58 g/m*3 12.7 C 0 km/h
2404 06-10-2009 00:54:03 12.6 C 10.51 g/m*3 12.6 C 0 km/h
2405 06-10-2009 01:06:03 12.6 C 10.51 g/m*3 12.6 C 0 km/h
2406 06-10-2009 01:18:03 12.7 C 10.58 g/m*3 12.7 C 0 km/h
2407 06-10-2009 01:30:03 12.8 C 10.64 g/m*3 12.8 C 0 km/h
2408 06-10-2009 01:42:03 12.8 C 10.64 g/m*3 12.8 C 0 km/h
2409 06-10-2009 01:54:03 12.9 C 10.71 g/m*3 12.9 C 0 km/h
2410 06-10-2009 02:06:03 12.9 C 10.71 g/m*3 12.9 C 0 km/h
2411 06-10-2009 02:18:03 12.8 C 10.64 g/m*3 12.8 C 0 km/h
2412 06-10-2009 02:30:03 12.9 C 10.71 g/m*3 12.9 C 0 km/h
2413 06-10-2009 02:42:04 13 C 10.77 g/m*3 13 C 0 km/h
2414 06-10-2009 02:54:04 13 C 10.77 g/m*3 13 C 0 km/h
2415 06-10-2009 03:06:04 13 C 10.77 g/m*3 13 C 0 km/h
2416 06-10-2009 03:18:04 12.9 C 10.71 g/m*3 12.9 C 0 km/h
2417 06-10-2009 03:30:04 13.1 C 10.84 g/m*3 13.1 C 0 km/h
2418 06-10-2009 03:42:04 13.2 C 10.91 g/m*3 13.2 C 0 km/h
2419 06-10-2009 03:54:04 13.5 C 11.11 g/m*3 13.5 C 0 km/h
2420 06-10-2009 04:06:04 13.7 C 11.25 g/m*3 13.7 C 0 km/h
2421 06-10-2009 04:18:04 14.4 C 11.74 g/m*3 14.4 C 0 km/h
2422 06-10-2009 04:30:04 14.9 C 12.11 g/m*3 14.9 C 0 km/h
2423 06-10-2009 04:42:04 14.3 C 11.67 g/m*3 14.3 C 0 km/h
2424 06-10-2009 04:54:04 14.2 C 11.6 g/m*3 14.2 C 0 km/h
2425 06-10-2009 05:06:04 14.5 C 11.82 g/m*3 14.5 C 0 km/h
Sensor: Nr:Datum:Temp:Abs-Feuchte:Windchill:Wind:
Aussen-T/F 2426 06-10-2009 05:18:04 14.7 C 11.96 g/m*3 14.7 C 0 km/h
2427 06-10-2009 05:30:04 15.2 C 12.33 g/m*3 15.2 C 0 km/h
2428 06-10-2009 05:42:04 15.3 C 12.41 g/m*3 15.3 C 0 km/h
2429 06-10-2009 05:54:04 15.2 C 12.33 g/m*3 15.2 C 0 km/h
2430 06-10-2009 06:06:04 15.2 C 12.33 g/m*3 15.2 C 0 km/h
2431 06-10-2009 06:18:04 15.2 C 12.33 g/m*3 15.2 C 0 km/h
2432 06-10-2009 06:30:05 15.2 C 12.33 g/m*3 15.2 C 0 km/h
2433 06-10-2009 06:42:05 15.2 C 12.33 g/m*3 15.2 C 0 km/h
2434 06-10-2009 06:54:05 15.2 C 12.33 g/m*3 15.2 C 0 km/h
2435 06-10-2009 07:06:01 15.3 C 12.41 g/m*3 15.3 C 0 km/h
2436 06-10-2009 07:18:02 15.4 C 12.35 g/m*3 15.4 C 0 km/h
2437 06-10-2009 07:30:02 15.4 C 12.22 g/m*3 15.4 C 0 km/h
2438 06-10-2009 07:42:01 15.3 C 12.01 g/m*3 15.3 C 0 km/h
2439 06-10-2009 07:54:02 15.2 C 11.94 g/m*3 15.2 C 0 km/h
2440 06-10-2009 08:06:02 15.1 C 11.87 g/m*3 15.1 C 0 km/h
2441 06-10-2009 08:18:02 15.1 C 11.87 g/m*3 15.1 C 0 km/h
2442 06-10-2009 08:30:02 15 C 11.8 g/m*3 15 C 0 km/h
2443 06-10-2009 08:42:02 15.2 C 11.94 g/m*3 15.2 C 0 km/h
2444 06-10-2009 08:54:02 15.3 C 12.14 g/m*3 15.3 C 0 km/h
2445 06-10-2009 09:06:02 15.3 C 12.01 g/m*3 15.3 C 0 km/h
2446 06-10-2009 09:18:02 15.2 C 11.94 g/m*3 15.2 C 0 km/h
2447 06-10-2009 09:30:02 15.1 C 11.87 g/m*3 15.1 C 0 km/h
2448 06-10-2009 09:42:02 15.4 C 12.09 g/m*3 15.4 C 0 km/h
2449 06-10-2009 09:54:02 15.7 C 12.31 g/m*3 15.7 C 0 km/h
2450 06-10-2009 10:06:02 15.8 C 12.25 g/m*3 15.8 C 0 km/h
Sensor: Nr:Datum:Temp:Abs-Feuchte:Windchill:Wind:
Aussen-T/F 2451 06-10-2009 10:18:02 16.3 C 12.49 g/m*3 16.3 C 0 km/h
2452 06-10-2009 10:30:02 16.5 C 12.5 g/m*3 16.5 C 0 km/h
2453 06-10-2009 10:42:02 16.7 C 12.51 g/m*3 16.7 C 0 km/h
2454 06-10-2009 10:54:02 17 C 11.14 g/m*3 17 C 0 km/h
2455 06-10-2009 11:06:03 17.6 C 10.5 g/m*3 17.6 C 0 km/h
2456 06-10-2009 11:18:03 17.7 C 10.41 g/m*3 17.7 C 0 km/h
2457 06-10-2009 11:30:03 17.9 C 10.54 g/m*3 17.9 C 0 km/h
2458 06-10-2009 11:42:03 17.8 C 10.17 g/m*3 17.8 C 0 km/h
2459 06-10-2009 11:54:02 18.1 C 10.2 g/m*3 18.1 C 0 km/h
2460 06-10-2009 12:06:02 18.2 C 10.1 g/m*3 18.2 C 0 km/h
2461 06-10-2009 12:18:03 18 C 10.29 g/m*3 18 C 0 km/h
2462 06-10-2009 12:30:03 17.9 C 10.38 g/m*3 17.9 C 0 km/h
2463 06-10-2009 12:42:02 17.9 C 10.54 g/m*3 17.9 C 0 km/h
2464 06-10-2009 12:54:02 17.8 C 10.93 g/m*3 17.8 C 0 km/h
2465 06-10-2009 13:06:02 17.8 C 11.23 g/m*3 17.8 C 0 km/h
2466 06-10-2009 13:18:03 17.8 C 11.23 g/m*3 17.8 C 0 km/h
2467 06-10-2009 13:30:03 17.2 C 11.28 g/m*3 17.2 C 0 km/h
2468 06-10-2009 13:42:02 17 C 11.43 g/m*3 17 C 0 km/h
2469 06-10-2009 13:54:02 16.9 C 11.65 g/m*3 16.9 C 0 km/h
2470 06-10-2009 14:06:02 17.1 C 11.79 g/m*3 17.1 C 0 km/h
2471 06-10-2009 14:18:02 17.4 C 12 g/m*3 17.4 C 0 km/h
2472 06-10-2009 14:30:02 17.4 C 12.15 g/m*3 17.4 C 0 km/h
2473 06-10-2009 14:42:02 17 C 12.01 g/m*3 17 C 0 km/h
2474 06-10-2009 14:54:02 16.8 C 12.15 g/m*3 16.8 C 0 km/h
2475 06-10-2009 15:06:01 16.8 C 12.3 g/m*3 16.8 C 0 km/h
Sensor: Nr:Datum:Temp:Abs-Feuchte:Windchill:Wind:
Aussen-T/F 2476 06-10-2009 15:18:02 16.9 C 12.51 g/m*3 16.9 C 0 km/h
2477 06-10-2009 15:30:02 17.1 C 12.66 g/m*3 17.1 C 0 km/h
2478 06-10-2009 15:42:02 17 C 12.59 g/m*3 17 C 0 km/h
2479 06-10-2009 15:54:02 17.3 C 12.96 g/m*3 17.3 C 0 km/h
2480 06-10-2009 16:06:03 17.5 C 13.12 g/m*3 17.5 C 0 km/h
2481 06-10-2009 16:18:02 17.4 C 13.04 g/m*3 17.4 C 0 km/h
2482 06-10-2009 16:30:02 17.2 C 12.89 g/m*3 17.2 C 0 km/h
2483 06-10-2009 16:42:03 17.1 C 12.96 g/m*3 17.1 C 0 km/h
2484 06-10-2009 16:54:02 17.2 C 13.03 g/m*3 17.2 C 0 km/h
2485 06-10-2009 17:06:02 17.1 C 12.96 g/m*3 17.1 C 0 km/h
2486 06-10-2009 17:18:01 17 C 12.88 g/m*3 17 C 0 km/h
2487 06-10-2009 17:30:01 17.1 C 12.96 g/m*3 17.1 C 0 km/h
2488 06-10-2009 17:42:02 17.1 C 13.1 g/m*3 17.1 C 0 km/h
2489 06-10-2009 17:54:02 17.1 C 13.1 g/m*3 17.1 C 0 km/h
2490 06-10-2009 18:06:02 16.8 C 13.01 g/m*3 16.8 C 0 km/h
2491 06-10-2009 18:18:01 16.8 C 13.01 g/m*3 16.8 C 0 km/h
2492 06-10-2009 18:30:01 16.7 C 13.07 g/m*3 16.7 C 0 km/h
2493 06-10-2009 18:42:02 16.7 C 13.07 g/m*3 16.7 C 0 km/h
2494 06-10-2009 18:54:02 16.7 C 13.07 g/m*3 16.7 C 0 km/h
2495 06-10-2009 19:06:02 16.7 C 13.22 g/m*3 16.7 C 0 km/h
2496 06-10-2009 19:18:02 17.2 C 13.62 g/m*3 17.2 C 0 km/h
2497 06-10-2009 19:30:02 17.5 C 13.87 g/m*3 17.5 C 0 km/h
2498 06-10-2009 19:42:02 18.1 C 14.06 g/m*3 18.1 C 0 km/h
2499 06-10-2009 19:54:01 18.2 C 13.68 g/m*3 18.2 C 0 km/h
2500 06-10-2009 20:06:02 18.4 C 13.53 g/m*3 18.4 C 0 km/h
Sensor: Nr:Datum:Temp:Abs-Feuchte:Windchill:Wind:
Aussen-T/F 2501 06-10-2009 20:18:02 18.3 C 13.29 g/m*3 18.3 C 0 km/h
2502 06-10-2009 20:30:02 18.4 C 13.37 g/m*3 18.4 C 0 km/h
2503 06-10-2009 20:42:02 18.4 C 13.21 g/m*3 18.4 C 0 km/h
2504 06-10-2009 20:54:01 18.5 C 13.13 g/m*3 18.5 C 0 km/h
2505 06-10-2009 21:06:02 18.4 C 13.05 g/m*3 18.4 C 0 km/h
2506 06-10-2009 21:18:02 18.3 C 12.98 g/m*3 18.3 C 0 km/h
2507 06-10-2009 21:30:02 18.4 C 13.05 g/m*3 18.4 C 0 km/h
2508 06-10-2009 21:42:02 18.5 C 13.13 g/m*3 18.5 C 0 km/h
2509 06-10-2009 21:54:02 18.5 C 13.13 g/m*3 18.5 C 0 km/h
2510 06-10-2009 22:06:01 18.4 C 13.05 g/m*3 18.4 C 0 km/h
2511 06-10-2009 22:19:03 18.3 C 13.13 g/m*3 18.3 C 0 km/h
2512 06-10-2009 22:31:04 18.3 C 13.13 g/m*3 18.3 C 0 km/h
2513 06-10-2009 22:43:04 18.3 C 13.13 g/m*3 18.3 C 0 km/h
2514 06-10-2009 22:55:04 18.3 C 13.13 g/m*3 18.3 C 0 km/h
2515 06-10-2009 23:07:04 18.3 C 13.13 g/m*3 18.3 C 0 km/h
2516 06-10-2009 23:19:04 18.1 C 13.13 g/m*3 18.1 C 0 km/h
2517 06-10-2009 23:31:04 18 C 13.21 g/m*3 18 C 0 km/h
2518 06-10-2009 23:43:04 17.8 C 13.2 g/m*3 17.8 C 0 km/h
2519 06-10-2009 23:55:04 17.7 C 13.13 g/m*3 17.7 C 0 km/h
2520 07-10-2009 00:07:04 17.8 C 13.36 g/m*3 17.8 C 0 km/h
2521 07-10-2009 00:19:04 17.9 C 13.44 g/m*3 17.9 C 0 km/h
2522 07-10-2009 00:31:04 17.8 C 13.2 g/m*3 17.8 C 0 km/h
2523 07-10-2009 00:43:04 17.7 C 13.13 g/m*3 17.7 C 0 km/h
2524 07-10-2009 00:55:04 18 C 13.21 g/m*3 18 C 0 km/h
2525 07-10-2009 01:07:04 17.9 C 13.28 g/m*3 17.9 C 0 km/h
Sensor: Nr:Datum:Temp:Abs-Feuchte:Windchill:Wind:
Aussen-T/F 2526 07-10-2009 01:19:04 18 C 13.06 g/m*3 18 C 0 km/h
2527 07-10-2009 01:31:04 18.1 C 13.13 g/m*3 18.1 C 0 km/h
2528 07-10-2009 01:43:04 17.8 C 13.05 g/m*3 17.8 C 0 km/h
2529 07-10-2009 01:55:04 17.5 C 12.97 g/m*3 17.5 C 0 km/h
2530 07-10-2009 02:07:04 17.1 C 12.66 g/m*3 17.1 C 0 km/h
2531 07-10-2009 02:19:05 17.1 C 12.96 g/m*3 17.1 C 0 km/h
2532 07-10-2009 02:31:05 17 C 12.88 g/m*3 17 C 0 km/h
2533 07-10-2009 02:43:05 17.2 C 13.18 g/m*3 17.2 C 0 km/h
2534 07-10-2009 02:55:05 17 C 13.02 g/m*3 17 C 0 km/h
2535 07-10-2009 03:07:05 16.9 C 13.09 g/m*3 16.9 C 0 km/h
2536 07-10-2009 03:19:05 16.7 C 12.93 g/m*3 16.7 C 0 km/h
2537 07-10-2009 03:31:05 16.5 C 12.92 g/m*3 16.5 C 0 km/h
2538 07-10-2009 03:43:05 16.5 C 12.92 g/m*3 16.5 C 0 km/h
2539 07-10-2009 03:55:05 16.3 C 12.76 g/m*3 16.3 C 0 km/h
2540 07-10-2009 04:07:05 16.1 C 12.61 g/m*3 16.1 C 0 km/h
2541 07-10-2009 04:19:05 16.2 C 12.69 g/m*3 16.2 C 0 km/h
2542 07-10-2009 04:31:05 16.4 C 12.98 g/m*3 16.4 C 0 km/h
2543 07-10-2009 04:43:05 16.4 C 12.98 g/m*3 16.4 C 0 km/h
2544 07-10-2009 04:55:05 16.3 C 12.9 g/m*3 16.3 C 0 km/h
2545 07-10-2009 05:07:05 16.3 C 12.9 g/m*3 16.3 C 0 km/h
2546 07-10-2009 05:19:05 16.4 C 13.12 g/m*3 16.4 C 0 km/h
2547 07-10-2009 05:31:05 16.3 C 13.04 g/m*3 16.3 C 0 km/h
2548 07-10-2009 05:43:05 16.2 C 12.96 g/m*3 16.2 C 0 km/h
2549 07-10-2009 05:55:05 15.9 C 12.73 g/m*3 15.9 C 0 km/h
2550 07-10-2009 06:07:06 15.8 C 12.65 g/m*3 15.8 C 0 km/h
Sensor: Nr:Datum:Temp:Abs-Feuchte:Windchill:Wind:
Aussen-T/F 2551 07-10-2009 06:19:06 15.5 C 12.43 g/m*3 15.5 C 0 km/h
2552 07-10-2009 06:31:06 15.4 C 12.35 g/m*3 15.4 C 0 km/h
2553 07-10-2009 06:43:06 15.2 C 12.2 g/m*3 15.2 C 0 km/h
2554 07-10-2009 06:55:06 15.4 C 12.35 g/m*3 15.4 C 0 km/h
2555 07-10-2009 07:07:06 15.4 C 12.35 g/m*3 15.4 C 0 km/h
2556 07-10-2009 07:19:03 15.5 C 12.56 g/m*3 15.5 C 0 km/h
2557 07-10-2009 07:31:03 15.6 C 12.63 g/m*3 15.6 C 0 km/h
2558 07-10-2009 07:43:03 16.1 C 13.02 g/m*3 16.1 C 0 km/h
2559 07-10-2009 07:55:01 16.6 C 13.42 g/m*3 16.6 C 0 km/h
2560 07-10-2009 08:07:02 16.8 C 13.58 g/m*3 16.8 C 0 km/h
2561 07-10-2009 08:19:01 16.8 C 13.58 g/m*3 16.8 C 0 km/h
2562 07-10-2009 08:31:01 17.2 C 13.91 g/m*3 17.2 C 0 km/h
2563 07-10-2009 08:43:01 17.2 C 13.91 g/m*3 17.2 C 0 km/h
2564 07-10-2009 08:55:01 17.5 C 14.16 g/m*3 17.5 C 0 km/h
2565 07-10-2009 09:07:02 17.6 C 14.25 g/m*3 17.6 C 0 km/h
2566 07-10-2009 09:19:01 17.9 C 14.5 g/m*3 17.9 C 0 km/h
2567 07-10-2009 09:31:01 18.1 C 14.52 g/m*3 18.1 C 0 km/h
2568 07-10-2009 09:43:01 17.8 C 14.27 g/m*3 17.8 C 0 km/h
2569 07-10-2009 09:55:01 18.3 C 14.38 g/m*3 18.3 C 0 km/h
2570 07-10-2009 10:07:02 18.7 C 14.41 g/m*3 18.7 C 0 km/h
2571 07-10-2009 10:19:02 19 C 14.01 g/m*3 19 C 0 km/h
2572 07-10-2009 10:31:01 19.5 C 13.59 g/m*3 19.5 C 0 km/h
2573 07-10-2009 10:43:01 20.2 C 12.94 g/m*3 20.2 C 0 km/h
2574 07-10-2009 10:55:02 20.5 C 12.99 g/m*3 20.5 C 0 km/h
2575 07-10-2009 11:07:01 20.5 C 12.63 g/m*3 20.5 C 0 km/h
Sensor: Nr:Datum:Temp:Abs-Feuchte:Windchill:Wind:
Aussen-T/F 2576 07-10-2009 11:19:01 20.5 C 12.63 g/m*3 20.5 C 0 km/h
2577 07-10-2009 11:31:02 20.6 C 12.53 g/m*3 20.6 C 0 km/h
2578 07-10-2009 11:43:02 20.9 C 12.57 g/m*3 20.9 C 0 km/h
2579 07-10-2009 11:55:01 21.3 C 12.49 g/m*3 21.3 C 0 km/h
2580 07-10-2009 12:07:02 21.3 C 12.3 g/m*3 21.3 C 0 km/h
2581 07-10-2009 12:19:01 21.5 C 12.82 g/m*3 21.5 C 0 km/h
2582 07-10-2009 12:31:02 21.8 C 12.66 g/m*3 21.8 C 0 km/h
2583 07-10-2009 12:43:02 22 C 12.81 g/m*3 22 C 0 km/h
2584 07-10-2009 12:55:01 22.5 C 12.78 g/m*3 22.5 C 0 km/h
2585 07-10-2009 13:07:02 23.1 C 12.2 g/m*3 23.1 C 0 km/h
2586 07-10-2009 13:19:01 23.1 C 12.2 g/m*3 23.1 C 0 km/h
2587 07-10-2009 13:31:02 23.4 C 12.62 g/m*3 23.4 C 0 km/h
2588 07-10-2009 13:43:02 23.8 C 12.05 g/m*3 23.8 C 0 km/h
2589 07-10-2009 13:55:01 24.3 C 11.51 g/m*3 24.3 C 0 km/h
2590 07-10-2009 14:07:02 24.9 C 11.22 g/m*3 24.9 C 0 km/h
2591 07-10-2009 14:19:02 24.8 C 10.47 g/m*3 24.8 C 0 km/h
2592 07-10-2009 14:31:01 24.6 C 10.58 g/m*3 24.6 C 0 km/h
2593 07-10-2009 14:43:01 24.3 C 10.4 g/m*3 24.3 C 0 km/h
2594 07-10-2009 14:55:02 24.5 C 10.74 g/m*3 24.5 C 0 km/h
2595 07-10-2009 15:07:01 24.6 C 10.8 g/m*3 24.6 C 0 km/h
2596 07-10-2009 15:19:02 24.5 C 11.64 g/m*3 24.5 C 0 km/h
2597 07-10-2009 15:31:01 24.3 C 11.06 g/m*3 24.3 C 0 km/h
2598 07-10-2009 15:43:01 24.4 C 11.35 g/m*3 24.4 C 0 km/h
2599 07-10-2009 15:55:03 24.6 C 11.7 g/m*3 24.6 C 0 km/h
2600 07-10-2009 16:07:02 24.1 C 11.82 g/m*3 24.1 C 0 km/h
Sensor: Nr:Datum:Temp:Abs-Feuchte:Windchill:Wind:
Aussen-T/F 2601 07-10-2009 16:19:02 24 C 11.1 g/m*3 24 C 0 km/h
2602 07-10-2009 16:31:03 23.9 C 10.6 g/m*3 23.9 C 0 km/h
2603 07-10-2009 16:43:03 24 C 11.31 g/m*3 24 C 0 km/h
2604 07-10-2009 16:55:02 23.8 C 11.83 g/m*3 23.8 C 0 km/h
2605 07-10-2009 17:07:01 23.3 C 12.55 g/m*3 23.3 C 0 km/h
2606 07-10-2009 17:19:02 23 C 12.74 g/m*3 23 C 0 km/h
2607 07-10-2009 17:31:02 22.8 C 13 g/m*3 22.8 C 0 km/h
2608 07-10-2009 17:43:02 22.5 C 13.38 g/m*3 22.5 C 0 km/h
2609 07-10-2009 17:55:01 22 C 13.39 g/m*3 22 C 0 km/h
2610 07-10-2009 18:07:02 21.7 C 13.35 g/m*3 21.7 C 0 km/h
2611 07-10-2009 18:19:01 21.4 C 13.31 g/m*3 21.4 C 0 km/h
2612 07-10-2009 18:31:01 21 C 13.37 g/m*3 21 C 0 km/h
2613 07-10-2009 18:43:02 20.8 C 13.4 g/m*3 20.8 C 0 km/h
2614 07-10-2009 18:55:01 20.4 C 13.09 g/m*3 20.4 C 0 km/h
2615 07-10-2009 19:07:02 20.3 C 13.01 g/m*3 20.3 C 0 km/h
2616 07-10-2009 19:19:01 20.1 C 13.04 g/m*3 20.1 C 0 km/h
2617 07-10-2009 19:31:02 20.1 C 13.04 g/m*3 20.1 C 0 km/h
2618 07-10-2009 19:43:02 20 C 12.96 g/m*3 20 C 0 km/h
2619 07-10-2009 19:55:01 19.9 C 13.06 g/m*3 19.9 C 0 km/h
2620 07-10-2009 20:07:02 19.9 C 13.23 g/m*3 19.9 C 0 km/h
2621 07-10-2009 20:19:01 19.7 C 13.08 g/m*3 19.7 C 0 km/h
2622 07-10-2009 20:31:02 19.7 C 13.25 g/m*3 19.7 C 0 km/h
2623 07-10-2009 20:43:02 19.4 C 13.01 g/m*3 19.4 C 0 km/h
2624 07-10-2009 20:55:01 19.5 C 13.09 g/m*3 19.5 C 0 km/h
2625 07-10-2009 21:07:01 19.5 C 13.09 g/m*3 19.5 C 0 km/h
Sensor: Nr:Datum:Temp:Abs-Feuchte:Windchill:Wind:
Aussen-T/F 2626 07-10-2009 21:19:02 19.5 C 12.59 g/m*3 19.5 C 0 km/h
2627 07-10-2009 21:31:02 19.6 C 12.15 g/m*3 19.6 C 0 km/h
2628 07-10-2009 21:43:02 19.7 C 11.89 g/m*3 19.7 C 0 km/h
2629 07-10-2009 21:55:02 19.7 C 11.72 g/m*3 19.7 C 0 km/h
2630 07-10-2009 22:07:02 19.6 C 11.48 g/m*3 19.6 C 0 km/h
2631 07-10-2009 22:19:02 19.7 C 11.55 g/m*3 19.7 C 0 km/h
2632 07-10-2009 22:31:02 20 C 11.06 g/m*3 20 C 0 km/h
2633 07-10-2009 22:43:02 20.3 C 11.08 g/m*3 20.3 C 0 km/h
2634 07-10-2009 22:55:01 20.2 C 11.02 g/m*3 20.2 C 0 km/h
2635 07-10-2009 23:07:01 20 C 11.23 g/m*3 20 C 0 km/h
2636 07-10-2009 23:19:02 20 C 11.23 g/m*3 20 C 0 km/h
2637 07-10-2009 23:31:01 19.8 C 11.61 g/m*3 19.8 C 0 km/h
2638 07-10-2009 23:43:01 19.6 C 11.82 g/m*3 19.6 C 0 km/h
2639 07-10-2009 23:55:01 19 C 12.06 g/m*3 19 C 0 km/h
2640 08-10-2009 00:07:01 18.5 C 12.66 g/m*3 18.5 C 0 km/h
2641 08-10-2009 00:20:02 18.3 C 12.82 g/m*3 18.3 C 0 km/h
2642 08-10-2009 00:32:03 18.5 C 12.02 g/m*3 18.5 C 0 km/h
2643 08-10-2009 00:44:03 19.3 C 11.94 g/m*3 19.3 C 0 km/h
2644 08-10-2009 00:56:03 18.5 C 12.66 g/m*3 18.5 C 0 km/h
2645 08-10-2009 01:08:03 18.1 C 12.98 g/m*3 18.1 C 0 km/h
2646 08-10-2009 01:20:03 17.9 C 13.28 g/m*3 17.9 C 0 km/h
2647 08-10-2009 01:32:03 17.7 C 13.28 g/m*3 17.7 C 0 km/h
2648 08-10-2009 01:44:03 17.5 C 13.27 g/m*3 17.5 C 0 km/h
2649 08-10-2009 01:56:03 17.3 C 13.11 g/m*3 17.3 C 0 km/h
2650 08-10-2009 02:08:03 17.3 C 13.11 g/m*3 17.3 C 0 km/h
Sensor: Nr:Datum:Temp:Abs-Feuchte:Windchill:Wind:
Aussen-T/F 2651 08-10-2009 02:20:03 17.2 C 13.18 g/m*3 17.2 C 0 km/h
2652 08-10-2009 02:32:03 17.2 C 13.18 g/m*3 17.2 C 0 km/h
2653 08-10-2009 02:44:03 17.2 C 13.18 g/m*3 17.2 C 0 km/h
2654 08-10-2009 02:56:03 17.4 C 13.34 g/m*3 17.4 C 0 km/h
2655 08-10-2009 03:08:03 17.9 C 13.13 g/m*3 17.9 C 0 km/h
2656 08-10-2009 03:20:03 18.5 C 12.5 g/m*3 18.5 C 0 km/h
2657 08-10-2009 03:32:03 18.4 C 12.27 g/m*3 18.4 C 0 km/h
2658 08-10-2009 03:44:03 18.4 C 12.11 g/m*3 18.4 C 0 km/h
2659 08-10-2009 03:56:03 18.4 C 11.95 g/m*3 18.4 C 0 km/h
2660 08-10-2009 04:08:03 18.6 C 12.1 g/m*3 18.6 C 0 km/h
2661 08-10-2009 04:20:04 18.8 C 11.92 g/m*3 18.8 C 0 km/h
2662 08-10-2009 04:32:04 18.7 C 11.85 g/m*3 18.7 C 0 km/h
2663 08-10-2009 04:44:04 18.7 C 11.69 g/m*3 18.7 C 0 km/h
2664 08-10-2009 04:56:04 18.7 C 11.69 g/m*3 18.7 C 0 km/h
2665 08-10-2009 05:08:04 18.8 C 11.76 g/m*3 18.8 C 0 km/h
2666 08-10-2009 05:20:04 19 C 11.57 g/m*3 19 C 0 km/h
2667 08-10-2009 05:32:04 18.9 C 11.66 g/m*3 18.9 C 0 km/h
2668 08-10-2009 05:44:04 19 C 11.57 g/m*3 19 C 0 km/h
2669 08-10-2009 05:56:04 19.1 C 11.64 g/m*3 19.1 C 0 km/h
2670 08-10-2009 06:08:04 19.1 C 11.64 g/m*3 19.1 C 0 km/h
2671 08-10-2009 06:20:04 18.9 C 11.66 g/m*3 18.9 C 0 km/h
2672 08-10-2009 06:32:04 18.8 C 11.76 g/m*3 18.8 C 0 km/h
2673 08-10-2009 06:44:04 18.6 C 11.62 g/m*3 18.6 C 0 km/h
2674 08-10-2009 06:56:04 18.5 C 11.71 g/m*3 18.5 C 0 km/h
2675 08-10-2009 07:08:04 18.5 C 11.71 g/m*3 18.5 C 0 km/h
Sensor: Nr:Datum:Temp:Abs-Feuchte:Windchill:Wind:
Aussen-T/F 2676 08-10-2009 07:20:03 18.7 C 11.69 g/m*3 18.7 C 0 km/h
2677 08-10-2009 07:32:02 18.8 C 11.43 g/m*3 18.8 C 0 km/h
2678 08-10-2009 07:44:02 18.8 C 11.27 g/m*3 18.8 C 0 km/h
2679 08-10-2009 07:56:03 18.8 C 11.27 g/m*3 18.8 C 0 km/h
2680 08-10-2009 08:08:02 18.6 C 11.46 g/m*3 18.6 C 0 km/h
2681 08-10-2009 08:20:02 18.6 C 11.3 g/m*3 18.6 C 0 km/h
2682 08-10-2009 08:32:02 18.7 C 11.37 g/m*3 18.7 C 0 km/h
2683 08-10-2009 08:44:02 18.6 C 11.46 g/m*3 18.6 C 0 km/h
2684 08-10-2009 08:56:02 17.8 C 11.69 g/m*3 17.8 C 0 km/h
2685 08-10-2009 09:08:02 17.5 C 12.08 g/m*3 17.5 C 0 km/h
2686 08-10-2009 09:20:02 17.7 C 11.77 g/m*3 17.7 C 0 km/h
2687 08-10-2009 09:32:02 17.2 C 11.13 g/m*3 17.2 C 0 km/h
2688 08-10-2009 09:44:02 16.4 C 10.75 g/m*3 16.4 C 0 km/h
2689 08-10-2009 09:56:02 15.9 C 10.43 g/m*3 15.9 C 0 km/h
2690 08-10-2009 10:08:01 15.8 C 10.23 g/m*3 15.8 C 0 km/h
2691 08-10-2009 10:20:01 15.6 C 9.97 g/m*3 15.6 C 0 km/h
2692 08-10-2009 10:32:02 15.3 C 9.79 g/m*3 15.3 C 0 km/h
2693 08-10-2009 10:44:02 15.2 C 9.86 g/m*3 15.2 C 0 km/h
2694 08-10-2009 10:56:02 15.2 C 9.73 g/m*3 15.2 C 0 km/h
2695 08-10-2009 11:08:02 14.8 C 9.63 g/m*3 14.8 C 0 km/h
2696 08-10-2009 11:20:02 14.6 C 9.51 g/m*3 14.6 C 0 km/h
2697 08-10-2009 11:32:02 14.6 C 9.39 g/m*3 14.6 C 0 km/h
2698 08-10-2009 11:44:02 14.8 C 9.37 g/m*3 14.8 C 0 km/h
2699 08-10-2009 11:56:01 15.1 C 9.03 g/m*3 15.1 C 0 km/h
2700 08-10-2009 12:08:02 14.9 C 8.92 g/m*3 14.9 C 0 km/h
Sensor: Nr:Datum:Temp:Abs-Feuchte:Windchill:Wind:
Aussen-T/F 2701 08-10-2009 12:20:01 15.3 C 8.88 g/m*3 15.3 C 0 km/h
2702 08-10-2009 12:32:02 15.3 C 8.49 g/m*3 15.3 C 0 km/h
2703 08-10-2009 12:44:03 15.8 C 8.88 g/m*3 15.8 C 0 km/h
2704 08-10-2009 12:56:02 16 C 8.31 g/m*3 16 C 0 km/h
2705 08-10-2009 13:08:02 16.3 C 8.6 g/m*3 16.3 C 0 km/h
2706 08-10-2009 13:20:01 16.9 C 8.92 g/m*3 16.9 C 0 km/h
2707 08-10-2009 13:32:02 17.7 C 8.6 g/m*3 17.7 C 0 km/h
2708 08-10-2009 13:44:02 16.8 C 8.44 g/m*3 16.8 C 0 km/h
2709 08-10-2009 13:56:02 17.6 C 8.85 g/m*3 17.6 C 0 km/h
2710 08-10-2009 14:08:02 17 C 8.25 g/m*3 17 C 0 km/h
2711 08-10-2009 14:20:02 17.4 C 8.45 g/m*3 17.4 C 0 km/h
2712 08-10-2009 14:32:02 17.4 C 8.3 g/m*3 17.4 C 0 km/h
2713 08-10-2009 14:44:02 18 C 8.29 g/m*3 18 C 0 km/h
2714 08-10-2009 14:56:02 17.9 C 8.4 g/m*3 17.9 C 0 km/h
2715 08-10-2009 15:08:03 18.2 C 8.39 g/m*3 18.2 C 0 km/h
2716 08-10-2009 15:20:02 18.6 C 8.12 g/m*3 18.6 C 0 km/h
2717 08-10-2009 15:32:02 18 C 7.99 g/m*3 18 C 0 km/h
2718 08-10-2009 15:44:02 17.5 C 8.2 g/m*3 17.5 C 0 km/h
2719 08-10-2009 15:56:02 17.4 C 8.3 g/m*3 17.4 C 0 km/h
2720 08-10-2009 16:08:02 17.8 C 8.35 g/m*3 17.8 C 0 km/h
2721 08-10-2009 16:20:02 17.8 C 8.35 g/m*3 17.8 C 0 km/h
2722 08-10-2009 16:32:01 17.3 C 8.25 g/m*3 17.3 C 0 km/h
2723 08-10-2009 16:44:01 17.2 C 8.35 g/m*3 17.2 C 0 km/h
2724 08-10-2009 16:56:02 16.8 C 8.44 g/m*3 16.8 C 0 km/h
2725 08-10-2009 17:08:01 16.4 C 8.1 g/m*3 16.4 C 0 km/h
Sensor: Nr:Datum:Temp:Abs-Feuchte:Windchill:Wind:
Aussen-T/F 2726 08-10-2009 17:20:02 16.2 C 8.27 g/m*3 16.2 C 0 km/h
2727 08-10-2009 17:32:02 16.1 C 8.09 g/m*3 16.1 C 0 km/h
2728 08-10-2009 17:44:02 15.8 C 8.35 g/m*3 15.8 C 0 km/h
2729 08-10-2009 17:56:02 15.5 C 8.33 g/m*3 15.5 C 0 km/h
2730 08-10-2009 18:08:01 15.5 C 8.33 g/m*3 15.5 C 0 km/h
2731 08-10-2009 18:20:01 15.4 C 8.28 g/m*3 15.4 C 0 km/h
2732 08-10-2009 18:32:02 15.1 C 8.26 g/m*3 15.1 C 0 km/h
2733 08-10-2009 18:44:02 15.1 C 8.26 g/m*3 15.1 C 0 km/h
2734 08-10-2009 18:56:02 15 C 8.21 g/m*3 15 C 0 km/h
2735 08-10-2009 19:08:02 15.1 C 8.39 g/m*3 15.1 C 0 km/h
2736 08-10-2009 19:20:02 15.1 C 8.39 g/m*3 15.1 C 0 km/h
2737 08-10-2009 19:32:02 14.9 C 8.28 g/m*3 14.9 C 0 km/h
2738 08-10-2009 19:44:02 14.6 C 8.26 g/m*3 14.6 C 0 km/h
2739 08-10-2009 19:56:02 14.3 C 8.35 g/m*3 14.3 C 0 km/h
2740 08-10-2009 20:08:03 13.9 C 8.39 g/m*3 13.9 C 0 km/h
2741 08-10-2009 20:20:02 13.8 C 8.46 g/m*3 13.8 C 0 km/h
2742 08-10-2009 20:32:02 13.6 C 8.47 g/m*3 13.6 C 0 km/h
2743 08-10-2009 20:44:02 13.4 C 8.49 g/m*3 13.4 C 0 km/h
2744 08-10-2009 20:56:01 13.1 C 8.44 g/m*3 13.1 C 0 km/h
2745 08-10-2009 21:08:01 13.2 C 8.61 g/m*3 13.2 C 0 km/h
2746 08-10-2009 21:20:02 13.3 C 8.66 g/m*3 13.3 C 0 km/h
2747 08-10-2009 21:32:01 13.1 C 8.44 g/m*3 13.1 C 0 km/h
2748 08-10-2009 21:44:01 12.8 C 8.51 g/m*3 12.8 C 0 km/h
2749 08-10-2009 21:56:02 12.5 C 8.47 g/m*3 12.5 C 0 km/h
2750 08-10-2009 22:08:01 12.3 C 8.47 g/m*3 12.3 C 0 km/h
Sensor: Nr:Datum:Temp:Abs-Feuchte:Windchill:Wind:
Aussen-T/F 2751 08-10-2009 22:20:01 12.1 C 8.47 g/m*3 12.1 C 0 km/h
2752 08-10-2009 22:32:01 12 C 8.53 g/m*3 12 C 0 km/h
2753 08-10-2009 22:44:01 11.7 C 8.47 g/m*3 11.7 C 0 km/h
2754 08-10-2009 22:57:03 11.7 C 8.58 g/m*3 11.7 C 0 km/h
2755 08-10-2009 23:09:03 11.5 C 8.57 g/m*3 11.5 C 0 km/h
2756 08-10-2009 23:21:03 11.4 C 8.52 g/m*3 11.4 C 0 km/h
2757 08-10-2009 23:33:04 11.3 C 8.47 g/m*3 11.3 C 0 km/h
2758 08-10-2009 23:45:04 11.2 C 8.41 g/m*3 11.2 C 0 km/h
2759 08-10-2009 23:57:04 11.2 C 8.51 g/m*3 11.2 C 0 km/h
2760 09-10-2009 00:09:04 11.2 C 8.51 g/m*3 11.2 C 0 km/h
2761 09-10-2009 00:21:04 11.1 C 8.46 g/m*3 11.1 C 0 km/h
2762 09-10-2009 00:33:04 10.8 C 8.3 g/m*3 10.8 C 0 km/h
2763 09-10-2009 00:45:04 10.8 C 8.3 g/m*3 10.8 C 0 km/h
2764 09-10-2009 00:57:04 11.1 C 8.46 g/m*3 11.1 C 0 km/h
2765 09-10-2009 01:09:04 11.2 C 8.51 g/m*3 11.2 C 0 km/h
2766 09-10-2009 01:21:04 11.1 C 8.36 g/m*3 11.1 C 0 km/h
2767 09-10-2009 01:33:04 10.7 C 8.15 g/m*3 10.7 C 0 km/h
2768 09-10-2009 01:45:04 10.4 C 8 g/m*3 10.4 C 0 km/h
2769 09-10-2009 01:57:04 10.2 C 7.99 g/m*3 10.2 C 0 km/h
2770 09-10-2009 02:09:04 9.8 C 7.89 g/m*3 9.8 C 0 km/h
2771 09-10-2009 02:21:04 9.6 C 7.79 g/m*3 9.6 C 0 km/h
2772 09-10-2009 02:33:04 9.6 C 7.88 g/m*3 9.6 C 0 km/h
2773 09-10-2009 02:45:04 9.3 C 7.73 g/m*3 9.3 C 0 km/h
2774 09-10-2009 02:57:04 9.1 C 7.63 g/m*3 9.1 C 0 km/h
2775 09-10-2009 03:09:04 9.1 C 7.72 g/m*3 9.1 C 0 km/h
Sensor: Nr:Datum:Temp:Abs-Feuchte:Windchill:Wind:
Aussen-T/F 2776 09-10-2009 03:21:05 9 C 7.67 g/m*3 9 C 0 km/h
2777 09-10-2009 03:33:05 8.9 C 7.8 g/m*3 8.9 C 0 km/h
2778 09-10-2009 03:45:05 8.8 C 7.75 g/m*3 8.8 C 0 km/h
2779 09-10-2009 03:57:05 8.7 C 7.7 g/m*3 8.7 C 0 km/h
2780 09-10-2009 04:09:05 8.6 C 7.65 g/m*3 8.6 C 0 km/h
2781 09-10-2009 04:21:05 8.4 C 7.55 g/m*3 8.4 C 0 km/h
2782 09-10-2009 04:33:05 8.3 C 7.5 g/m*3 8.3 C 0 km/h
2783 09-10-2009 04:45:05 8.2 C 7.45 g/m*3 8.2 C 0 km/h
2784 09-10-2009 04:57:05 8.1 C 7.41 g/m*3 8.1 C 0 km/h
2785 09-10-2009 05:09:05 8.1 C 7.49 g/m*3 8.1 C 0 km/h
2786 09-10-2009 05:21:05 8 C 7.44 g/m*3 8 C 0 km/h
2787 09-10-2009 05:33:05 7.9 C 7.47 g/m*3 7.9 C 0 km/h
2788 09-10-2009 05:45:05 7.7 C 7.3 g/m*3 7.7 C 0 km/h
2789 09-10-2009 05:57:05 7.6 C 7.25 g/m*3 7.6 C 0 km/h
2790 09-10-2009 06:09:05 7.5 C 7.2 g/m*3 7.5 C 0 km/h
2791 09-10-2009 06:21:05 7.5 C 7.28 g/m*3 7.5 C 0 km/h
2792 09-10-2009 06:33:05 7.4 C 7.16 g/m*3 7.4 C 0 km/h
2793 09-10-2009 06:45:01 7.2 C 7.06 g/m*3 7.2 C 0 km/h
2794 09-10-2009 06:57:01 7.2 C 7.06 g/m*3 7.2 C 0 km/h
2795 09-10-2009 07:09:02 6.9 C 7.01 g/m*3 6.9 C 0 km/h
2796 09-10-2009 07:21:02 6.7 C 6.91 g/m*3 6.7 C 0 km/h
2797 09-10-2009 07:33:02 6.7 C 6.91 g/m*3 6.7 C 0 km/h
2798 09-10-2009 07:45:01 6.7 C 6.99 g/m*3 6.7 C 0 km/h
2799 09-10-2009 07:57:01 6.7 C 6.99 g/m*3 6.7 C 0 km/h
2800 09-10-2009 08:09:02 6.6 C 6.95 g/m*3 6.6 C 0 km/h
Sensor: Nr:Datum:Temp:Abs-Feuchte:Windchill:Wind:
Aussen-T/F 2801 09-10-2009 08:21:02 6.8 C 7.04 g/m*3 6.8 C 0 km/h
2802 09-10-2009 08:33:01 7.4 C 7.32 g/m*3 7.4 C 0 km/h
2803 09-10-2009 08:45:02 7.5 C 7.44 g/m*3 7.5 C 0 km/h
2804 09-10-2009 08:57:02 7.5 C 7.36 g/m*3 7.5 C 0 km/h
2805 09-10-2009 09:09:01 7.4 C 7.32 g/m*3 7.4 C 0 km/h
2806 09-10-2009 09:21:02 7.5 C 7.36 g/m*3 7.5 C 0 km/h
2807 09-10-2009 09:33:01 7.5 C 7.36 g/m*3 7.5 C 0 km/h
2808 09-10-2009 09:45:02 7.5 C 7.36 g/m*3 7.5 C 0 km/h
2809 09-10-2009 09:57:02 7.6 C 7.41 g/m*3 7.6 C 0 km/h
2810 09-10-2009 10:09:02 7.6 C 7.41 g/m*3 7.6 C 0 km/h
2811 09-10-2009 10:21:02 7.9 C 7.56 g/m*3 7.9 C 0 km/h
2812 09-10-2009 10:33:03 8.4 C 7.8 g/m*3 8.4 C 0 km/h
2813 09-10-2009 10:45:02 9 C 8.02 g/m*3 9 C 0 km/h
2814 09-10-2009 10:57:03 9.5 C 8.28 g/m*3 9.5 C 0 km/h
2815 09-10-2009 11:09:01 9.9 C 8.5 g/m*3 9.9 C 0 km/h
2816 09-10-2009 11:21:02 10.4 C 8.58 g/m*3 10.4 C 0 km/h
2817 09-10-2009 11:33:02 10.8 C 8.6 g/m*3 10.8 C 0 km/h
2818 09-10-2009 11:45:02 11.1 C 8.26 g/m*3 11.1 C 0 km/h
2819 09-10-2009 11:57:02 11.8 C 7.68 g/m*3 11.8 C 0 km/h
2820 09-10-2009 12:09:03 12.4 C 6.88 g/m*3 12.4 C 0 km/h
2821 09-10-2009 12:21:02 12.8 C 6.61 g/m*3 12.8 C 0 km/h
2822 09-10-2009 12:33:02 13.3 C 6.7 g/m*3 13.3 C 0 km/h
2823 09-10-2009 12:45:01 13.7 C 6.51 g/m*3 13.7 C 0 km/h
2824 09-10-2009 12:57:01 14.2 C 6.35 g/m*3 14.2 C 0 km/h
2825 09-10-2009 13:09:02 14.7 C 6.42 g/m*3 14.7 C 0 km/h
Sensor: Nr:Datum:Temp:Abs-Feuchte:Windchill:Wind:
Aussen-T/F 2826 09-10-2009 13:21:01 15.2 C 6.1 g/m*3 15.2 C 0 km/h
2827 09-10-2009 13:33:02 15.8 C 6.33 g/m*3 15.8 C 0 km/h
2828 09-10-2009 13:45:01 16.3 C 6.24 g/m*3 16.3 C 0 km/h
2829 09-10-2009 13:57:01 17.1 C 6.55 g/m*3 17.1 C 0 km/h
2830 09-10-2009 14:09:02 17.5 C 6.41 g/m*3 17.5 C 0 km/h
2831 09-10-2009 14:21:01 17.9 C 6.26 g/m*3 17.9 C 0 km/h
2832 09-10-2009 14:33:02 18.1 C 6.18 g/m*3 18.1 C 0 km/h
2833 09-10-2009 14:45:01 18.9 C 6.32 g/m*3 18.9 C 0 km/h
2834 09-10-2009 14:57:01 18.7 C 6.24 g/m*3 18.7 C 0 km/h
2835 09-10-2009 15:09:02 18.5 C 6.17 g/m*3 18.5 C 0 km/h
2836 09-10-2009 15:21:01 18.4 C 6.13 g/m*3 18.4 C 0 km/h
2837 09-10-2009 15:33:02 18.2 C 5.91 g/m*3 18.2 C 0 km/h
2838 09-10-2009 15:45:01 18.2 C 6.22 g/m*3 18.2 C 0 km/h
2839 09-10-2009 15:57:01 17.9 C 5.95 g/m*3 17.9 C 0 km/h
2840 09-10-2009 16:09:02 17.8 C 6.07 g/m*3 17.8 C 0 km/h
2841 09-10-2009 16:21:02 17.8 C 6.22 g/m*3 17.8 C 0 km/h
2842 09-10-2009 16:33:01 17.8 C 6.22 g/m*3 17.8 C 0 km/h
2843 09-10-2009 16:45:01 17.7 C 6.19 g/m*3 17.7 C 0 km/h
2844 09-10-2009 16:57:01 17.4 C 6.22 g/m*3 17.4 C 0 km/h
2845 09-10-2009 17:09:01 17.2 C 6.3 g/m*3 17.2 C 0 km/h
2846 09-10-2009 17:21:02 17.2 C 6.15 g/m*3 17.2 C 0 km/h
2847 09-10-2009 17:33:01 18.2 C 6.22 g/m*3 18.2 C 0 km/h
2848 09-10-2009 17:45:02 17.9 C 5.8 g/m*3 17.9 C 0 km/h
2849 09-10-2009 17:57:02 18.1 C 6.33 g/m*3 18.1 C 0 km/h
2850 09-10-2009 18:09:01 17.7 C 6.64 g/m*3 17.7 C 0 km/h
Sensor: Nr:Datum:Temp:Abs-Feuchte:Windchill:Wind:
Aussen-T/F 2851 09-10-2009 18:21:02 17.3 C 6.78 g/m*3 17.3 C 0 km/h
2852 09-10-2009 18:33:01 15.8 C 6.73 g/m*3 15.8 C 0 km/h
2853 09-10-2009 18:45:02 14.3 C 6.76 g/m*3 14.3 C 0 km/h
2854 09-10-2009 18:57:02 13.5 C 6.9 g/m*3 13.5 C 0 km/h
2855 09-10-2009 19:09:02 13.1 C 6.96 g/m*3 13.1 C 0 km/h
2856 09-10-2009 19:21:02 13 C 7.14 g/m*3 13 C 0 km/h
2857 09-10-2009 19:33:01 13.3 C 7.16 g/m*3 13.3 C 0 km/h
2858 09-10-2009 19:45:02 13.5 C 7.25 g/m*3 13.5 C 0 km/h
2859 09-10-2009 19:57:02 13.4 C 7.32 g/m*3 13.4 C 0 km/h
2860 09-10-2009 20:09:01 13.2 C 7.35 g/m*3 13.2 C 0 km/h
2861 09-10-2009 20:21:01 13.2 C 7.23 g/m*3 13.2 C 0 km/h
2862 09-10-2009 20:33:02 13.2 C 7.35 g/m*3 13.2 C 0 km/h
2863 09-10-2009 20:45:02 13.2 C 7.46 g/m*3 13.2 C 0 km/h
2864 09-10-2009 20:57:02 13 C 7.26 g/m*3 13 C 0 km/h
2865 09-10-2009 21:09:02 13.1 C 7.53 g/m*3 13.1 C 0 km/h
2866 09-10-2009 21:21:02 13.2 C 7.46 g/m*3 13.2 C 0 km/h
2867 09-10-2009 21:34:03 13 C 7.26 g/m*3 13 C 0 km/h
2868 09-10-2009 21:46:04 13.2 C 7.12 g/m*3 13.2 C 0 km/h
2869 09-10-2009 21:58:04 13.1 C 7.19 g/m*3 13.1 C 0 km/h
2870 09-10-2009 22:10:04 13.1 C 7.19 g/m*3 13.1 C 0 km/h
2871 09-10-2009 22:22:04 13.1 C 7.19 g/m*3 13.1 C 0 km/h
2872 09-10-2009 22:34:04 13.1 C 7.3 g/m*3 13.1 C 0 km/h
2873 09-10-2009 22:46:04 12.4 C 7.76 g/m*3 12.4 C 0 km/h
2874 09-10-2009 22:58:04 11.9 C 8.15 g/m*3 11.9 C 0 km/h
2875 09-10-2009 23:10:04 12 C 8.31 g/m*3 12 C 0 km/h
Sensor: Nr:Datum:Temp:Abs-Feuchte:Windchill:Wind:
Aussen-T/F 2876 09-10-2009 23:22:04 11.9 C 8.47 g/m*3 11.9 C 0 km/h
2877 09-10-2009 23:34:04 12 C 8.31 g/m*3 12 C 0 km/h
2878 09-10-2009 23:46:04 12 C 8.31 g/m*3 12 C 0 km/h
2879 09-10-2009 23:58:04 11.8 C 8.31 g/m*3 11.8 C 0 km/h
2880 10-10-2009 00:10:04 11.7 C 8.26 g/m*3 11.7 C 0 km/h
2881 10-10-2009 00:22:04 11.8 C 8.31 g/m*3 11.8 C 0 km/h
2882 10-10-2009 00:34:04 11.8 C 8.31 g/m*3 11.8 C 0 km/h
2883 10-10-2009 00:46:04 11.8 C 8.21 g/m*3 11.8 C 0 km/h
2884 10-10-2009 00:58:04 11.8 C 8.1 g/m*3 11.8 C 0 km/h
2885 10-10-2009 01:10:04 11.7 C 8.05 g/m*3 11.7 C 0 km/h
2886 10-10-2009 01:22:04 11.7 C 8.16 g/m*3 11.7 C 0 km/h
2887 10-10-2009 01:34:05 11.8 C 8.1 g/m*3 11.8 C 0 km/h
2888 10-10-2009 01:46:05 11.8 C 8.1 g/m*3 11.8 C 0 km/h
2889 10-10-2009 01:58:05 11.8 C 8.1 g/m*3 11.8 C 0 km/h
2890 10-10-2009 02:10:05 11.8 C 8.1 g/m*3 11.8 C 0 km/h
2891 10-10-2009 02:22:05 11.9 C 8.15 g/m*3 11.9 C 0 km/h
2892 10-10-2009 02:34:05 11.8 C 8.1 g/m*3 11.8 C 0 km/h
2893 10-10-2009 02:46:05 11.8 C 8.1 g/m*3 11.8 C 0 km/h
2894 10-10-2009 02:58:05 11.7 C 8.05 g/m*3 11.7 C 0 km/h
2895 10-10-2009 03:10:05 11.7 C 8.05 g/m*3 11.7 C 0 km/h
2896 10-10-2009 03:22:05 11.6 C 8.11 g/m*3 11.6 C 0 km/h
2897 10-10-2009 03:34:05 11.6 C 8.11 g/m*3 11.6 C 0 km/h
2898 10-10-2009 03:46:05 11.7 C 8.16 g/m*3 11.7 C 0 km/h
2899 10-10-2009 03:58:05 11.7 C 8.16 g/m*3 11.7 C 0 km/h
2900 10-10-2009 04:10:05 11.8 C 8.21 g/m*3 11.8 C 0 km/h
Sensor: Nr:Datum:Temp:Abs-Feuchte:Windchill:Wind:
Aussen-T/F 2901 10-10-2009 04:22:05 11.7 C 8.26 g/m*3 11.7 C 0 km/h
2902 10-10-2009 04:34:05 11.3 C 8.57 g/m*3 11.3 C 0 km/h
2903 10-10-2009 04:46:05 11.2 C 8.92 g/m*3 11.2 C 0 km/h
2904 10-10-2009 04:58:05 11.2 C 9.02 g/m*3 11.2 C 0 km/h
2905 10-10-2009 05:10:05 11.2 C 9.12 g/m*3 11.2 C 0 km/h
2906 10-10-2009 05:22:06 11.2 C 9.22 g/m*3 11.2 C 0 km/h
2907 10-10-2009 05:34:06 11.3 C 9.28 g/m*3 11.3 C 0 km/h
2908 10-10-2009 05:46:06 11.3 C 9.28 g/m*3 11.3 C 0 km/h
2909 10-10-2009 05:58:06 11.2 C 9.33 g/m*3 11.2 C 0 km/h
2910 10-10-2009 06:10:06 11.2 C 9.33 g/m*3 11.2 C 0 km/h
2911 10-10-2009 06:22:06 11.3 C 9.49 g/m*3 11.3 C 0 km/h
2912 10-10-2009 06:34:06 11.2 C 9.43 g/m*3 11.2 C 0 km/h
2913 10-10-2009 06:46:06 11.3 C 9.49 g/m*3 11.3 C 0 km/h
2914 10-10-2009 06:58:06 11.3 C 9.49 g/m*3 11.3 C 0 km/h
2915 10-10-2009 07:10:06 11.4 C 9.55 g/m*3 11.4 C 0 km/h
2916 10-10-2009 07:22:06 11.4 C 9.65 g/m*3 11.4 C 0 km/h
2917 10-10-2009 07:34:06 11.5 C 9.71 g/m*3 11.5 C 0 km/h
2918 10-10-2009 07:46:06 11.6 C 9.77 g/m*3 11.6 C 0 km/h
2919 10-10-2009 07:58:06 11.5 C 9.71 g/m*3 11.5 C 0 km/h
2920 10-10-2009 08:10:06 11.6 C 9.77 g/m*3 11.6 C 0 km/h
2921 10-10-2009 08:22:06 11.7 C 9.83 g/m*3 11.7 C 0 km/h
2922 10-10-2009 08:34:06 11.8 C 10 g/m*3 11.8 C 0 km/h
2923 10-10-2009 08:46:06 11.9 C 10.06 g/m*3 11.9 C 0 km/h
2924 10-10-2009 08:58:06 12.1 C 10.08 g/m*3 12.1 C 0 km/h
2925 10-10-2009 09:10:07 12.1 C 10.08 g/m*3 12.1 C 0 km/h
Sensor: Nr:Datum:Temp:Abs-Feuchte:Windchill:Wind:
Aussen-T/F 2926 10-10-2009 09:22:07 12.1 C 10.19 g/m*3 12.1 C 0 km/h
2927 10-10-2009 09:34:02 12.2 C 10.25 g/m*3 12.2 C 0 km/h
2928 10-10-2009 09:46:02 12.2 C 10.25 g/m*3 12.2 C 0 km/h
2929 10-10-2009 09:58:02 12.4 C 10.38 g/m*3 12.4 C 0 km/h
2930 10-10-2009 10:10:01 12.7 C 10.58 g/m*3 12.7 C 0 km/h
2931 10-10-2009 10:22:01 12.9 C 10.71 g/m*3 12.9 C 0 km/h
2932 10-10-2009 10:34:01 13.1 C 10.84 g/m*3 13.1 C 0 km/h
2933 10-10-2009 10:46:02 13.3 C 10.98 g/m*3 13.3 C 0 km/h
2934 10-10-2009 10:58:02 13.6 C 11.18 g/m*3 13.6 C 0 km/h
2935 10-10-2009 11:10:02 13.8 C 11.2 g/m*3 13.8 C 0 km/h
2936 10-10-2009 11:22:02 14.2 C 11.48 g/m*3 14.2 C 0 km/h
2937 10-10-2009 11:34:02 14.7 C 11.58 g/m*3 14.7 C 0 km/h
2938 10-10-2009 11:46:02 14.9 C 11.47 g/m*3 14.9 C 0 km/h
2939 10-10-2009 11:58:02 15.2 C 11.42 g/m*3 15.2 C 0 km/h
2940 10-10-2009 12:10:01 15.6 C 11.57 g/m*3 15.6 C 0 km/h
2941 10-10-2009 12:22:01 15.9 C 11.38 g/m*3 15.9 C 0 km/h
2942 10-10-2009 12:34:02 15.9 C 11.24 g/m*3 15.9 C 0 km/h
2943 10-10-2009 12:46:02 15.6 C 11.17 g/m*3 15.6 C 0 km/h
2944 10-10-2009 12:58:02 15.5 C 11.37 g/m*3 15.5 C 0 km/h
2945 10-10-2009 13:10:02 15.6 C 11.57 g/m*3 15.6 C 0 km/h
2946 10-10-2009 13:22:02 16.4 C 11.72 g/m*3 16.4 C 0 km/h
2947 10-10-2009 13:34:02 16.2 C 11.45 g/m*3 16.2 C 0 km/h
2948 10-10-2009 13:46:01 15.7 C 11.11 g/m*3 15.7 C 0 km/h
2949 10-10-2009 13:58:01 16.2 C 11.17 g/m*3 16.2 C 0 km/h
2950 10-10-2009 14:10:02 16.5 C 11.23 g/m*3 16.5 C 0 km/h
Sensor: Nr:Datum:Temp:Abs-Feuchte:Windchill:Wind:
Aussen-T/F 2951 10-10-2009 14:22:01 16.3 C 10.96 g/m*3 16.3 C 0 km/h
2952 10-10-2009 14:34:01 16.3 C 10.41 g/m*3 16.3 C 0 km/h
2953 10-10-2009 14:46:01 16.8 C 10.44 g/m*3 16.8 C 0 km/h
2954 10-10-2009 14:58:01 18.1 C 10.51 g/m*3 18.1 C 0 km/h
2955 10-10-2009 15:10:02 18.7 C 9.77 g/m*3 18.7 C 0 km/h
2956 10-10-2009 15:22:01 18.9 C 9.23 g/m*3 18.9 C 0 km/h
2957 10-10-2009 15:34:01 18.9 C 9.07 g/m*3 18.9 C 0 km/h
2958 10-10-2009 15:46:01 18.8 C 9.02 g/m*3 18.8 C 0 km/h
2959 10-10-2009 15:58:01 18.8 C 8.7 g/m*3 18.8 C 0 km/h
2960 10-10-2009 16:10:02 19 C 8.64 g/m*3 19 C 0 km/h
2961 10-10-2009 16:22:02 18.5 C 8.54 g/m*3 18.5 C 0 km/h
2962 10-10-2009 16:34:01 17.8 C 8.35 g/m*3 17.8 C 0 km/h
2963 10-10-2009 16:46:01 17 C 8.68 g/m*3 17 C 0 km/h
2964 10-10-2009 16:58:01 17 C 8.97 g/m*3 17 C 0 km/h
2965 10-10-2009 17:10:01 16.9 C 9.21 g/m*3 16.9 C 0 km/h
2966 10-10-2009 17:22:02 17.5 C 8.95 g/m*3 17.5 C 0 km/h
2967 10-10-2009 17:34:01 17.6 C 8.7 g/m*3 17.6 C 0 km/h
2968 10-10-2009 17:46:02 16.9 C 8.92 g/m*3 16.9 C 0 km/h
2969 10-10-2009 17:58:02 16.6 C 9.18 g/m*3 16.6 C 0 km/h
2970 10-10-2009 18:10:01 16.4 C 9.21 g/m*3 16.4 C 0 km/h
2971 10-10-2009 18:22:02 16.1 C 9.32 g/m*3 16.1 C 0 km/h
2972 10-10-2009 18:34:01 15.2 C 9.35 g/m*3 15.2 C 0 km/h
2973 10-10-2009 18:46:02 13.8 C 9.89 g/m*3 13.8 C 0 km/h
2974 10-10-2009 18:58:02 13.7 C 10.18 g/m*3 13.7 C 0 km/h
2975 10-10-2009 19:10:02 13.5 C 10.29 g/m*3 13.5 C 0 km/h
Sensor: Nr:Datum:Temp:Abs-Feuchte:Windchill:Wind:
Aussen-T/F 2976 10-10-2009 19:22:02 13.1 C 10.04 g/m*3 13.1 C 0 km/h
2977 10-10-2009 19:34:02 13 C 10.09 g/m*3 13 C 0 km/h
2978 10-10-2009 19:46:02 12.8 C 10.08 g/m*3 12.8 C 0 km/h
2979 10-10-2009 19:58:02 12.8 C 10.19 g/m*3 12.8 C 0 km/h
2980 10-10-2009 20:10:01 12.6 C 10.07 g/m*3 12.6 C 0 km/h
2981 10-10-2009 20:22:02 12.5 C 10.11 g/m*3 12.5 C 0 km/h
2982 10-10-2009 20:34:02 12.2 C 9.82 g/m*3 12.2 C 0 km/h
2983 10-10-2009 20:46:02 12.2 C 9.93 g/m*3 12.2 C 0 km/h
2984 10-10-2009 20:58:02 12.1 C 9.87 g/m*3 12.1 C 0 km/h
2985 10-10-2009 21:10:02 11.9 C 9.85 g/m*3 11.9 C 0 km/h
2986 10-10-2009 21:22:01 11.7 C 9.73 g/m*3 11.7 C 0 km/h
2987 10-10-2009 21:34:02 11.5 C 9.61 g/m*3 11.5 C 0 km/h
2988 10-10-2009 21:46:02 11.4 C 9.55 g/m*3 11.4 C 0 km/h
2989 10-10-2009 21:58:02 11.2 C 9.43 g/m*3 11.2 C 0 km/h
2990 10-10-2009 22:10:03 11.2 C 9.43 g/m*3 11.2 C 0 km/h
2991 10-10-2009 22:22:02 11.1 C 9.37 g/m*3 11.1 C 0 km/h
2992 10-10-2009 22:34:02 11 C 9.31 g/m*3 11 C 0 km/h
2993 10-10-2009 22:46:02 11 C 9.31 g/m*3 11 C 0 km/h
2994 10-10-2009 22:58:02 10.8 C 9.19 g/m*3 10.8 C 0 km/h
2995 10-10-2009 23:11:03 10.7 C 9.13 g/m*3 10.7 C 0 km/h
2996 10-10-2009 23:23:03 10.6 C 9.08 g/m*3 10.6 C 0 km/h
2997 10-10-2009 23:35:03 10.9 C 9.25 g/m*3 10.9 C 0 km/h
2998 10-10-2009 23:47:03 11.2 C 9.43 g/m*3 11.2 C 0 km/h
2999 10-10-2009 23:59:03 11.3 C 9.38 g/m*3 11.3 C 0 km/h
3000 11-10-2009 00:11:03 11.3 C 9.28 g/m*3 11.3 C 0 km/h
Sensor: Nr:Datum:Temp:Abs-Feuchte:Windchill:Wind:
Aussen-T/F 3001 11-10-2009 00:23:03 11.4 C 9.34 g/m*3 11.4 C 0 km/h
3002 11-10-2009 00:35:03 11.5 C 9.3 g/m*3 11.5 C 0 km/h
3003 11-10-2009 00:47:03 11.7 C 9.31 g/m*3 11.7 C 0 km/h
3004 11-10-2009 00:59:03 11.7 C 9.2 g/m*3 11.7 C 0 km/h
3005 11-10-2009 01:11:03 11.7 C 9.1 g/m*3 11.7 C 0 km/h
3006 11-10-2009 01:23:03 11.8 C 8.95 g/m*3 11.8 C 0 km/h
3007 11-10-2009 01:35:03 11.9 C 8.9 g/m*3 11.9 C 0 km/h
3008 11-10-2009 01:47:03 11.9 C 8.9 g/m*3 11.9 C 0 km/h
3009 11-10-2009 01:59:03 11.9 C 8.9 g/m*3 11.9 C 0 km/h
3010 11-10-2009 02:11:03 12 C 8.85 g/m*3 12 C 0 km/h
3011 11-10-2009 02:23:03 12 C 8.74 g/m*3 12 C 0 km/h
3012 11-10-2009 02:35:04 12.2 C 8.63 g/m*3 12.2 C 0 km/h
3013 11-10-2009 02:47:04 12.2 C 8.52 g/m*3 12.2 C 0 km/h
3014 11-10-2009 02:59:04 12.2 C 8.42 g/m*3 12.2 C 0 km/h
3015 11-10-2009 03:11:04 12.3 C 8.36 g/m*3 12.3 C 0 km/h
3016 11-10-2009 03:23:04 12.4 C 8.3 g/m*3 12.4 C 0 km/h
3017 11-10-2009 03:35:04 12.3 C 8.25 g/m*3 12.3 C 0 km/h
3018 11-10-2009 03:47:04 12.2 C 8.31 g/m*3 12.2 C 0 km/h
3019 11-10-2009 03:59:04 12.1 C 8.36 g/m*3 12.1 C 0 km/h
3020 11-10-2009 04:11:04 12 C 8.21 g/m*3 12 C 0 km/h
3021 11-10-2009 04:23:04 11.9 C 8.26 g/m*3 11.9 C 0 km/h
3022 11-10-2009 04:35:04 11.8 C 8.21 g/m*3 11.8 C 0 km/h
3023 11-10-2009 04:47:04 11.8 C 8.21 g/m*3 11.8 C 0 km/h
3024 11-10-2009 04:59:04 11.7 C 8.16 g/m*3 11.7 C 0 km/h
3025 11-10-2009 05:11:04 11.6 C 8.11 g/m*3 11.6 C 0 km/h
Sensor: Nr:Datum:Temp:Abs-Feuchte:Windchill:Wind:
Aussen-T/F 3026 11-10-2009 05:23:04 11.2 C 8.01 g/m*3 11.2 C 0 km/h
3027 11-10-2009 05:35:04 11 C 8.11 g/m*3 11 C 0 km/h
3028 11-10-2009 05:47:04 11 C 8.21 g/m*3 11 C 0 km/h
3029 11-10-2009 05:59:04 10.9 C 8.26 g/m*3 10.9 C 0 km/h
3030 11-10-2009 06:11:04 10.8 C 8.2 g/m*3 10.8 C 0 km/h
3031 11-10-2009 06:23:04 10.7 C 8.25 g/m*3 10.7 C 0 km/h
3032 11-10-2009 06:35:04 10.5 C 8.24 g/m*3 10.5 C 0 km/h
3033 11-10-2009 06:47:05 10.6 C 8.39 g/m*3 10.6 C 0 km/h
3034 11-10-2009 06:59:05 10.5 C 8.34 g/m*3 10.5 C 0 km/h
3035 11-10-2009 07:11:05 10.3 C 8.24 g/m*3 10.3 C 0 km/h
3036 11-10-2009 07:23:05 10.3 C 8.33 g/m*3 10.3 C 0 km/h
3037 11-10-2009 07:35:05 10.4 C 8.48 g/m*3 10.4 C 0 km/h
3038 11-10-2009 07:47:05 10.6 C 8.59 g/m*3 10.6 C 0 km/h
3039 11-10-2009 07:59:05 10.6 C 8.59 g/m*3 10.6 C 0 km/h
3040 11-10-2009 08:11:05 10.6 C 8.49 g/m*3 10.6 C 0 km/h
3041 11-10-2009 08:23:03 10.7 C 8.64 g/m*3 10.7 C 0 km/h
3042 11-10-2009 08:35:03 11 C 8.71 g/m*3 11 C 0 km/h
3043 11-10-2009 08:47:02 11.2 C 8.62 g/m*3 11.2 C 0 km/h
3044 11-10-2009 08:59:02 11.4 C 8.62 g/m*3 11.4 C 0 km/h
3045 11-10-2009 09:11:03 11.4 C 8.52 g/m*3 11.4 C 0 km/h
3046 11-10-2009 09:23:02 11.6 C 8.63 g/m*3 11.6 C 0 km/h
3047 11-10-2009 09:35:02 11.8 C 8.63 g/m*3 11.8 C 0 km/h
3048 11-10-2009 09:47:02 11.9 C 8.68 g/m*3 11.9 C 0 km/h
3049 11-10-2009 09:59:02 12.2 C 8.74 g/m*3 12.2 C 0 km/h
3050 11-10-2009 10:11:02 12.3 C 8.58 g/m*3 12.3 C 0 km/h
Sensor: Nr:Datum:Temp:Abs-Feuchte:Windchill:Wind:
Aussen-T/F 3051 11-10-2009 10:23:02 12.5 C 8.69 g/m*3 12.5 C 0 km/h
3052 11-10-2009 10:35:02 12.6 C 8.74 g/m*3 12.6 C 0 km/h
3053 11-10-2009 10:47:01 12.7 C 8.79 g/m*3 12.7 C 0 km/h
3054 11-10-2009 10:59:01 13 C 8.85 g/m*3 13 C 0 km/h
3055 11-10-2009 11:11:03 13.1 C 8.9 g/m*3 13.1 C 0 km/h
3056 11-10-2009 11:23:01 13.1 C 8.79 g/m*3 13.1 C 0 km/h
3057 11-10-2009 11:35:02 13.2 C 8.84 g/m*3 13.2 C 0 km/h
3058 11-10-2009 11:47:02 13.4 C 8.83 g/m*3 13.4 C 0 km/h
3059 11-10-2009 11:59:02 13.5 C 8.77 g/m*3 13.5 C 0 km/h
3060 11-10-2009 12:11:03 13.7 C 8.76 g/m*3 13.7 C 0 km/h
3061 11-10-2009 12:23:03 13.8 C 8.7 g/m*3 13.8 C 0 km/h
3062 11-10-2009 12:35:03 14 C 8.68 g/m*3 14 C 0 km/h
3063 11-10-2009 12:47:02 14 C 8.68 g/m*3 14 C 0 km/h
3064 11-10-2009 12:59:02 13.9 C 8.75 g/m*3 13.9 C 0 km/h
3065 11-10-2009 13:11:02 13.9 C 8.63 g/m*3 13.9 C 0 km/h
3066 11-10-2009 13:23:02 14.3 C 8.6 g/m*3 14.3 C 0 km/h
3067 11-10-2009 13:35:01 14.8 C 8.49 g/m*3 14.8 C 0 km/h
3068 11-10-2009 13:47:02 14.9 C 8.41 g/m*3 14.9 C 0 km/h
3069 11-10-2009 13:59:02 14.8 C 8.49 g/m*3 14.8 C 0 km/h
3070 11-10-2009 14:11:03 14.4 C 8.53 g/m*3 14.4 C 0 km/h
3071 11-10-2009 14:23:01 13.6 C 8.94 g/m*3 13.6 C 0 km/h
3072 11-10-2009 14:35:02 13.1 C 9.24 g/m*3 13.1 C 0 km/h
3073 11-10-2009 14:47:03 13.2 C 9.64 g/m*3 13.2 C 0 km/h
3074 11-10-2009 14:59:03 13.7 C 9.95 g/m*3 13.7 C 0 km/h
3075 11-10-2009 15:11:03 14.5 C 9.83 g/m*3 14.5 C 0 km/h
Sensor: Nr:Datum:Temp:Abs-Feuchte:Windchill:Wind:
Aussen-T/F 3076 11-10-2009 15:23:02 14.8 C 9.5 g/m*3 14.8 C 0 km/h
3077 11-10-2009 15:35:02 14.9 C 9.18 g/m*3 14.9 C 0 km/h
3078 11-10-2009 15:47:02 14.7 C 8.94 g/m*3 14.7 C 0 km/h
3079 11-10-2009 15:59:02 14.3 C 8.85 g/m*3 14.3 C 0 km/h
3080 11-10-2009 16:11:02 14.3 C 8.97 g/m*3 14.3 C 0 km/h
3081 11-10-2009 16:23:02 13.8 C 8.94 g/m*3 13.8 C 0 km/h
3082 11-10-2009 16:35:02 13.2 C 9.3 g/m*3 13.2 C 0 km/h
3083 11-10-2009 16:47:02 12.9 C 9.47 g/m*3 12.9 C 0 km/h
3084 11-10-2009 16:59:02 12.8 C 9.63 g/m*3 12.8 C 0 km/h
3085 11-10-2009 17:11:02 12.6 C 9.51 g/m*3 12.6 C 0 km/h
3086 11-10-2009 17:23:01 12.5 C 9.46 g/m*3 12.5 C 0 km/h
3087 11-10-2009 17:35:02 12.7 C 9.68 g/m*3 12.7 C 0 km/h
3088 11-10-2009 17:47:02 12.8 C 9.63 g/m*3 12.8 C 0 km/h
3089 11-10-2009 17:59:02 12.6 C 9.51 g/m*3 12.6 C 0 km/h
3090 11-10-2009 18:11:02 12.6 C 9.51 g/m*3 12.6 C 0 km/h
3091 11-10-2009 18:23:01 12.7 C 9.46 g/m*3 12.7 C 0 km/h
3092 11-10-2009 18:35:02 12.7 C 9.46 g/m*3 12.7 C 0 km/h
3093 11-10-2009 18:47:01 12.7 C 9.46 g/m*3 12.7 C 0 km/h
3094 11-10-2009 18:59:01 12.5 C 9.35 g/m*3 12.5 C 0 km/h
3095 11-10-2009 19:11:02 12.4 C 9.29 g/m*3 12.4 C 0 km/h
3096 11-10-2009 19:23:02 12.5 C 9.35 g/m*3 12.5 C 0 km/h
3097 11-10-2009 19:35:02 12.4 C 9.18 g/m*3 12.4 C 0 km/h
3098 11-10-2009 19:47:02 12.4 C 9.07 g/m*3 12.4 C 0 km/h
3099 11-10-2009 19:59:02 12.4 C 8.85 g/m*3 12.4 C 0 km/h
3100 11-10-2009 20:11:02 12.5 C 8.8 g/m*3 12.5 C 0 km/h
Sensor: Nr:Datum:Temp:Abs-Feuchte:Windchill:Wind:
Aussen-T/F 3101 11-10-2009 20:23:02 12.8 C 8.51 g/m*3 12.8 C 0 km/h
3102 11-10-2009 20:35:01 12.7 C 8.35 g/m*3 12.7 C 0 km/h
3103 11-10-2009 20:47:02 12.5 C 8.25 g/m*3 12.5 C 0 km/h
3104 11-10-2009 20:59:02 12.4 C 8.41 g/m*3 12.4 C 0 km/h
3105 11-10-2009 21:11:02 12.4 C 8.41 g/m*3 12.4 C 0 km/h
3106 11-10-2009 21:23:01 12.5 C 8.58 g/m*3 12.5 C 0 km/h
3107 11-10-2009 21:35:02 12.5 C 8.58 g/m*3 12.5 C 0 km/h
3108 11-10-2009 21:48:02 12.4 C 8.63 g/m*3 12.4 C 0 km/h
3109 11-10-2009 22:00:03 12.1 C 8.79 g/m*3 12.1 C 0 km/h
3110 11-10-2009 22:12:03 11.9 C 8.9 g/m*3 11.9 C 0 km/h
3111 11-10-2009 22:24:03 11.7 C 8.99 g/m*3 11.7 C 0 km/h
3112 11-10-2009 22:36:03 11.6 C 9.15 g/m*3 11.6 C 0 km/h
3113 11-10-2009 22:48:03 11.6 C 9.15 g/m*3 11.6 C 0 km/h
3114 11-10-2009 23:00:03 11.5 C 9.19 g/m*3 11.5 C 0 km/h
3115 11-10-2009 23:12:03 11.5 C 9.19 g/m*3 11.5 C 0 km/h
3116 11-10-2009 23:24:03 11.3 C 9.08 g/m*3 11.3 C 0 km/h
3117 11-10-2009 23:36:03 11.4 C 9.24 g/m*3 11.4 C 0 km/h
3118 11-10-2009 23:48:03 11.5 C 9.3 g/m*3 11.5 C 0 km/h
3119 12-10-2009 00:00:03 11.4 C 9.24 g/m*3 11.4 C 0 km/h
3120 12-10-2009 00:12:03 11.4 C 9.24 g/m*3 11.4 C 0 km/h
3121 12-10-2009 00:24:03 11 C 8.41 g/m*3 11 C 0 km/h
3122 12-10-2009 00:36:03 10.8 C 7.71 g/m*3 10.8 C 0 km/h
3123 12-10-2009 00:48:03 10.4 C 7.52 g/m*3 10.4 C 0 km/h
3124 12-10-2009 01:00:03 10.2 C 7.52 g/m*3 10.2 C 0 km/h
3125 12-10-2009 01:12:03 9.9 C 7.56 g/m*3 9.9 C 0 km/h
Sensor: Nr:Datum:Temp:Abs-Feuchte:Windchill:Wind:
Aussen-T/F 3126 12-10-2009 01:24:03 9.7 C 7.65 g/m*3 9.7 C 0 km/h
3127 12-10-2009 01:36:03 9.6 C 7.69 g/m*3 9.6 C 0 km/h
3128 12-10-2009 01:48:03 9.6 C 7.79 g/m*3 9.6 C 0 km/h
3129 12-10-2009 02:00:04 9.7 C 7.93 g/m*3 9.7 C 0 km/h
3130 12-10-2009 02:12:04 9.8 C 7.89 g/m*3 9.8 C 0 km/h
3131 12-10-2009 02:24:04 10.1 C 7.75 g/m*3 10.1 C 0 km/h
3132 12-10-2009 02:36:04 10.3 C 7.66 g/m*3 10.3 C 0 km/h
3133 12-10-2009 02:48:04 10.2 C 7.61 g/m*3 10.2 C 0 km/h
3134 12-10-2009 03:00:04 10.4 C 7.71 g/m*3 10.4 C 0 km/h
3135 12-10-2009 03:12:04 10.3 C 7.66 g/m*3 10.3 C 0 km/h
3136 12-10-2009 03:24:04 10.4 C 7.71 g/m*3 10.4 C 0 km/h
3137 12-10-2009 03:36:04 10.5 C 7.57 g/m*3 10.5 C 0 km/h
3138 12-10-2009 03:48:04 10.8 C 7.41 g/m*3 10.8 C 0 km/h
3139 12-10-2009 04:00:04 10.7 C 7.17 g/m*3 10.7 C 0 km/h
3140 12-10-2009 04:12:04 10.4 C 7.04 g/m*3 10.4 C 0 km/h
3141 12-10-2009 04:24:04 10.3 C 6.99 g/m*3 10.3 C 0 km/h
3142 12-10-2009 04:36:04 10.3 C 6.99 g/m*3 10.3 C 0 km/h
3143 12-10-2009 04:48:04 10.4 C 6.94 g/m*3 10.4 C 0 km/h
3144 12-10-2009 05:00:04 10.4 C 6.84 g/m*3 10.4 C 0 km/h
3145 12-10-2009 05:12:04 10 C 6.95 g/m*3 10 C 0 km/h
3146 12-10-2009 05:24:04 10 C 7.05 g/m*3 10 C 0 km/h
3147 12-10-2009 05:36:04 10 C 6.95 g/m*3 10 C 0 km/h
3148 12-10-2009 05:48:04 10 C 6.86 g/m*3 10 C 0 km/h
3149 12-10-2009 06:00:05 10.3 C 6.9 g/m*3 10.3 C 0 km/h
3150 12-10-2009 06:12:05 10.4 C 6.75 g/m*3 10.4 C 0 km/h
Sensor: Nr:Datum:Temp:Abs-Feuchte:Windchill:Wind:
Aussen-T/F 3151 12-10-2009 06:24:05 10.5 C 6.79 g/m*3 10.5 C 0 km/h
3152 12-10-2009 06:36:05 10.5 C 6.69 g/m*3 10.5 C 0 km/h
3153 12-10-2009 06:48:05 10.5 C 6.69 g/m*3 10.5 C 0 km/h
3154 12-10-2009 07:00:05 10.4 C 6.65 g/m*3 10.4 C 0 km/h
3155 12-10-2009 07:12:02 10.4 C 6.65 g/m*3 10.4 C 0 km/h
3156 12-10-2009 07:24:02 10.5 C 6.69 g/m*3 10.5 C 0 km/h
3157 12-10-2009 07:36:02 10.5 C 6.69 g/m*3 10.5 C 0 km/h
3158 12-10-2009 07:48:02 10.5 C 6.69 g/m*3 10.5 C 0 km/h
3159 12-10-2009 08:00:02 10.5 C 6.69 g/m*3 10.5 C 0 km/h
3160 12-10-2009 08:12:02 10.5 C 6.69 g/m*3 10.5 C 0 km/h
3161 12-10-2009 08:24:02 10.5 C 6.79 g/m*3 10.5 C 0 km/h
3162 12-10-2009 08:36:01 10.5 C 6.89 g/m*3 10.5 C 0 km/h
3163 12-10-2009 08:48:02 9.9 C 7.1 g/m*3 9.9 C 0 km/h
3164 12-10-2009 09:00:02 9.6 C 7.42 g/m*3 9.6 C 0 km/h
3165 12-10-2009 09:12:01 9.7 C 7.56 g/m*3 9.7 C 0 km/h
3166 12-10-2009 09:24:02 9.8 C 7.61 g/m*3 9.8 C 0 km/h
3167 12-10-2009 09:36:01 9.7 C 7.56 g/m*3 9.7 C 0 km/h
3168 12-10-2009 09:48:02 9.7 C 7.65 g/m*3 9.7 C 0 km/h
3169 12-10-2009 10:00:02 10 C 7.52 g/m*3 10 C 0 km/h
3170 12-10-2009 10:12:01 9.9 C 7.38 g/m*3 9.9 C 0 km/h
3171 12-10-2009 10:24:02 9.9 C 7.28 g/m*3 9.9 C 0 km/h
3172 12-10-2009 10:36:01 10 C 6.95 g/m*3 10 C 0 km/h
3173 12-10-2009 10:48:02 10.1 C 7 g/m*3 10.1 C 0 km/h
3174 12-10-2009 11:00:02 10.5 C 6.6 g/m*3 10.5 C 0 km/h
3175 12-10-2009 11:12:02 10.7 C 6.58 g/m*3 10.7 C 0 km/h
Sensor: Nr:Datum:Temp:Abs-Feuchte:Windchill:Wind:
Aussen-T/F 3176 12-10-2009 11:24:02 10.9 C 6.27 g/m*3 10.9 C 0 km/h
3177 12-10-2009 11:36:03 11.2 C 5.88 g/m*3 11.2 C 0 km/h
3178 12-10-2009 11:48:02 11.2 C 5.37 g/m*3 11.2 C 0 km/h
3179 12-10-2009 12:00:03 10.8 C 5.44 g/m*3 10.8 C 0 km/h
3180 12-10-2009 12:12:01 10.6 C 5.37 g/m*3 10.6 C 0 km/h
3181 12-10-2009 12:24:02 10.8 C 5.63 g/m*3 10.8 C 0 km/h
3182 12-10-2009 12:36:02 11.5 C 5.58 g/m*3 11.5 C 0 km/h
3183 12-10-2009 12:48:02 11.5 C 5.37 g/m*3 11.5 C 0 km/h
3184 12-10-2009 13:00:02 11.4 C 5.34 g/m*3 11.4 C 0 km/h
3185 12-10-2009 13:12:03 11.5 C 5.27 g/m*3 11.5 C 0 km/h
3186 12-10-2009 13:24:02 11.9 C 5.82 g/m*3 11.9 C 0 km/h
3187 12-10-2009 13:36:02 12.1 C 5.58 g/m*3 12.1 C 0 km/h
3188 12-10-2009 13:48:01 12.3 C 4.89 g/m*3 12.3 C 0 km/h
3189 12-10-2009 14:00:01 13 C 4.65 g/m*3 13 C 0 km/h
3190 12-10-2009 14:12:02 12.8 C 4.59 g/m*3 12.8 C 0 km/h
3191 12-10-2009 14:24:01 12.8 C 4.48 g/m*3 12.8 C 0 km/h
3192 12-10-2009 14:36:02 13.5 C 4.44 g/m*3 13.5 C 0 km/h
3193 12-10-2009 14:48:02 13.1 C 4.34 g/m*3 13.1 C 0 km/h
3194 12-10-2009 15:00:02 13.6 C 4.24 g/m*3 13.6 C 0 km/h
3195 12-10-2009 15:12:02 13.4 C 4.18 g/m*3 13.4 C 0 km/h
3196 12-10-2009 15:24:01 13.3 C 4.39 g/m*3 13.3 C 0 km/h
3197 12-10-2009 15:36:02 13.2 C 4.25 g/m*3 13.2 C 0 km/h
3198 12-10-2009 15:48:02 13.2 C 4.25 g/m*3 13.2 C 0 km/h
3199 12-10-2009 16:00:02 13.3 C 4.16 g/m*3 13.3 C 0 km/h
3200 12-10-2009 16:12:02 14.7 C 4.41 g/m*3 14.7 C 0 km/h
Sensor: Nr:Datum:Temp:Abs-Feuchte:Windchill:Wind:
Aussen-T/F 3201 12-10-2009 16:24:02 15.2 C 4.15 g/m*3 15.2 C 0 km/h
3202 12-10-2009 16:36:02 14.7 C 4.41 g/m*3 14.7 C 0 km/h
3203 12-10-2009 16:48:02 14.7 C 4.41 g/m*3 14.7 C 0 km/h
3204 12-10-2009 17:00:02 14.7 C 4.28 g/m*3 14.7 C 0 km/h
3205 12-10-2009 17:12:02 14.7 C 4.28 g/m*3 14.7 C 0 km/h
3206 12-10-2009 17:24:02 14.1 C 4 g/m*3 14.1 C 0 km/h
3207 12-10-2009 17:36:02 13.3 C 4.16 g/m*3 13.3 C 0 km/h
3208 12-10-2009 17:48:02 13 C 4.42 g/m*3 13 C 0 km/h
3209 12-10-2009 18:00:02 12.8 C 4.59 g/m*3 12.8 C 0 km/h
3210 12-10-2009 18:12:02 12.7 C 4.68 g/m*3 12.7 C 0 km/h
3211 12-10-2009 18:24:02 12.5 C 4.62 g/m*3 12.5 C 0 km/h
3212 12-10-2009 18:36:02 12.2 C 4.86 g/m*3 12.2 C 0 km/h
3213 12-10-2009 18:48:02 12 C 5.01 g/m*3 12 C 0 km/h
3214 12-10-2009 19:00:02 11.5 C 5.16 g/m*3 11.5 C 0 km/h
3215 12-10-2009 19:12:02 11.1 C 5.24 g/m*3 11.1 C 0 km/h
3216 12-10-2009 19:24:03 10.9 C 5.27 g/m*3 10.9 C 0 km/h
3217 12-10-2009 19:36:02 10.7 C 5.3 g/m*3 10.7 C 0 km/h
3218 12-10-2009 19:48:02 10.6 C 5.27 g/m*3 10.6 C 0 km/h
3219 12-10-2009 20:00:02 10.4 C 5.3 g/m*3 10.4 C 0 km/h
3220 12-10-2009 20:12:02 10.2 C 5.42 g/m*3 10.2 C 0 km/h
3221 12-10-2009 20:24:02 10.3 C 5.55 g/m*3 10.3 C 0 km/h
3222 12-10-2009 20:36:02 10.4 C 5.49 g/m*3 10.4 C 0 km/h
3223 12-10-2009 20:48:02 10.4 C 5.78 g/m*3 10.4 C 0 km/h
3224 12-10-2009 21:00:02 10.4 C 5.88 g/m*3 10.4 C 0 km/h
3225 12-10-2009 21:12:02 10.2 C 6.19 g/m*3 10.2 C 0 km/h
Sensor: Nr:Datum:Temp:Abs-Feuchte:Windchill:Wind:
Aussen-T/F 3226 12-10-2009 21:24:02 10.1 C 6.34 g/m*3 10.1 C 0 km/h
3227 12-10-2009 21:36:02 9.8 C 6.68 g/m*3 9.8 C 0 km/h
3228 12-10-2009 21:48:02 9.5 C 6.83 g/m*3 9.5 C 0 km/h
3229 12-10-2009 22:00:03 9.1 C 7.01 g/m*3 9.1 C